<?xml version="1.0" encoding="UTF-8" standalone="no" ?><gpx xmlns="http://www.topografix.com/GPX/1/1" xmlns:gpxx="http://www.garmin.com/xmlschemas/GpxExtensions/v3" xmlns:wptx1="http://www.garmin.com/xmlschemas/WaypointExtension/v1" xmlns:gpxtpx="http://www.garmin.com/xmlschemas/TrackPointExtension/v1" creator="GuideVTT.com" version="1.1" xmlns:xsi="http://www.w3.org/2001/XMLSchema-instance" xsi:schemaLocation="http://www.topografix.com/GPX/1/1 http://www.topografix.com/GPX/1/1/gpx.xsd http://www.garmin.com/xmlschemas/GpxExtensions/v3 http://www8.garmin.com/xmlschemas/GpxExtensionsv3.xsd http://www.garmin.com/xmlschemas/WaypointExtension/v1 http://www8.garmin.com/xmlschemas/WaypointExtensionv1.xsd http://www.garmin.com/xmlschemas/TrackPointExtension/v1 http://www.garmin.com/xmlschemas/TrackPointExtensionv1.xsd">
<metadata><link href="http://www.garmin.com"><text>Garmin International</text></link><time>2013-06-22T15:13:50Z</time></metadata>
<trk><name>b9bf0306.gpx</name><extensions><gpxx:TrackExtension><gpxx:DisplayColor>Cyan</gpxx:DisplayColor></gpxx:TrackExtension></extensions><trkseg>
<trkpt lat="46.51334" lon="6.66064"><ele>450.4</ele><time>2021-09-11T14:03:08Z</time></trkpt>
<trkpt lat="46.51327" lon="6.66094"><ele>450</ele><time>2021-09-11T14:03:11Z</time></trkpt>
<trkpt lat="46.51325" lon="6.66103"><ele>448.4</ele><time>2021-09-11T14:03:12Z</time></trkpt>
<trkpt lat="46.51322" lon="6.66115"><ele>449</ele><time>2021-09-11T14:03:13Z</time></trkpt>
<trkpt lat="46.51314" lon="6.66146"><ele>443.2</ele><time>2021-09-11T14:03:16Z</time></trkpt>
<trkpt lat="46.51314" lon="6.66153"><ele>446.6</ele><time>2021-09-11T14:03:17Z</time></trkpt>
<trkpt lat="46.51315" lon="6.66173"><ele>451.2</ele><time>2021-09-11T14:03:21Z</time></trkpt>
<trkpt lat="46.51313" lon="6.6618"><ele>454.4</ele><time>2021-09-11T14:03:22Z</time></trkpt>
<trkpt lat="46.51316" lon="6.66208"><ele>455.2</ele><time>2021-09-11T14:03:26Z</time></trkpt>
<trkpt lat="46.51313" lon="6.66236"><ele>448.8</ele><time>2021-09-11T14:03:30Z</time></trkpt>
<trkpt lat="46.51315" lon="6.66267"><ele>453.8</ele><time>2021-09-11T14:03:34Z</time></trkpt>
<trkpt lat="46.51315" lon="6.66298"><ele>453</ele><time>2021-09-11T14:03:38Z</time></trkpt>
<trkpt lat="46.51315" lon="6.66331"><ele>453.4</ele><time>2021-09-11T14:03:42Z</time></trkpt>
<trkpt lat="46.51315" lon="6.66362"><ele>453</ele><time>2021-09-11T14:03:46Z</time></trkpt>
<trkpt lat="46.51313" lon="6.66377"><ele>452.4</ele><time>2021-09-11T14:03:48Z</time></trkpt>
<trkpt lat="46.51301" lon="6.66405"><ele>451.2</ele><time>2021-09-11T14:03:52Z</time></trkpt>
<trkpt lat="46.51298" lon="6.66413"><ele>451</ele><time>2021-09-11T14:03:53Z</time></trkpt>
<trkpt lat="46.5129" lon="6.66444"><ele>450</ele><time>2021-09-11T14:03:57Z</time></trkpt>
<trkpt lat="46.51279" lon="6.66473"><ele>449.2</ele><time>2021-09-11T14:04:01Z</time></trkpt>
<trkpt lat="46.51267" lon="6.66498"><ele>448</ele><time>2021-09-11T14:04:04Z</time></trkpt>
<trkpt lat="46.51254" lon="6.66524"><ele>447.2</ele><time>2021-09-11T14:04:07Z</time></trkpt>
<trkpt lat="46.5124" lon="6.6655"><ele>447.6</ele><time>2021-09-11T14:04:10Z</time></trkpt>
<trkpt lat="46.51226" lon="6.66575"><ele>447.8</ele><time>2021-09-11T14:04:13Z</time></trkpt>
<trkpt lat="46.51213" lon="6.666"><ele>447.8</ele><time>2021-09-11T14:04:16Z</time></trkpt>
<trkpt lat="46.51199" lon="6.66626"><ele>448.2</ele><time>2021-09-11T14:04:19Z</time></trkpt>
<trkpt lat="46.51188" lon="6.66653"><ele>449.2</ele><time>2021-09-11T14:04:22Z</time></trkpt>
<trkpt lat="46.51184" lon="6.66671"><ele>449.2</ele><time>2021-09-11T14:04:24Z</time></trkpt>
<trkpt lat="46.51181" lon="6.66698"><ele>449.4</ele><time>2021-09-11T14:04:27Z</time></trkpt>
<trkpt lat="46.5118" lon="6.66728"><ele>450</ele><time>2021-09-11T14:04:31Z</time></trkpt>
<trkpt lat="46.51179" lon="6.66756"><ele>450.8</ele><time>2021-09-11T14:04:35Z</time></trkpt>
<trkpt lat="46.51177" lon="6.66786"><ele>451.2</ele><time>2021-09-11T14:04:40Z</time></trkpt>
<trkpt lat="46.51176" lon="6.66816"><ele>451.8</ele><time>2021-09-11T14:04:45Z</time></trkpt>
<trkpt lat="46.51175" lon="6.66844"><ele>451.8</ele><time>2021-09-11T14:04:49Z</time></trkpt>
<trkpt lat="46.51174" lon="6.66877"><ele>451.6</ele><time>2021-09-11T14:04:53Z</time></trkpt>
<trkpt lat="46.51173" lon="6.66904"><ele>450.8</ele><time>2021-09-11T14:04:56Z</time></trkpt>
<trkpt lat="46.51172" lon="6.66934"><ele>450.4</ele><time>2021-09-11T14:04:59Z</time></trkpt>
<trkpt lat="46.51173" lon="6.66966"><ele>449.6</ele><time>2021-09-11T14:05:02Z</time></trkpt>
<trkpt lat="46.51176" lon="6.66998"><ele>448.8</ele><time>2021-09-11T14:05:05Z</time></trkpt>
<trkpt lat="46.51181" lon="6.67029"><ele>448.6</ele><time>2021-09-11T14:05:08Z</time></trkpt>
<trkpt lat="46.5119" lon="6.67057"><ele>448.8</ele><time>2021-09-11T14:05:11Z</time></trkpt>
<trkpt lat="46.51201" lon="6.67081"><ele>449</ele><time>2021-09-11T14:05:14Z</time></trkpt>
<trkpt lat="46.51215" lon="6.671"><ele>449</ele><time>2021-09-11T14:05:17Z</time></trkpt>
<trkpt lat="46.5122" lon="6.67105"><ele>449.2</ele><time>2021-09-11T14:05:18Z</time></trkpt>
<trkpt lat="46.51237" lon="6.67117"><ele>449</ele><time>2021-09-11T14:05:21Z</time></trkpt>
<trkpt lat="46.51257" lon="6.67126"><ele>448.6</ele><time>2021-09-11T14:05:24Z</time></trkpt>
<trkpt lat="46.51263" lon="6.6713"><ele>448.4</ele><time>2021-09-11T14:05:25Z</time></trkpt>
<trkpt lat="46.51281" lon="6.67147"><ele>448.2</ele><time>2021-09-11T14:05:28Z</time></trkpt>
<trkpt lat="46.51294" lon="6.67171"><ele>448</ele><time>2021-09-11T14:05:31Z</time></trkpt>
<trkpt lat="46.51298" lon="6.67181"><ele>447.6</ele><time>2021-09-11T14:05:32Z</time></trkpt>
<trkpt lat="46.51305" lon="6.672"><ele>447.2</ele><time>2021-09-11T14:05:34Z</time></trkpt>
<trkpt lat="46.51314" lon="6.67233"><ele>446</ele><time>2021-09-11T14:05:37Z</time></trkpt>
<trkpt lat="46.51322" lon="6.67268"><ele>444.6</ele><time>2021-09-11T14:05:40Z</time></trkpt>
<trkpt lat="46.51332" lon="6.67303"><ele>443.4</ele><time>2021-09-11T14:05:43Z</time></trkpt>
<trkpt lat="46.51347" lon="6.67335"><ele>442</ele><time>2021-09-11T14:05:46Z</time></trkpt>
<trkpt lat="46.51361" lon="6.67352"><ele>440.8</ele><time>2021-09-11T14:05:48Z</time></trkpt>
<trkpt lat="46.51377" lon="6.67365"><ele>440</ele><time>2021-09-11T14:05:50Z</time></trkpt>
<trkpt lat="46.51389" lon="6.67379"><ele>440.4</ele><time>2021-09-11T14:05:52Z</time></trkpt>
<trkpt lat="46.51387" lon="6.67409"><ele>441</ele><time>2021-09-11T14:05:56Z</time></trkpt>
<trkpt lat="46.51381" lon="6.67416"><ele>441.6</ele><time>2021-09-11T14:05:58Z</time></trkpt>
<trkpt lat="46.51373" lon="6.67422"><ele>442</ele><time>2021-09-11T14:06:01Z</time></trkpt>
<trkpt lat="46.51355" lon="6.67436"><ele>443.2</ele><time>2021-09-11T14:06:07Z</time></trkpt>
<trkpt lat="46.51353" lon="6.67438"><ele>443.6</ele><time>2021-09-11T14:06:08Z</time></trkpt>
<trkpt lat="46.51341" lon="6.67441"><ele>444.8</ele><time>2021-09-11T14:06:11Z</time></trkpt>
<trkpt lat="46.51324" lon="6.67426"><ele>443.4</ele><time>2021-09-11T14:06:15Z</time></trkpt>
<trkpt lat="46.51319" lon="6.6742"><ele>442.6</ele><time>2021-09-11T14:06:16Z</time></trkpt>
<trkpt lat="46.51298" lon="6.67406"><ele>442</ele><time>2021-09-11T14:06:20Z</time></trkpt>
<trkpt lat="46.51293" lon="6.67404"><ele>441.4</ele><time>2021-09-11T14:06:21Z</time></trkpt>
<trkpt lat="46.51274" lon="6.67396"><ele>440.8</ele><time>2021-09-11T14:06:26Z</time></trkpt>
<trkpt lat="46.51269" lon="6.67394"><ele>440.6</ele><time>2021-09-11T14:06:28Z</time></trkpt>
<trkpt lat="46.51263" lon="6.67393"><ele>441</ele><time>2021-09-11T14:06:31Z</time></trkpt>
<trkpt lat="46.51255" lon="6.67393"><ele>440.4</ele><time>2021-09-11T14:06:38Z</time></trkpt>
<trkpt lat="46.51255" lon="6.67394"><ele>440.2</ele><time>2021-09-11T14:06:39Z</time></trkpt>
<trkpt lat="46.51251" lon="6.67395"><ele>439.8</ele><time>2021-09-11T14:06:43Z</time></trkpt>
<trkpt lat="46.51249" lon="6.67396"><ele>440</ele><time>2021-09-11T14:06:45Z</time></trkpt>
<trkpt lat="46.51247" lon="6.67396"><ele>440.2</ele><time>2021-09-11T14:06:47Z</time></trkpt>
<trkpt lat="46.51243" lon="6.67397"><ele>440.8</ele><time>2021-09-11T14:06:50Z</time></trkpt>
<trkpt lat="46.51239" lon="6.67399"><ele>441.2</ele><time>2021-09-11T14:06:53Z</time></trkpt>
<trkpt lat="46.51232" lon="6.674"><ele>441.6</ele><time>2021-09-11T14:06:57Z</time></trkpt>
<trkpt lat="46.51229" lon="6.67401"><ele>441.6</ele><time>2021-09-11T14:06:59Z</time></trkpt>
<trkpt lat="46.51226" lon="6.67401"><ele>442</ele><time>2021-09-11T14:07:01Z</time></trkpt>
<trkpt lat="46.51218" lon="6.67401"><ele>442.6</ele><time>2021-09-11T14:07:06Z</time></trkpt>
<trkpt lat="46.51214" lon="6.674"><ele>443</ele><time>2021-09-11T14:07:10Z</time></trkpt>
<trkpt lat="46.51212" lon="6.674"><ele>443</ele><time>2021-09-11T14:07:11Z</time></trkpt>
<trkpt lat="46.51204" lon="6.67398"><ele>443.2</ele><time>2021-09-11T14:07:17Z</time></trkpt>
<trkpt lat="46.51201" lon="6.67398"><ele>443.6</ele><time>2021-09-11T14:07:19Z</time></trkpt>
<trkpt lat="46.51188" lon="6.67402"><ele>447.2</ele><time>2021-09-11T14:07:30Z</time></trkpt>
<trkpt lat="46.51185" lon="6.67404"><ele>447.8</ele><time>2021-09-11T14:07:32Z</time></trkpt>
<trkpt lat="46.51166" lon="6.67406"><ele>451.8</ele><time>2021-09-11T14:07:48Z</time></trkpt>
<trkpt lat="46.51158" lon="6.67404"><ele>452.6</ele><time>2021-09-11T14:07:55Z</time></trkpt>
<trkpt lat="46.51148" lon="6.67375"><ele>453</ele><time>2021-09-11T14:08:02Z</time></trkpt>
<trkpt lat="46.51143" lon="6.67347"><ele>451</ele><time>2021-09-11T14:08:05Z</time></trkpt>
<trkpt lat="46.51125" lon="6.67322"><ele>449.6</ele><time>2021-09-11T14:08:08Z</time></trkpt>
<trkpt lat="46.51107" lon="6.6731"><ele>448.2</ele><time>2021-09-11T14:08:10Z</time></trkpt>
<trkpt lat="46.51089" lon="6.67298"><ele>447.4</ele><time>2021-09-11T14:08:12Z</time></trkpt>
<trkpt lat="46.51073" lon="6.67291"><ele>445.2</ele><time>2021-09-11T14:08:14Z</time></trkpt>
<trkpt lat="46.51056" lon="6.67302"><ele>441.8</ele><time>2021-09-11T14:08:17Z</time></trkpt>
<trkpt lat="46.51049" lon="6.67317"><ele>441.6</ele><time>2021-09-11T14:08:19Z</time></trkpt>
<trkpt lat="46.51037" lon="6.67342"><ele>441.2</ele><time>2021-09-11T14:08:23Z</time></trkpt>
<trkpt lat="46.51028" lon="6.67363"><ele>441.4</ele><time>2021-09-11T14:08:26Z</time></trkpt>
<trkpt lat="46.51015" lon="6.6739"><ele>441.4</ele><time>2021-09-11T14:08:30Z</time></trkpt>
<trkpt lat="46.51001" lon="6.67413"><ele>442</ele><time>2021-09-11T14:08:34Z</time></trkpt>
<trkpt lat="46.50989" lon="6.67433"><ele>443.6</ele><time>2021-09-11T14:08:38Z</time></trkpt>
<trkpt lat="46.50975" lon="6.67456"><ele>444.6</ele><time>2021-09-11T14:08:43Z</time></trkpt>
<trkpt lat="46.50968" lon="6.67471"><ele>445.2</ele><time>2021-09-11T14:08:46Z</time></trkpt>
<trkpt lat="46.50957" lon="6.67486"><ele>446.2</ele><time>2021-09-11T14:08:49Z</time></trkpt>
<trkpt lat="46.50935" lon="6.675"><ele>445.8</ele><time>2021-09-11T14:08:53Z</time></trkpt>
<trkpt lat="46.50924" lon="6.67524"><ele>443</ele><time>2021-09-11T14:08:56Z</time></trkpt>
<trkpt lat="46.50921" lon="6.67559"><ele>441.4</ele><time>2021-09-11T14:08:59Z</time></trkpt>
<trkpt lat="46.50919" lon="6.67582"><ele>441.2</ele><time>2021-09-11T14:09:01Z</time></trkpt>
<trkpt lat="46.50908" lon="6.67602"><ele>441.6</ele><time>2021-09-11T14:09:04Z</time></trkpt>
<trkpt lat="46.50897" lon="6.67601"><ele>441</ele><time>2021-09-11T14:09:06Z</time></trkpt>
<trkpt lat="46.50885" lon="6.67599"><ele>440.4</ele><time>2021-09-11T14:09:08Z</time></trkpt>
<trkpt lat="46.50865" lon="6.67605"><ele>439.6</ele><time>2021-09-11T14:09:11Z</time></trkpt>
<trkpt lat="46.50846" lon="6.67619"><ele>438</ele><time>2021-09-11T14:09:14Z</time></trkpt>
<trkpt lat="46.50841" lon="6.67627"><ele>436.2</ele><time>2021-09-11T14:09:15Z</time></trkpt>
<trkpt lat="46.50826" lon="6.67655"><ele>435.4</ele><time>2021-09-11T14:09:18Z</time></trkpt>
<trkpt lat="46.50813" lon="6.67686"><ele>434.4</ele><time>2021-09-11T14:09:21Z</time></trkpt>
<trkpt lat="46.50799" lon="6.67715"><ele>432.8</ele><time>2021-09-11T14:09:24Z</time></trkpt>
<trkpt lat="46.50789" lon="6.67735"><ele>431.4</ele><time>2021-09-11T14:09:26Z</time></trkpt>
<trkpt lat="46.50774" lon="6.67766"><ele>430.2</ele><time>2021-09-11T14:09:29Z</time></trkpt>
<trkpt lat="46.50767" lon="6.67775"><ele>429.8</ele><time>2021-09-11T14:09:30Z</time></trkpt>
<trkpt lat="46.50752" lon="6.67789"><ele>428.8</ele><time>2021-09-11T14:09:32Z</time></trkpt>
<trkpt lat="46.50744" lon="6.67795"><ele>428.4</ele><time>2021-09-11T14:09:33Z</time></trkpt>
<trkpt lat="46.50721" lon="6.67811"><ele>426.8</ele><time>2021-09-11T14:09:36Z</time></trkpt>
<trkpt lat="46.50704" lon="6.67836"><ele>426</ele><time>2021-09-11T14:09:39Z</time></trkpt>
<trkpt lat="46.50698" lon="6.67868"><ele>425.2</ele><time>2021-09-11T14:09:42Z</time></trkpt>
<trkpt lat="46.50692" lon="6.67898"><ele>423.6</ele><time>2021-09-11T14:09:45Z</time></trkpt>
<trkpt lat="46.5069" lon="6.67908"><ele>423.2</ele><time>2021-09-11T14:09:46Z</time></trkpt>
<trkpt lat="46.50687" lon="6.6794"><ele>422.4</ele><time>2021-09-11T14:09:49Z</time></trkpt>
<trkpt lat="46.50687" lon="6.6795"><ele>421.8</ele><time>2021-09-11T14:09:50Z</time></trkpt>
<trkpt lat="46.50687" lon="6.6798"><ele>421.8</ele><time>2021-09-11T14:09:53Z</time></trkpt>
<trkpt lat="46.50689" lon="6.68007"><ele>421.2</ele><time>2021-09-11T14:09:56Z</time></trkpt>
<trkpt lat="46.50706" lon="6.68018"><ele>420.6</ele><time>2021-09-11T14:10:00Z</time></trkpt>
<trkpt lat="46.50724" lon="6.68014"><ele>425</ele><time>2021-09-11T14:10:07Z</time></trkpt>
<trkpt lat="46.50726" lon="6.68014"><ele>425.4</ele><time>2021-09-11T14:10:08Z</time></trkpt>
<trkpt lat="46.50742" lon="6.68015"><ele>427.8</ele><time>2021-09-11T14:10:16Z</time></trkpt>
<trkpt lat="46.50754" lon="6.68015"><ele>429.2</ele><time>2021-09-11T14:10:22Z</time></trkpt>
<trkpt lat="46.5076" lon="6.68015"><ele>430.6</ele><time>2021-09-11T14:10:25Z</time></trkpt>
<trkpt lat="46.50762" lon="6.68016"><ele>431</ele><time>2021-09-11T14:10:26Z</time></trkpt>
<trkpt lat="46.50764" lon="6.68017"><ele>432.2</ele><time>2021-09-11T14:10:27Z</time></trkpt>
<trkpt lat="46.50769" lon="6.68036"><ele>432.6</ele><time>2021-09-11T14:10:34Z</time></trkpt>
<trkpt lat="46.50772" lon="6.68067"><ele>431.8</ele><time>2021-09-11T14:10:41Z</time></trkpt>
<trkpt lat="46.50772" lon="6.68073"><ele>431.8</ele><time>2021-09-11T14:10:42Z</time></trkpt>
<trkpt lat="46.50773" lon="6.68078"><ele>431.8</ele><time>2021-09-11T14:10:43Z</time></trkpt>
<trkpt lat="46.50773" lon="6.68084"><ele>431.6</ele><time>2021-09-11T14:10:44Z</time></trkpt>
<trkpt lat="46.50774" lon="6.68091"><ele>431.6</ele><time>2021-09-11T14:10:45Z</time></trkpt>
<trkpt lat="46.50775" lon="6.68111"><ele>431</ele><time>2021-09-11T14:10:48Z</time></trkpt>
<trkpt lat="46.50777" lon="6.68139"><ele>431.2</ele><time>2021-09-11T14:10:52Z</time></trkpt>
<trkpt lat="46.50779" lon="6.68168"><ele>431.4</ele><time>2021-09-11T14:10:56Z</time></trkpt>
<trkpt lat="46.5078" lon="6.68195"><ele>431.8</ele><time>2021-09-11T14:11:00Z</time></trkpt>
<trkpt lat="46.50782" lon="6.68223"><ele>431.4</ele><time>2021-09-11T14:11:04Z</time></trkpt>
<trkpt lat="46.50786" lon="6.68254"><ele>429.6</ele><time>2021-09-11T14:11:08Z</time></trkpt>
<trkpt lat="46.50791" lon="6.6828"><ele>428.2</ele><time>2021-09-11T14:11:11Z</time></trkpt>
<trkpt lat="46.50795" lon="6.68309"><ele>426.8</ele><time>2021-09-11T14:11:15Z</time></trkpt>
<trkpt lat="46.50796" lon="6.68317"><ele>426.4</ele><time>2021-09-11T14:11:18Z</time></trkpt>
<trkpt lat="46.50797" lon="6.68318"><ele>426.4</ele><time>2021-09-11T14:11:19Z</time></trkpt>
<trkpt lat="46.50798" lon="6.68323"><ele>426.6</ele><time>2021-09-11T14:11:22Z</time></trkpt>
<trkpt lat="46.50807" lon="6.6835"><ele>427.4</ele><time>2021-09-11T14:11:29Z</time></trkpt>
<trkpt lat="46.50816" lon="6.68375"><ele>428.6</ele><time>2021-09-11T14:11:35Z</time></trkpt>
<trkpt lat="46.50825" lon="6.68399"><ele>429.4</ele><time>2021-09-11T14:11:41Z</time></trkpt>
<trkpt lat="46.50825" lon="6.68425"><ele>430.2</ele><time>2021-09-11T14:11:47Z</time></trkpt>
<trkpt lat="46.50818" lon="6.68471"><ele>432.4</ele><time>2021-09-11T14:11:58Z</time></trkpt>
<trkpt lat="46.50808" lon="6.68496"><ele>433.6</ele><time>2021-09-11T14:12:06Z</time></trkpt>
<trkpt lat="46.50797" lon="6.68518"><ele>434</ele><time>2021-09-11T14:12:11Z</time></trkpt>
<trkpt lat="46.5079" lon="6.68545"><ele>433.4</ele><time>2021-09-11T14:12:16Z</time></trkpt>
<trkpt lat="46.50784" lon="6.6857"><ele>433</ele><time>2021-09-11T14:12:21Z</time></trkpt>
<trkpt lat="46.50776" lon="6.68584"><ele>433</ele><time>2021-09-11T14:12:25Z</time></trkpt>
<trkpt lat="46.50776" lon="6.68602"><ele>431</ele><time>2021-09-11T14:12:29Z</time></trkpt>
<trkpt lat="46.50778" lon="6.68625"><ele>430.6</ele><time>2021-09-11T14:12:34Z</time></trkpt>
<trkpt lat="46.5077" lon="6.68622"><ele>429.8</ele><time>2021-09-11T14:12:37Z</time></trkpt>
<trkpt lat="46.50765" lon="6.68604"><ele>430.6</ele><time>2021-09-11T14:12:40Z</time></trkpt>
<trkpt lat="46.50765" lon="6.68589"><ele>431</ele><time>2021-09-11T14:12:43Z</time></trkpt>
<trkpt lat="46.50787" lon="6.68563"><ele>432.8</ele><time>2021-09-11T14:12:54Z</time></trkpt>
<trkpt lat="46.50793" lon="6.68537"><ele>434.2</ele><time>2021-09-11T14:13:01Z</time></trkpt>
<trkpt lat="46.50794" lon="6.68534"><ele>434</ele><time>2021-09-11T14:13:02Z</time></trkpt>
<trkpt lat="46.50802" lon="6.68509"><ele>434.4</ele><time>2021-09-11T14:13:08Z</time></trkpt>
<trkpt lat="46.50805" lon="6.68503"><ele>434.8</ele><time>2021-09-11T14:13:10Z</time></trkpt>
<trkpt lat="46.50808" lon="6.68496"><ele>434.6</ele><time>2021-09-11T14:13:12Z</time></trkpt>
<trkpt lat="46.50819" lon="6.68473"><ele>434.2</ele><time>2021-09-11T14:13:18Z</time></trkpt>
<trkpt lat="46.50823" lon="6.68442"><ele>432.6</ele><time>2021-09-11T14:13:23Z</time></trkpt>
<trkpt lat="46.50829" lon="6.68416"><ele>432.6</ele><time>2021-09-11T14:13:27Z</time></trkpt>
<trkpt lat="46.50833" lon="6.68409"><ele>432.6</ele><time>2021-09-11T14:13:29Z</time></trkpt>
<trkpt lat="46.50851" lon="6.68406"><ele>434.6</ele><time>2021-09-11T14:13:39Z</time></trkpt>
<trkpt lat="46.50861" lon="6.68411"><ele>436</ele><time>2021-09-11T14:13:46Z</time></trkpt>
<trkpt lat="46.50865" lon="6.68414"><ele>436.6</ele><time>2021-09-11T14:13:49Z</time></trkpt>
<trkpt lat="46.50868" lon="6.68415"><ele>437</ele><time>2021-09-11T14:13:51Z</time></trkpt>
<trkpt lat="46.50873" lon="6.68417"><ele>436.6</ele><time>2021-09-11T14:13:55Z</time></trkpt>
<trkpt lat="46.50876" lon="6.68417"><ele>436.6</ele><time>2021-09-11T14:13:58Z</time></trkpt>
<trkpt lat="46.50883" lon="6.68416"><ele>436.2</ele><time>2021-09-11T14:14:04Z</time></trkpt>
<trkpt lat="46.50886" lon="6.68412"><ele>436.2</ele><time>2021-09-11T14:14:20Z</time></trkpt>
<trkpt lat="46.50903" lon="6.6842"><ele>439.2</ele><time>2021-09-11T14:14:44Z</time></trkpt>
<trkpt lat="46.50908" lon="6.68433"><ele>440.2</ele><time>2021-09-11T14:14:52Z</time></trkpt>
<trkpt lat="46.50915" lon="6.68459"><ele>440.6</ele><time>2021-09-11T14:15:01Z</time></trkpt>
<trkpt lat="46.50923" lon="6.68486"><ele>442.6</ele><time>2021-09-11T14:15:08Z</time></trkpt>
<trkpt lat="46.5093" lon="6.6851"><ele>443.2</ele><time>2021-09-11T14:15:14Z</time></trkpt>
<trkpt lat="46.50937" lon="6.68535"><ele>444.8</ele><time>2021-09-11T14:15:20Z</time></trkpt>
<trkpt lat="46.50942" lon="6.68548"><ele>445.4</ele><time>2021-09-11T14:15:23Z</time></trkpt>
<trkpt lat="46.5095" lon="6.68576"><ele>446.6</ele><time>2021-09-11T14:15:30Z</time></trkpt>
<trkpt lat="46.5095" lon="6.68604"><ele>448</ele><time>2021-09-11T14:15:36Z</time></trkpt>
<trkpt lat="46.50949" lon="6.68631"><ele>449.4</ele><time>2021-09-11T14:15:42Z</time></trkpt>
<trkpt lat="46.50952" lon="6.68659"><ele>450.2</ele><time>2021-09-11T14:15:48Z</time></trkpt>
<trkpt lat="46.50958" lon="6.68685"><ele>450.8</ele><time>2021-09-11T14:15:53Z</time></trkpt>
<trkpt lat="46.50964" lon="6.68716"><ele>451.4</ele><time>2021-09-11T14:15:58Z</time></trkpt>
<trkpt lat="46.50963" lon="6.68762"><ele>454</ele><time>2021-09-11T14:16:07Z</time></trkpt>
<trkpt lat="46.50962" lon="6.68791"><ele>454.6</ele><time>2021-09-11T14:16:13Z</time></trkpt>
<trkpt lat="46.50953" lon="6.68815"><ele>455.8</ele><time>2021-09-11T14:16:19Z</time></trkpt>
<trkpt lat="46.50948" lon="6.68841"><ele>456.8</ele><time>2021-09-11T14:16:25Z</time></trkpt>
<trkpt lat="46.50946" lon="6.68855"><ele>457.4</ele><time>2021-09-11T14:16:28Z</time></trkpt>
<trkpt lat="46.5094" lon="6.68881"><ele>459.6</ele><time>2021-09-11T14:16:34Z</time></trkpt>
<trkpt lat="46.50934" lon="6.68906"><ele>461.2</ele><time>2021-09-11T14:16:40Z</time></trkpt>
<trkpt lat="46.50942" lon="6.68947"><ele>462.4</ele><time>2021-09-11T14:16:51Z</time></trkpt>
<trkpt lat="46.50957" lon="6.68962"><ele>462.6</ele><time>2021-09-11T14:16:57Z</time></trkpt>
<trkpt lat="46.50969" lon="6.68984"><ele>463</ele><time>2021-09-11T14:17:03Z</time></trkpt>
<trkpt lat="46.50973" lon="6.69011"><ele>463.2</ele><time>2021-09-11T14:17:09Z</time></trkpt>
<trkpt lat="46.50975" lon="6.69037"><ele>463</ele><time>2021-09-11T14:17:14Z</time></trkpt>
<trkpt lat="46.50981" lon="6.69062"><ele>462.8</ele><time>2021-09-11T14:17:19Z</time></trkpt>
<trkpt lat="46.50996" lon="6.69083"><ele>463.2</ele><time>2021-09-11T14:17:25Z</time></trkpt>
<trkpt lat="46.51011" lon="6.69099"><ele>464</ele><time>2021-09-11T14:17:32Z</time></trkpt>
<trkpt lat="46.51025" lon="6.69114"><ele>465.2</ele><time>2021-09-11T14:17:39Z</time></trkpt>
<trkpt lat="46.5104" lon="6.69131"><ele>467</ele><time>2021-09-11T14:17:47Z</time></trkpt>
<trkpt lat="46.51055" lon="6.69148"><ele>469.2</ele><time>2021-09-11T14:17:55Z</time></trkpt>
<trkpt lat="46.51071" lon="6.69164"><ele>471.6</ele><time>2021-09-11T14:18:03Z</time></trkpt>
<trkpt lat="46.51075" lon="6.6918"><ele>473</ele><time>2021-09-11T14:18:08Z</time></trkpt>
<trkpt lat="46.51047" lon="6.69196"><ele>464.8</ele><time>2021-09-11T14:18:17Z</time></trkpt>
<trkpt lat="46.5104" lon="6.692"><ele>461.8</ele><time>2021-09-11T14:18:20Z</time></trkpt>
<trkpt lat="46.51041" lon="6.69211"><ele>458.2</ele><time>2021-09-11T14:18:24Z</time></trkpt>
<trkpt lat="46.51039" lon="6.69231"><ele>454</ele><time>2021-09-11T14:18:30Z</time></trkpt>
<trkpt lat="46.51035" lon="6.69244"><ele>450.8</ele><time>2021-09-11T14:18:35Z</time></trkpt>
<trkpt lat="46.51035" lon="6.69246"><ele>450.2</ele><time>2021-09-11T14:18:36Z</time></trkpt>
<trkpt lat="46.51034" lon="6.69249"><ele>448.6</ele><time>2021-09-11T14:18:39Z</time></trkpt>
<trkpt lat="46.51033" lon="6.69249"><ele>448</ele><time>2021-09-11T14:18:40Z</time></trkpt>
<trkpt lat="46.51029" lon="6.69272"><ele>444.4</ele><time>2021-09-11T14:18:51Z</time></trkpt>
<trkpt lat="46.51027" lon="6.69276"><ele>444</ele><time>2021-09-11T14:18:52Z</time></trkpt>
<trkpt lat="46.51024" lon="6.69279"><ele>443</ele><time>2021-09-11T14:18:55Z</time></trkpt>
<trkpt lat="46.5102" lon="6.69281"><ele>441.8</ele><time>2021-09-11T14:18:59Z</time></trkpt>
<trkpt lat="46.51019" lon="6.69283"><ele>441</ele><time>2021-09-11T14:19:02Z</time></trkpt>
<trkpt lat="46.51012" lon="6.69285"><ele>442.2</ele><time>2021-09-11T14:19:13Z</time></trkpt>
<trkpt lat="46.51005" lon="6.69288"><ele>442.8</ele><time>2021-09-11T14:19:26Z</time></trkpt>
<trkpt lat="46.50995" lon="6.6929"><ele>447.6</ele><time>2021-09-11T14:19:47Z</time></trkpt>
<trkpt lat="46.50983" lon="6.69288"><ele>451.2</ele><time>2021-09-11T14:20:11Z</time></trkpt>
<trkpt lat="46.50979" lon="6.69278"><ele>452.6</ele><time>2021-09-11T14:20:20Z</time></trkpt>
<trkpt lat="46.50957" lon="6.69285"><ele>459</ele><time>2021-09-11T14:20:48Z</time></trkpt>
<trkpt lat="46.50955" lon="6.69287"><ele>459.4</ele><time>2021-09-11T14:20:49Z</time></trkpt>
<trkpt lat="46.50938" lon="6.69303"><ele>462</ele><time>2021-09-11T14:20:57Z</time></trkpt>
<trkpt lat="46.50924" lon="6.69317"><ele>462.6</ele><time>2021-09-11T14:21:02Z</time></trkpt>
<trkpt lat="46.50904" lon="6.6933"><ele>462</ele><time>2021-09-11T14:21:06Z</time></trkpt>
<trkpt lat="46.50898" lon="6.69334"><ele>461.8</ele><time>2021-09-11T14:21:07Z</time></trkpt>
<trkpt lat="46.50881" lon="6.69355"><ele>458.2</ele><time>2021-09-11T14:21:10Z</time></trkpt>
<trkpt lat="46.50866" lon="6.69382"><ele>457.8</ele><time>2021-09-11T14:21:13Z</time></trkpt>
<trkpt lat="46.50858" lon="6.69401"><ele>458.2</ele><time>2021-09-11T14:21:15Z</time></trkpt>
<trkpt lat="46.50847" lon="6.69426"><ele>458.8</ele><time>2021-09-11T14:21:18Z</time></trkpt>
<trkpt lat="46.50841" lon="6.6944"><ele>459.2</ele><time>2021-09-11T14:21:20Z</time></trkpt>
<trkpt lat="46.50832" lon="6.69459"><ele>459.8</ele><time>2021-09-11T14:21:23Z</time></trkpt>
<trkpt lat="46.50818" lon="6.6949"><ele>461.2</ele><time>2021-09-11T14:21:30Z</time></trkpt>
<trkpt lat="46.50817" lon="6.69492"><ele>461.2</ele><time>2021-09-11T14:21:31Z</time></trkpt>
<trkpt lat="46.50811" lon="6.69495"><ele>460.6</ele><time>2021-09-11T14:21:33Z</time></trkpt>
<trkpt lat="46.50802" lon="6.69496"><ele>459.4</ele><time>2021-09-11T14:21:35Z</time></trkpt>
<trkpt lat="46.50783" lon="6.69498"><ele>458</ele><time>2021-09-11T14:21:38Z</time></trkpt>
<trkpt lat="46.50771" lon="6.69498"><ele>457</ele><time>2021-09-11T14:21:40Z</time></trkpt>
<trkpt lat="46.50756" lon="6.69512"><ele>456.2</ele><time>2021-09-11T14:21:44Z</time></trkpt>
<trkpt lat="46.50753" lon="6.69516"><ele>456.2</ele><time>2021-09-11T14:21:45Z</time></trkpt>
<trkpt lat="46.50743" lon="6.69528"><ele>457</ele><time>2021-09-11T14:21:49Z</time></trkpt>
<trkpt lat="46.50734" lon="6.69536"><ele>458.2</ele><time>2021-09-11T14:21:52Z</time></trkpt>
<trkpt lat="46.5072" lon="6.69555"><ele>459.8</ele><time>2021-09-11T14:21:57Z</time></trkpt>
<trkpt lat="46.50706" lon="6.69573"><ele>460.6</ele><time>2021-09-11T14:22:01Z</time></trkpt>
<trkpt lat="46.50693" lon="6.69592"><ele>460.6</ele><time>2021-09-11T14:22:05Z</time></trkpt>
<trkpt lat="46.5068" lon="6.69615"><ele>461.8</ele><time>2021-09-11T14:22:09Z</time></trkpt>
<trkpt lat="46.50668" lon="6.69642"><ele>461</ele><time>2021-09-11T14:22:13Z</time></trkpt>
<trkpt lat="46.50663" lon="6.69666"><ele>459.6</ele><time>2021-09-11T14:22:17Z</time></trkpt>
<trkpt lat="46.50647" lon="6.69668"><ele>455.8</ele><time>2021-09-11T14:22:22Z</time></trkpt>
<trkpt lat="46.50629" lon="6.69664"><ele>450.8</ele><time>2021-09-11T14:22:25Z</time></trkpt>
<trkpt lat="46.5061" lon="6.69659"><ele>448.8</ele><time>2021-09-11T14:22:28Z</time></trkpt>
<trkpt lat="46.50603" lon="6.69655"><ele>448</ele><time>2021-09-11T14:22:30Z</time></trkpt>
<trkpt lat="46.506" lon="6.69655"><ele>447.8</ele><time>2021-09-11T14:22:31Z</time></trkpt>
<trkpt lat="46.50598" lon="6.69664"><ele>446.8</ele><time>2021-09-11T14:22:35Z</time></trkpt>
<trkpt lat="46.50594" lon="6.69689"><ele>445.2</ele><time>2021-09-11T14:22:42Z</time></trkpt>
<trkpt lat="46.50594" lon="6.69697"><ele>444.8</ele><time>2021-09-11T14:22:54Z</time></trkpt>
<trkpt lat="46.50594" lon="6.69698"><ele>444.8</ele><time>2021-09-11T14:22:55Z</time></trkpt>
<trkpt lat="46.50594" lon="6.697"><ele>444.8</ele><time>2021-09-11T14:22:58Z</time></trkpt>
<trkpt lat="46.50591" lon="6.69703"><ele>444.6</ele><time>2021-09-11T14:23:03Z</time></trkpt>
<trkpt lat="46.50587" lon="6.69709"><ele>444.6</ele><time>2021-09-11T14:23:09Z</time></trkpt>
<trkpt lat="46.50584" lon="6.69713"><ele>444.4</ele><time>2021-09-11T14:23:12Z</time></trkpt>
<trkpt lat="46.50567" lon="6.69721"><ele>443.2</ele><time>2021-09-11T14:23:23Z</time></trkpt>
<trkpt lat="46.50539" lon="6.69715"><ele>442.2</ele><time>2021-09-11T14:23:35Z</time></trkpt>
<trkpt lat="46.50531" lon="6.69709"><ele>441.2</ele><time>2021-09-11T14:23:39Z</time></trkpt>
<trkpt lat="46.50519" lon="6.69727"><ele>440</ele><time>2021-09-11T14:23:47Z</time></trkpt>
<trkpt lat="46.50501" lon="6.69721"><ele>437.2</ele><time>2021-09-11T14:23:53Z</time></trkpt>
<trkpt lat="46.50498" lon="6.69739"><ele>437</ele><time>2021-09-11T14:23:57Z</time></trkpt>
<trkpt lat="46.50496" lon="6.69755"><ele>435.4</ele><time>2021-09-11T14:24:00Z</time></trkpt>
<trkpt lat="46.50493" lon="6.69775"><ele>433.4</ele><time>2021-09-11T14:24:03Z</time></trkpt>
<trkpt lat="46.50483" lon="6.69799"><ele>432.2</ele><time>2021-09-11T14:24:06Z</time></trkpt>
<trkpt lat="46.5047" lon="6.6982"><ele>431.6</ele><time>2021-09-11T14:24:09Z</time></trkpt>
<trkpt lat="46.50454" lon="6.69844"><ele>431.8</ele><time>2021-09-11T14:24:13Z</time></trkpt>
<trkpt lat="46.50439" lon="6.69857"><ele>431.8</ele><time>2021-09-11T14:24:17Z</time></trkpt>
<trkpt lat="46.50421" lon="6.69863"><ele>430.2</ele><time>2021-09-11T14:24:20Z</time></trkpt>
<trkpt lat="46.50402" lon="6.69869"><ele>427.4</ele><time>2021-09-11T14:24:23Z</time></trkpt>
<trkpt lat="46.5038" lon="6.69873"><ele>424.6</ele><time>2021-09-11T14:24:27Z</time></trkpt>
<trkpt lat="46.50362" lon="6.69879"><ele>422.2</ele><time>2021-09-11T14:24:30Z</time></trkpt>
<trkpt lat="46.50356" lon="6.69882"><ele>421.6</ele><time>2021-09-11T14:24:31Z</time></trkpt>
<trkpt lat="46.5035" lon="6.69885"><ele>420.8</ele><time>2021-09-11T14:24:32Z</time></trkpt>
<trkpt lat="46.50339" lon="6.69893"><ele>419.2</ele><time>2021-09-11T14:24:34Z</time></trkpt>
<trkpt lat="46.50325" lon="6.69904"><ele>416.8</ele><time>2021-09-11T14:24:37Z</time></trkpt>
<trkpt lat="46.50314" lon="6.69921"><ele>414.6</ele><time>2021-09-11T14:24:43Z</time></trkpt>
<trkpt lat="46.50315" lon="6.69938"><ele>415.6</ele><time>2021-09-11T14:24:51Z</time></trkpt>
<trkpt lat="46.50315" lon="6.6994"><ele>415.4</ele><time>2021-09-11T14:24:52Z</time></trkpt>
<trkpt lat="46.50319" lon="6.69965"><ele>415.8</ele><time>2021-09-11T14:25:04Z</time></trkpt>
<trkpt lat="46.50319" lon="6.69969"><ele>416.2</ele><time>2021-09-11T14:25:06Z</time></trkpt>
<trkpt lat="46.50319" lon="6.6997"><ele>416.4</ele><time>2021-09-11T14:25:07Z</time></trkpt>
<trkpt lat="46.50319" lon="6.69972"><ele>416.6</ele><time>2021-09-11T14:25:08Z</time></trkpt>
<trkpt lat="46.5032" lon="6.69977"><ele>417.2</ele><time>2021-09-11T14:25:11Z</time></trkpt>
<trkpt lat="46.5032" lon="6.69979"><ele>417.4</ele><time>2021-09-11T14:25:12Z</time></trkpt>
<trkpt lat="46.50321" lon="6.69982"><ele>417.8</ele><time>2021-09-11T14:25:14Z</time></trkpt>
<trkpt lat="46.50322" lon="6.69985"><ele>418.4</ele><time>2021-09-11T14:25:16Z</time></trkpt>
<trkpt lat="46.50322" lon="6.69997"><ele>419.2</ele><time>2021-09-11T14:25:21Z</time></trkpt>
<trkpt lat="46.50318" lon="6.70012"><ele>420.8</ele><time>2021-09-11T14:25:30Z</time></trkpt>
<trkpt lat="46.50314" lon="6.70013"><ele>422</ele><time>2021-09-11T14:25:35Z</time></trkpt>
<trkpt lat="46.50311" lon="6.70013"><ele>422.4</ele><time>2021-09-11T14:25:37Z</time></trkpt>
<trkpt lat="46.50294" lon="6.70001"><ele>426</ele><time>2021-09-11T14:25:50Z</time></trkpt>
<trkpt lat="46.50287" lon="6.69997"><ele>428.2</ele><time>2021-09-11T14:25:59Z</time></trkpt>
<trkpt lat="46.50282" lon="6.70004"><ele>429.2</ele><time>2021-09-11T14:26:06Z</time></trkpt>
<trkpt lat="46.50278" lon="6.7001"><ele>430.4</ele><time>2021-09-11T14:26:13Z</time></trkpt>
<trkpt lat="46.50271" lon="6.70022"><ele>432.8</ele><time>2021-09-11T14:26:26Z</time></trkpt>
<trkpt lat="46.50267" lon="6.7003"><ele>434</ele><time>2021-09-11T14:26:34Z</time></trkpt>
<trkpt lat="46.50263" lon="6.70038"><ele>434.6</ele><time>2021-09-11T14:26:40Z</time></trkpt>
<trkpt lat="46.50253" lon="6.70059"><ele>435.6</ele><time>2021-09-11T14:26:54Z</time></trkpt>
<trkpt lat="46.50233" lon="6.70077"><ele>438.2</ele><time>2021-09-11T14:27:11Z</time></trkpt>
<trkpt lat="46.50229" lon="6.70081"><ele>439.4</ele><time>2021-09-11T14:27:15Z</time></trkpt>
<trkpt lat="46.50215" lon="6.70098"><ele>443.6</ele><time>2021-09-11T14:27:31Z</time></trkpt>
<trkpt lat="46.50208" lon="6.70108"><ele>446</ele><time>2021-09-11T14:27:40Z</time></trkpt>
<trkpt lat="46.50198" lon="6.7012"><ele>449.2</ele><time>2021-09-11T14:27:52Z</time></trkpt>
<trkpt lat="46.50195" lon="6.70125"><ele>450</ele><time>2021-09-11T14:27:56Z</time></trkpt>
<trkpt lat="46.50187" lon="6.70147"><ele>454.4</ele><time>2021-09-11T14:28:14Z</time></trkpt>
<trkpt lat="46.50184" lon="6.70156"><ele>455.8</ele><time>2021-09-11T14:28:21Z</time></trkpt>
<trkpt lat="46.50175" lon="6.70169"><ele>457.6</ele><time>2021-09-11T14:28:31Z</time></trkpt>
<trkpt lat="46.50169" lon="6.70176"><ele>459.2</ele><time>2021-09-11T14:28:39Z</time></trkpt>
<trkpt lat="46.50162" lon="6.70187"><ele>460.8</ele><time>2021-09-11T14:28:49Z</time></trkpt>
<trkpt lat="46.50152" lon="6.70203"><ele>464</ele><time>2021-09-11T14:29:06Z</time></trkpt>
<trkpt lat="46.50153" lon="6.70209"><ele>465.2</ele><time>2021-09-11T14:29:11Z</time></trkpt>
<trkpt lat="46.50152" lon="6.70227"><ele>467.6</ele><time>2021-09-11T14:29:24Z</time></trkpt>
<trkpt lat="46.5014" lon="6.7024"><ele>470.2</ele><time>2021-09-11T14:29:37Z</time></trkpt>
<trkpt lat="46.50138" lon="6.70243"><ele>470.8</ele><time>2021-09-11T14:29:40Z</time></trkpt>
<trkpt lat="46.50137" lon="6.70245"><ele>471.2</ele><time>2021-09-11T14:29:43Z</time></trkpt>
<trkpt lat="46.50134" lon="6.70251"><ele>472.2</ele><time>2021-09-11T14:29:48Z</time></trkpt>
<trkpt lat="46.50134" lon="6.70285"><ele>478.4</ele><time>2021-09-11T14:30:15Z</time></trkpt>
<trkpt lat="46.50136" lon="6.70292"><ele>479.4</ele><time>2021-09-11T14:30:20Z</time></trkpt>
<trkpt lat="46.50139" lon="6.70314"><ele>482.2</ele><time>2021-09-11T14:30:34Z</time></trkpt>
<trkpt lat="46.50138" lon="6.70324"><ele>483</ele><time>2021-09-11T14:30:41Z</time></trkpt>
<trkpt lat="46.50136" lon="6.70334"><ele>483.6</ele><time>2021-09-11T14:30:47Z</time></trkpt>
<trkpt lat="46.50135" lon="6.70343"><ele>484</ele><time>2021-09-11T14:30:53Z</time></trkpt>
<trkpt lat="46.50137" lon="6.70358"><ele>485.2</ele><time>2021-09-11T14:31:02Z</time></trkpt>
<trkpt lat="46.5014" lon="6.70374"><ele>487.2</ele><time>2021-09-11T14:31:14Z</time></trkpt>
<trkpt lat="46.50143" lon="6.70381"><ele>488.2</ele><time>2021-09-11T14:31:20Z</time></trkpt>
<trkpt lat="46.50144" lon="6.70385"><ele>488.4</ele><time>2021-09-11T14:31:23Z</time></trkpt>
<trkpt lat="46.5015" lon="6.70398"><ele>490.8</ele><time>2021-09-11T14:31:35Z</time></trkpt>
<trkpt lat="46.50163" lon="6.70418"><ele>495.2</ele><time>2021-09-11T14:31:55Z</time></trkpt>
<trkpt lat="46.50175" lon="6.70434"><ele>497.4</ele><time>2021-09-11T14:32:11Z</time></trkpt>
<trkpt lat="46.50178" lon="6.70445"><ele>498</ele><time>2021-09-11T14:32:18Z</time></trkpt>
<trkpt lat="46.5018" lon="6.70451"><ele>498.8</ele><time>2021-09-11T14:32:22Z</time></trkpt>
<trkpt lat="46.50189" lon="6.7048"><ele>502.8</ele><time>2021-09-11T14:32:42Z</time></trkpt>
<trkpt lat="46.50195" lon="6.70495"><ele>504.6</ele><time>2021-09-11T14:32:52Z</time></trkpt>
<trkpt lat="46.50199" lon="6.70503"><ele>505</ele><time>2021-09-11T14:32:59Z</time></trkpt>
<trkpt lat="46.50201" lon="6.70503"><ele>505.2</ele><time>2021-09-11T14:33:01Z</time></trkpt>
<trkpt lat="46.50204" lon="6.70509"><ele>505.4</ele><time>2021-09-11T14:33:06Z</time></trkpt>
<trkpt lat="46.50205" lon="6.70522"><ele>505.6</ele><time>2021-09-11T14:33:15Z</time></trkpt>
<trkpt lat="46.50206" lon="6.70533"><ele>506.2</ele><time>2021-09-11T14:33:22Z</time></trkpt>
<trkpt lat="46.50207" lon="6.7054"><ele>507.2</ele><time>2021-09-11T14:33:27Z</time></trkpt>
<trkpt lat="46.50207" lon="6.70551"><ele>508.6</ele><time>2021-09-11T14:33:36Z</time></trkpt>
<trkpt lat="46.50208" lon="6.7056"><ele>510.2</ele><time>2021-09-11T14:33:43Z</time></trkpt>
<trkpt lat="46.50208" lon="6.70567"><ele>511.2</ele><time>2021-09-11T14:33:49Z</time></trkpt>
<trkpt lat="46.50206" lon="6.70582"><ele>513.6</ele><time>2021-09-11T14:34:03Z</time></trkpt>
<trkpt lat="46.50205" lon="6.70585"><ele>514</ele><time>2021-09-11T14:34:06Z</time></trkpt>
<trkpt lat="46.502" lon="6.706"><ele>517.2</ele><time>2021-09-11T14:34:21Z</time></trkpt>
<trkpt lat="46.50196" lon="6.70608"><ele>518.6</ele><time>2021-09-11T14:34:30Z</time></trkpt>
<trkpt lat="46.50185" lon="6.70629"><ele>523</ele><time>2021-09-11T14:34:51Z</time></trkpt>
<trkpt lat="46.5017" lon="6.70653"><ele>526.2</ele><time>2021-09-11T14:35:12Z</time></trkpt>
<trkpt lat="46.50165" lon="6.70665"><ele>527.6</ele><time>2021-09-11T14:35:21Z</time></trkpt>
<trkpt lat="46.50165" lon="6.70676"><ele>528</ele><time>2021-09-11T14:35:29Z</time></trkpt>
<trkpt lat="46.50165" lon="6.70678"><ele>528.2</ele><time>2021-09-11T14:35:31Z</time></trkpt>
<trkpt lat="46.50165" lon="6.70689"><ele>529.6</ele><time>2021-09-11T14:35:39Z</time></trkpt>
<trkpt lat="46.50176" lon="6.70695"><ele>531.2</ele><time>2021-09-11T14:35:51Z</time></trkpt>
<trkpt lat="46.50177" lon="6.70695"><ele>531.4</ele><time>2021-09-11T14:35:52Z</time></trkpt>
<trkpt lat="46.50183" lon="6.70698"><ele>532.4</ele><time>2021-09-11T14:35:59Z</time></trkpt>
<trkpt lat="46.50189" lon="6.70702"><ele>533.2</ele><time>2021-09-11T14:36:06Z</time></trkpt>
<trkpt lat="46.50207" lon="6.70719"><ele>537.4</ele><time>2021-09-11T14:36:35Z</time></trkpt>
<trkpt lat="46.50216" lon="6.70724"><ele>539.6</ele><time>2021-09-11T14:36:45Z</time></trkpt>
<trkpt lat="46.50218" lon="6.70727"><ele>540.2</ele><time>2021-09-11T14:36:48Z</time></trkpt>
<trkpt lat="46.50216" lon="6.70747"><ele>543.2</ele><time>2021-09-11T14:37:03Z</time></trkpt>
<trkpt lat="46.50214" lon="6.70773"><ele>547.4</ele><time>2021-09-11T14:37:22Z</time></trkpt>
<trkpt lat="46.50216" lon="6.70799"><ele>551.8</ele><time>2021-09-11T14:37:39Z</time></trkpt>
<trkpt lat="46.50215" lon="6.70826"><ele>556</ele><time>2021-09-11T14:37:56Z</time></trkpt>
<trkpt lat="46.50216" lon="6.7086"><ele>556.6</ele><time>2021-09-11T14:38:08Z</time></trkpt>
<trkpt lat="46.5022" lon="6.70871"><ele>556.6</ele><time>2021-09-11T14:38:10Z</time></trkpt>
<trkpt lat="46.50232" lon="6.70898"><ele>555.6</ele><time>2021-09-11T14:38:14Z</time></trkpt>
<trkpt lat="46.50237" lon="6.70916"><ele>555.4</ele><time>2021-09-11T14:38:16Z</time></trkpt>
<trkpt lat="46.5024" lon="6.70942"><ele>554.8</ele><time>2021-09-11T14:38:19Z</time></trkpt>
<trkpt lat="46.50239" lon="6.70958"><ele>555</ele><time>2021-09-11T14:38:21Z</time></trkpt>
<trkpt lat="46.50237" lon="6.70975"><ele>555.2</ele><time>2021-09-11T14:38:23Z</time></trkpt>
<trkpt lat="46.50225" lon="6.70997"><ele>555.8</ele><time>2021-09-11T14:38:27Z</time></trkpt>
<trkpt lat="46.50221" lon="6.71003"><ele>556.6</ele><time>2021-09-11T14:38:29Z</time></trkpt>
<trkpt lat="46.50217" lon="6.7101"><ele>557.2</ele><time>2021-09-11T14:38:32Z</time></trkpt>
<trkpt lat="46.50215" lon="6.71013"><ele>557.4</ele><time>2021-09-11T14:38:34Z</time></trkpt>
<trkpt lat="46.50211" lon="6.71017"><ele>558</ele><time>2021-09-11T14:38:37Z</time></trkpt>
<trkpt lat="46.50196" lon="6.71034"><ele>560</ele><time>2021-09-11T14:38:47Z</time></trkpt>
<trkpt lat="46.5018" lon="6.71048"><ele>558.4</ele><time>2021-09-11T14:38:52Z</time></trkpt>
<trkpt lat="46.50176" lon="6.71054"><ele>558</ele><time>2021-09-11T14:38:53Z</time></trkpt>
<trkpt lat="46.50177" lon="6.71084"><ele>557</ele><time>2021-09-11T14:38:57Z</time></trkpt>
<trkpt lat="46.50181" lon="6.71109"><ele>556.2</ele><time>2021-09-11T14:39:00Z</time></trkpt>
<trkpt lat="46.50181" lon="6.71117"><ele>556</ele><time>2021-09-11T14:39:01Z</time></trkpt>
<trkpt lat="46.50178" lon="6.71143"><ele>556.4</ele><time>2021-09-11T14:39:05Z</time></trkpt>
<trkpt lat="46.5017" lon="6.71168"><ele>556.6</ele><time>2021-09-11T14:39:12Z</time></trkpt>
<trkpt lat="46.5016" lon="6.71191"><ele>556.4</ele><time>2021-09-11T14:39:18Z</time></trkpt>
<trkpt lat="46.50147" lon="6.71215"><ele>556.8</ele><time>2021-09-11T14:39:24Z</time></trkpt>
<trkpt lat="46.50135" lon="6.71236"><ele>557.2</ele><time>2021-09-11T14:39:29Z</time></trkpt>
<trkpt lat="46.50117" lon="6.71261"><ele>557.4</ele><time>2021-09-11T14:39:35Z</time></trkpt>
<trkpt lat="46.501" lon="6.71279"><ele>558.2</ele><time>2021-09-11T14:39:41Z</time></trkpt>
<trkpt lat="46.50083" lon="6.71292"><ele>559.2</ele><time>2021-09-11T14:39:47Z</time></trkpt>
<trkpt lat="46.50065" lon="6.71302"><ele>561</ele><time>2021-09-11T14:39:55Z</time></trkpt>
<trkpt lat="46.50048" lon="6.71319"><ele>561.2</ele><time>2021-09-11T14:40:02Z</time></trkpt>
<trkpt lat="46.50034" lon="6.71334"><ele>561.4</ele><time>2021-09-11T14:40:07Z</time></trkpt>
<trkpt lat="46.50018" lon="6.71348"><ele>562.2</ele><time>2021-09-11T14:40:13Z</time></trkpt>
<trkpt lat="46.50003" lon="6.71363"><ele>564.8</ele><time>2021-09-11T14:40:24Z</time></trkpt>
<trkpt lat="46.50001" lon="6.71369"><ele>566</ele><time>2021-09-11T14:40:28Z</time></trkpt>
<trkpt lat="46.50006" lon="6.71377"><ele>567.4</ele><time>2021-09-11T14:40:34Z</time></trkpt>
<trkpt lat="46.50015" lon="6.7138"><ele>569</ele><time>2021-09-11T14:40:41Z</time></trkpt>
<trkpt lat="46.50024" lon="6.71379"><ele>571.6</ele><time>2021-09-11T14:40:48Z</time></trkpt>
<trkpt lat="46.50035" lon="6.7138"><ele>573</ele><time>2021-09-11T14:40:57Z</time></trkpt>
<trkpt lat="46.50038" lon="6.71381"><ele>573.2</ele><time>2021-09-11T14:41:00Z</time></trkpt>
<trkpt lat="46.5004" lon="6.71381"><ele>573.4</ele><time>2021-09-11T14:41:02Z</time></trkpt>
<trkpt lat="46.50057" lon="6.71384"><ele>577</ele><time>2021-09-11T14:41:20Z</time></trkpt>
<trkpt lat="46.50063" lon="6.71383"><ele>577.8</ele><time>2021-09-11T14:41:27Z</time></trkpt>
<trkpt lat="46.50082" lon="6.71386"><ele>581.2</ele><time>2021-09-11T14:41:49Z</time></trkpt>
<trkpt lat="46.50094" lon="6.71386"><ele>582.4</ele><time>2021-09-11T14:42:04Z</time></trkpt>
<trkpt lat="46.50102" lon="6.71384"><ele>583.8</ele><time>2021-09-11T14:42:13Z</time></trkpt>
<trkpt lat="46.50113" lon="6.71381"><ele>585.4</ele><time>2021-09-11T14:42:22Z</time></trkpt>
<trkpt lat="46.50121" lon="6.71381"><ele>586.2</ele><time>2021-09-11T14:42:27Z</time></trkpt>
<trkpt lat="46.50116" lon="6.71395"><ele>588.2</ele><time>2021-09-11T14:42:36Z</time></trkpt>
<trkpt lat="46.50098" lon="6.71407"><ele>589.4</ele><time>2021-09-11T14:42:45Z</time></trkpt>
<trkpt lat="46.50078" lon="6.71416"><ele>589</ele><time>2021-09-11T14:42:50Z</time></trkpt>
<trkpt lat="46.5006" lon="6.71424"><ele>589.2</ele><time>2021-09-11T14:42:54Z</time></trkpt>
<trkpt lat="46.50038" lon="6.71437"><ele>589.4</ele><time>2021-09-11T14:43:00Z</time></trkpt>
<trkpt lat="46.50021" lon="6.7145"><ele>588.4</ele><time>2021-09-11T14:43:05Z</time></trkpt>
<trkpt lat="46.50001" lon="6.7146"><ele>587.8</ele><time>2021-09-11T14:43:10Z</time></trkpt>
<trkpt lat="46.49989" lon="6.71465"><ele>587.8</ele><time>2021-09-11T14:43:13Z</time></trkpt>
<trkpt lat="46.49976" lon="6.71472"><ele>588.4</ele><time>2021-09-11T14:43:17Z</time></trkpt>
<trkpt lat="46.49959" lon="6.71487"><ele>588.6</ele><time>2021-09-11T14:43:25Z</time></trkpt>
<trkpt lat="46.49946" lon="6.71504"><ele>589.4</ele><time>2021-09-11T14:43:31Z</time></trkpt>
<trkpt lat="46.49931" lon="6.71524"><ele>591.6</ele><time>2021-09-11T14:43:37Z</time></trkpt>
<trkpt lat="46.49926" lon="6.71549"><ele>592.4</ele><time>2021-09-11T14:43:43Z</time></trkpt>
<trkpt lat="46.49919" lon="6.71574"><ele>590.4</ele><time>2021-09-11T14:43:49Z</time></trkpt>
<trkpt lat="46.49903" lon="6.71601"><ele>588.4</ele><time>2021-09-11T14:43:53Z</time></trkpt>
<trkpt lat="46.49885" lon="6.71624"><ele>586.2</ele><time>2021-09-11T14:43:56Z</time></trkpt>
<trkpt lat="46.49864" lon="6.71645"><ele>586.4</ele><time>2021-09-11T14:43:59Z</time></trkpt>
<trkpt lat="46.49847" lon="6.71663"><ele>588</ele><time>2021-09-11T14:44:03Z</time></trkpt>
<trkpt lat="46.49832" lon="6.71684"><ele>590</ele><time>2021-09-11T14:44:10Z</time></trkpt>
<trkpt lat="46.49821" lon="6.71701"><ele>591.6</ele><time>2021-09-11T14:44:17Z</time></trkpt>
<trkpt lat="46.49808" lon="6.71724"><ele>594.2</ele><time>2021-09-11T14:44:25Z</time></trkpt>
<trkpt lat="46.498" lon="6.71744"><ele>595.6</ele><time>2021-09-11T14:44:33Z</time></trkpt>
<trkpt lat="46.49796" lon="6.71771"><ele>596</ele><time>2021-09-11T14:44:42Z</time></trkpt>
<trkpt lat="46.49799" lon="6.71799"><ele>596.6</ele><time>2021-09-11T14:44:50Z</time></trkpt>
<trkpt lat="46.49809" lon="6.71817"><ele>597.8</ele><time>2021-09-11T14:44:59Z</time></trkpt>
<trkpt lat="46.49814" lon="6.7183"><ele>600.6</ele><time>2021-09-11T14:45:09Z</time></trkpt>
<trkpt lat="46.49816" lon="6.71833"><ele>601.4</ele><time>2021-09-11T14:45:12Z</time></trkpt>
<trkpt lat="46.49817" lon="6.71837"><ele>602.2</ele><time>2021-09-11T14:45:15Z</time></trkpt>
<trkpt lat="46.49821" lon="6.7185"><ele>605.2</ele><time>2021-09-11T14:45:26Z</time></trkpt>
<trkpt lat="46.49823" lon="6.71858"><ele>606.2</ele><time>2021-09-11T14:45:32Z</time></trkpt>
<trkpt lat="46.49827" lon="6.71865"><ele>607.6</ele><time>2021-09-11T14:45:39Z</time></trkpt>
<trkpt lat="46.49832" lon="6.71879"><ele>609.6</ele><time>2021-09-11T14:45:50Z</time></trkpt>
<trkpt lat="46.49836" lon="6.71884"><ele>610</ele><time>2021-09-11T14:45:56Z</time></trkpt>
<trkpt lat="46.4984" lon="6.71887"><ele>610.6</ele><time>2021-09-11T14:46:00Z</time></trkpt>
<trkpt lat="46.49848" lon="6.71898"><ele>613</ele><time>2021-09-11T14:46:13Z</time></trkpt>
<trkpt lat="46.49849" lon="6.71899"><ele>613.2</ele><time>2021-09-11T14:46:14Z</time></trkpt>
<trkpt lat="46.49854" lon="6.71903"><ele>614.6</ele><time>2021-09-11T14:46:21Z</time></trkpt>
<trkpt lat="46.49863" lon="6.71913"><ele>617.6</ele><time>2021-09-11T14:46:33Z</time></trkpt>
<trkpt lat="46.49867" lon="6.71916"><ele>618.4</ele><time>2021-09-11T14:46:38Z</time></trkpt>
<trkpt lat="46.49874" lon="6.71924"><ele>619.2</ele><time>2021-09-11T14:46:47Z</time></trkpt>
<trkpt lat="46.49889" lon="6.7194"><ele>622.8</ele><time>2021-09-11T14:47:06Z</time></trkpt>
<trkpt lat="46.49895" lon="6.71949"><ele>624.4</ele><time>2021-09-11T14:47:14Z</time></trkpt>
<trkpt lat="46.49901" lon="6.71958"><ele>626.4</ele><time>2021-09-11T14:47:22Z</time></trkpt>
<trkpt lat="46.49917" lon="6.71984"><ele>629.4</ele><time>2021-09-11T14:47:40Z</time></trkpt>
<trkpt lat="46.49928" lon="6.72008"><ele>629.8</ele><time>2021-09-11T14:47:50Z</time></trkpt>
<trkpt lat="46.49941" lon="6.72029"><ele>630</ele><time>2021-09-11T14:47:58Z</time></trkpt>
<trkpt lat="46.49953" lon="6.72051"><ele>630.6</ele><time>2021-09-11T14:48:05Z</time></trkpt>
<trkpt lat="46.49964" lon="6.72068"><ele>630.6</ele><time>2021-09-11T14:48:11Z</time></trkpt>
<trkpt lat="46.49967" lon="6.72076"><ele>631.4</ele><time>2021-09-11T14:48:15Z</time></trkpt>
<trkpt lat="46.49969" lon="6.7208"><ele>632</ele><time>2021-09-11T14:48:18Z</time></trkpt>
<trkpt lat="46.49973" lon="6.72086"><ele>633</ele><time>2021-09-11T14:48:23Z</time></trkpt>
<trkpt lat="46.49974" lon="6.72089"><ele>633.4</ele><time>2021-09-11T14:48:25Z</time></trkpt>
<trkpt lat="46.49976" lon="6.72094"><ele>634.2</ele><time>2021-09-11T14:48:29Z</time></trkpt>
<trkpt lat="46.49985" lon="6.72117"><ele>638.2</ele><time>2021-09-11T14:48:45Z</time></trkpt>
<trkpt lat="46.4999" lon="6.72143"><ele>641.8</ele><time>2021-09-11T14:49:02Z</time></trkpt>
<trkpt lat="46.49991" lon="6.72148"><ele>642</ele><time>2021-09-11T14:49:05Z</time></trkpt>
<trkpt lat="46.49996" lon="6.72163"><ele>643.2</ele><time>2021-09-11T14:49:17Z</time></trkpt>
<trkpt lat="46.49988" lon="6.72186"><ele>645.6</ele><time>2021-09-11T14:49:32Z</time></trkpt>
<trkpt lat="46.49986" lon="6.72206"><ele>647.8</ele><time>2021-09-11T14:49:44Z</time></trkpt>
<trkpt lat="46.49985" lon="6.72216"><ele>648.6</ele><time>2021-09-11T14:49:50Z</time></trkpt>
<trkpt lat="46.49984" lon="6.72228"><ele>649.4</ele><time>2021-09-11T14:49:57Z</time></trkpt>
<trkpt lat="46.49982" lon="6.72255"><ele>649.4</ele><time>2021-09-11T14:50:08Z</time></trkpt>
<trkpt lat="46.49981" lon="6.72281"><ele>648.8</ele><time>2021-09-11T14:50:16Z</time></trkpt>
<trkpt lat="46.49986" lon="6.72305"><ele>649.6</ele><time>2021-09-11T14:50:35Z</time></trkpt>
<trkpt lat="46.4999" lon="6.72312"><ele>650.2</ele><time>2021-09-11T14:50:41Z</time></trkpt>
<trkpt lat="46.49993" lon="6.72323"><ele>651</ele><time>2021-09-11T14:50:50Z</time></trkpt>
<trkpt lat="46.49996" lon="6.72328"><ele>651.4</ele><time>2021-09-11T14:50:54Z</time></trkpt>
<trkpt lat="46.50004" lon="6.72352"><ele>653.2</ele><time>2021-09-11T14:51:07Z</time></trkpt>
<trkpt lat="46.50012" lon="6.72376"><ele>654.8</ele><time>2021-09-11T14:51:18Z</time></trkpt>
<trkpt lat="46.50014" lon="6.7238"><ele>655</ele><time>2021-09-11T14:51:20Z</time></trkpt>
<trkpt lat="46.5002" lon="6.72406"><ele>656.6</ele><time>2021-09-11T14:51:33Z</time></trkpt>
<trkpt lat="46.50028" lon="6.7243"><ele>659.2</ele><time>2021-09-11T14:51:45Z</time></trkpt>
<trkpt lat="46.50039" lon="6.72463"><ele>663</ele><time>2021-09-11T14:51:59Z</time></trkpt>
<trkpt lat="46.50049" lon="6.72486"><ele>663.6</ele><time>2021-09-11T14:52:06Z</time></trkpt>
<trkpt lat="46.50059" lon="6.72508"><ele>664.4</ele><time>2021-09-11T14:52:12Z</time></trkpt>
<trkpt lat="46.50068" lon="6.72533"><ele>665.8</ele><time>2021-09-11T14:52:18Z</time></trkpt>
<trkpt lat="46.5008" lon="6.72554"><ele>667</ele><time>2021-09-11T14:52:25Z</time></trkpt>
<trkpt lat="46.50092" lon="6.72577"><ele>669.2</ele><time>2021-09-11T14:52:33Z</time></trkpt>
<trkpt lat="46.50102" lon="6.72599"><ele>670.2</ele><time>2021-09-11T14:52:40Z</time></trkpt>
<trkpt lat="46.50109" lon="6.72626"><ele>671</ele><time>2021-09-11T14:52:48Z</time></trkpt>
<trkpt lat="46.50116" lon="6.7265"><ele>670.8</ele><time>2021-09-11T14:52:59Z</time></trkpt>
<trkpt lat="46.50123" lon="6.72683"><ele>670.8</ele><time>2021-09-11T14:53:16Z</time></trkpt>
<trkpt lat="46.50124" lon="6.72709"><ele>671.6</ele><time>2021-09-11T14:53:37Z</time></trkpt>
<trkpt lat="46.50125" lon="6.72715"><ele>672.2</ele><time>2021-09-11T14:53:41Z</time></trkpt>
<trkpt lat="46.50132" lon="6.7274"><ele>676</ele><time>2021-09-11T14:53:58Z</time></trkpt>
<trkpt lat="46.50138" lon="6.7276"><ele>678.8</ele><time>2021-09-11T14:54:12Z</time></trkpt>
<trkpt lat="46.50146" lon="6.72783"><ele>681.4</ele><time>2021-09-11T14:54:27Z</time></trkpt>
<trkpt lat="46.50147" lon="6.72785"><ele>681.6</ele><time>2021-09-11T14:54:28Z</time></trkpt>
<trkpt lat="46.50169" lon="6.72806"><ele>684.4</ele><time>2021-09-11T14:54:42Z</time></trkpt>
<trkpt lat="46.50187" lon="6.72819"><ele>686.4</ele><time>2021-09-11T14:54:51Z</time></trkpt>
<trkpt lat="46.50204" lon="6.72832"><ele>690.2</ele><time>2021-09-11T14:55:00Z</time></trkpt>
<trkpt lat="46.50221" lon="6.7285"><ele>693</ele><time>2021-09-11T14:55:08Z</time></trkpt>
<trkpt lat="46.50234" lon="6.72864"><ele>694</ele><time>2021-09-11T14:55:13Z</time></trkpt>
<trkpt lat="46.5025" lon="6.72883"><ele>696.4</ele><time>2021-09-11T14:55:20Z</time></trkpt>
<trkpt lat="46.50264" lon="6.72901"><ele>697.8</ele><time>2021-09-11T14:55:27Z</time></trkpt>
<trkpt lat="46.50279" lon="6.7292"><ele>698.8</ele><time>2021-09-11T14:55:34Z</time></trkpt>
<trkpt lat="46.50283" lon="6.72924"><ele>699.8</ele><time>2021-09-11T14:55:36Z</time></trkpt>
<trkpt lat="46.5031" lon="6.7295"><ele>701.8</ele><time>2021-09-11T14:55:47Z</time></trkpt>
<trkpt lat="46.50318" lon="6.72977"><ele>701</ele><time>2021-09-11T14:55:53Z</time></trkpt>
<trkpt lat="46.5032" lon="6.72984"><ele>700.8</ele><time>2021-09-11T14:55:54Z</time></trkpt>
<trkpt lat="46.50333" lon="6.73009"><ele>697.2</ele><time>2021-09-11T14:55:57Z</time></trkpt>
<trkpt lat="46.50339" lon="6.73019"><ele>696.2</ele><time>2021-09-11T14:55:58Z</time></trkpt>
<trkpt lat="46.50354" lon="6.73048"><ele>694.2</ele><time>2021-09-11T14:56:01Z</time></trkpt>
<trkpt lat="46.50363" lon="6.73066"><ele>693.6</ele><time>2021-09-11T14:56:03Z</time></trkpt>
<trkpt lat="46.50371" lon="6.73081"><ele>693.4</ele><time>2021-09-11T14:56:05Z</time></trkpt>
<trkpt lat="46.5038" lon="6.73096"><ele>693</ele><time>2021-09-11T14:56:07Z</time></trkpt>
<trkpt lat="46.50392" lon="6.73117"><ele>692.8</ele><time>2021-09-11T14:56:10Z</time></trkpt>
<trkpt lat="46.50404" lon="6.73139"><ele>693.2</ele><time>2021-09-11T14:56:13Z</time></trkpt>
<trkpt lat="46.50419" lon="6.73164"><ele>694</ele><time>2021-09-11T14:56:17Z</time></trkpt>
<trkpt lat="46.50435" lon="6.73193"><ele>695.8</ele><time>2021-09-11T14:56:24Z</time></trkpt>
<trkpt lat="46.50447" lon="6.73214"><ele>698</ele><time>2021-09-11T14:56:33Z</time></trkpt>
<trkpt lat="46.50454" lon="6.73228"><ele>699</ele><time>2021-09-11T14:56:40Z</time></trkpt>
<trkpt lat="46.50467" lon="6.73249"><ele>700.6</ele><time>2021-09-11T14:56:51Z</time></trkpt>
<trkpt lat="46.50479" lon="6.73271"><ele>702.2</ele><time>2021-09-11T14:57:02Z</time></trkpt>
<trkpt lat="46.50492" lon="6.73291"><ele>703.4</ele><time>2021-09-11T14:57:14Z</time></trkpt>
<trkpt lat="46.50498" lon="6.733"><ele>704.4</ele><time>2021-09-11T14:57:20Z</time></trkpt>
<trkpt lat="46.5051" lon="6.7332"><ele>706.8</ele><time>2021-09-11T14:57:33Z</time></trkpt>
<trkpt lat="46.50522" lon="6.73342"><ele>709.8</ele><time>2021-09-11T14:57:48Z</time></trkpt>
<trkpt lat="46.50538" lon="6.73344"><ele>711.4</ele><time>2021-09-11T14:58:01Z</time></trkpt>
<trkpt lat="46.50548" lon="6.7332"><ele>712.8</ele><time>2021-09-11T14:58:11Z</time></trkpt>
<trkpt lat="46.5056" lon="6.73297"><ele>714.6</ele><time>2021-09-11T14:58:21Z</time></trkpt>
<trkpt lat="46.50576" lon="6.73275"><ele>717</ele><time>2021-09-11T14:58:37Z</time></trkpt>
<trkpt lat="46.50582" lon="6.73269"><ele>717.8</ele><time>2021-09-11T14:58:42Z</time></trkpt>
<trkpt lat="46.50597" lon="6.73254"><ele>719.6</ele><time>2021-09-11T14:58:52Z</time></trkpt>
<trkpt lat="46.50612" lon="6.73239"><ele>720.6</ele><time>2021-09-11T14:59:01Z</time></trkpt>
<trkpt lat="46.50617" lon="6.73235"><ele>721.2</ele><time>2021-09-11T14:59:04Z</time></trkpt>
<trkpt lat="46.50613" lon="6.73258"><ele>721.4</ele><time>2021-09-11T14:59:13Z</time></trkpt>
<trkpt lat="46.50597" lon="6.73293"><ele>720.8</ele><time>2021-09-11T14:59:23Z</time></trkpt>
<trkpt lat="46.50592" lon="6.73317"><ele>721</ele><time>2021-09-11T14:59:29Z</time></trkpt>
<trkpt lat="46.50589" lon="6.73343"><ele>721</ele><time>2021-09-11T14:59:35Z</time></trkpt>
<trkpt lat="46.50589" lon="6.7337"><ele>722.4</ele><time>2021-09-11T14:59:43Z</time></trkpt>
<trkpt lat="46.50589" lon="6.73391"><ele>725.4</ele><time>2021-09-11T14:59:54Z</time></trkpt>
<trkpt lat="46.50586" lon="6.73408"><ele>727.2</ele><time>2021-09-11T15:00:07Z</time></trkpt>
<trkpt lat="46.50586" lon="6.73411"><ele>727.6</ele><time>2021-09-11T15:00:09Z</time></trkpt>
<trkpt lat="46.50582" lon="6.73421"><ele>729.2</ele><time>2021-09-11T15:00:18Z</time></trkpt>
<trkpt lat="46.50579" lon="6.73426"><ele>730.4</ele><time>2021-09-11T15:00:23Z</time></trkpt>
<trkpt lat="46.50574" lon="6.73444"><ele>733.8</ele><time>2021-09-11T15:00:36Z</time></trkpt>
<trkpt lat="46.50571" lon="6.73458"><ele>736.4</ele><time>2021-09-11T15:00:45Z</time></trkpt>
<trkpt lat="46.50569" lon="6.73465"><ele>737</ele><time>2021-09-11T15:00:49Z</time></trkpt>
<trkpt lat="46.50561" lon="6.73489"><ele>739</ele><time>2021-09-11T15:01:01Z</time></trkpt>
<trkpt lat="46.50553" lon="6.73514"><ele>741.2</ele><time>2021-09-11T15:01:13Z</time></trkpt>
<trkpt lat="46.50549" lon="6.73525"><ele>742</ele><time>2021-09-11T15:01:19Z</time></trkpt>
<trkpt lat="46.50546" lon="6.73552"><ele>744.8</ele><time>2021-09-11T15:01:35Z</time></trkpt>
<trkpt lat="46.50547" lon="6.73578"><ele>747.2</ele><time>2021-09-11T15:01:49Z</time></trkpt>
<trkpt lat="46.50551" lon="6.73619"><ele>745.8</ele><time>2021-09-11T15:01:57Z</time></trkpt>
<trkpt lat="46.50551" lon="6.73625"><ele>745.6</ele><time>2021-09-11T15:01:58Z</time></trkpt>
<trkpt lat="46.50551" lon="6.73655"><ele>745</ele><time>2021-09-11T15:02:03Z</time></trkpt>
<trkpt lat="46.5055" lon="6.73687"><ele>746.2</ele><time>2021-09-11T15:02:09Z</time></trkpt>
<trkpt lat="46.50551" lon="6.73715"><ele>745.4</ele><time>2021-09-11T15:02:14Z</time></trkpt>
<trkpt lat="46.50551" lon="6.73721"><ele>745.4</ele><time>2021-09-11T15:02:15Z</time></trkpt>
<trkpt lat="46.50555" lon="6.7374"><ele>745.4</ele><time>2021-09-11T15:02:18Z</time></trkpt>
<trkpt lat="46.5056" lon="6.73768"><ele>745.8</ele><time>2021-09-11T15:02:23Z</time></trkpt>
<trkpt lat="46.50558" lon="6.73794"><ele>747.6</ele><time>2021-09-11T15:02:33Z</time></trkpt>
<trkpt lat="46.50554" lon="6.73815"><ele>750</ele><time>2021-09-11T15:02:47Z</time></trkpt>
<trkpt lat="46.50553" lon="6.73825"><ele>751.2</ele><time>2021-09-11T15:02:54Z</time></trkpt>
<trkpt lat="46.5055" lon="6.73834"><ele>751.6</ele><time>2021-09-11T15:03:01Z</time></trkpt>
<trkpt lat="46.50547" lon="6.73843"><ele>752.2</ele><time>2021-09-11T15:03:06Z</time></trkpt>
<trkpt lat="46.50537" lon="6.73868"><ele>754.6</ele><time>2021-09-11T15:03:20Z</time></trkpt>
<trkpt lat="46.50528" lon="6.73887"><ele>755.6</ele><time>2021-09-11T15:03:30Z</time></trkpt>
<trkpt lat="46.50516" lon="6.73908"><ele>757.2</ele><time>2021-09-11T15:03:39Z</time></trkpt>
<trkpt lat="46.50503" lon="6.73926"><ele>759.6</ele><time>2021-09-11T15:03:48Z</time></trkpt>
<trkpt lat="46.50496" lon="6.73932"><ele>761.2</ele><time>2021-09-11T15:03:54Z</time></trkpt>
<trkpt lat="46.50481" lon="6.73947"><ele>764.8</ele><time>2021-09-11T15:04:17Z</time></trkpt>
<trkpt lat="46.50467" lon="6.73961"><ele>768.4</ele><time>2021-09-11T15:04:39Z</time></trkpt>
<trkpt lat="46.50452" lon="6.73976"><ele>771.8</ele><time>2021-09-11T15:04:59Z</time></trkpt>
<trkpt lat="46.50445" lon="6.73983"><ele>773.2</ele><time>2021-09-11T15:05:08Z</time></trkpt>
<trkpt lat="46.50429" lon="6.73997"><ele>777.4</ele><time>2021-09-11T15:05:31Z</time></trkpt>
<trkpt lat="46.50419" lon="6.74014"><ele>779.4</ele><time>2021-09-11T15:05:46Z</time></trkpt>
<trkpt lat="46.50418" lon="6.74029"><ele>781</ele><time>2021-09-11T15:05:54Z</time></trkpt>
<trkpt lat="46.50414" lon="6.74052"><ele>782.8</ele><time>2021-09-11T15:06:07Z</time></trkpt>
<trkpt lat="46.50412" lon="6.74072"><ele>786</ele><time>2021-09-11T15:06:19Z</time></trkpt>
<trkpt lat="46.50415" lon="6.74094"><ele>789.2</ele><time>2021-09-11T15:06:32Z</time></trkpt>
<trkpt lat="46.50422" lon="6.7411"><ele>791</ele><time>2021-09-11T15:06:43Z</time></trkpt>
<trkpt lat="46.50438" lon="6.74115"><ele>792.2</ele><time>2021-09-11T15:06:52Z</time></trkpt>
<trkpt lat="46.50456" lon="6.74118"><ele>793</ele><time>2021-09-11T15:07:02Z</time></trkpt>
<trkpt lat="46.5047" lon="6.7412"><ele>793.6</ele><time>2021-09-11T15:07:10Z</time></trkpt>
<trkpt lat="46.50489" lon="6.74124"><ele>794.2</ele><time>2021-09-11T15:07:21Z</time></trkpt>
<trkpt lat="46.50506" lon="6.7413"><ele>795.4</ele><time>2021-09-11T15:07:32Z</time></trkpt>
<trkpt lat="46.50521" lon="6.74135"><ele>798.8</ele><time>2021-09-11T15:07:45Z</time></trkpt>
<trkpt lat="46.50535" lon="6.74133"><ele>801.2</ele><time>2021-09-11T15:07:59Z</time></trkpt>
<trkpt lat="46.50554" lon="6.74129"><ele>802.6</ele><time>2021-09-11T15:08:15Z</time></trkpt>
<trkpt lat="46.50559" lon="6.74129"><ele>803</ele><time>2021-09-11T15:08:20Z</time></trkpt>
<trkpt lat="46.50573" lon="6.74128"><ele>805</ele><time>2021-09-11T15:08:33Z</time></trkpt>
<trkpt lat="46.50575" lon="6.74127"><ele>806.4</ele><time>2021-09-11T15:08:36Z</time></trkpt>
<trkpt lat="46.50586" lon="6.74128"><ele>808.6</ele><time>2021-09-11T15:08:47Z</time></trkpt>
<trkpt lat="46.50605" lon="6.74127"><ele>809.4</ele><time>2021-09-11T15:09:06Z</time></trkpt>
<trkpt lat="46.50612" lon="6.74125"><ele>811.4</ele><time>2021-09-11T15:09:14Z</time></trkpt>
<trkpt lat="46.50628" lon="6.74124"><ele>816.6</ele><time>2021-09-11T15:09:35Z</time></trkpt>
<trkpt lat="46.50636" lon="6.7412"><ele>818.4</ele><time>2021-09-11T15:09:44Z</time></trkpt>
<trkpt lat="46.50658" lon="6.74122"><ele>824.4</ele><time>2021-09-11T15:10:11Z</time></trkpt>
<trkpt lat="46.50675" lon="6.74117"><ele>830.4</ele><time>2021-09-11T15:10:37Z</time></trkpt>
<trkpt lat="46.50693" lon="6.74115"><ele>834.8</ele><time>2021-09-11T15:11:02Z</time></trkpt>
<trkpt lat="46.50712" lon="6.74113"><ele>838.2</ele><time>2021-09-11T15:11:30Z</time></trkpt>
<trkpt lat="46.50728" lon="6.74118"><ele>840</ele><time>2021-09-11T15:11:48Z</time></trkpt>
<trkpt lat="46.50748" lon="6.7412"><ele>841.6</ele><time>2021-09-11T15:12:06Z</time></trkpt>
<trkpt lat="46.5075" lon="6.74114"><ele>842.2</ele><time>2021-09-11T15:12:10Z</time></trkpt>
<trkpt lat="46.50753" lon="6.74092"><ele>843.4</ele><time>2021-09-11T15:12:25Z</time></trkpt>
<trkpt lat="46.50753" lon="6.74078"><ele>845.2</ele><time>2021-09-11T15:12:35Z</time></trkpt>
<trkpt lat="46.50753" lon="6.74072"><ele>846.4</ele><time>2021-09-11T15:12:40Z</time></trkpt>
<trkpt lat="46.50754" lon="6.74055"><ele>849</ele><time>2021-09-11T15:12:54Z</time></trkpt>
<trkpt lat="46.50756" lon="6.74048"><ele>850.6</ele><time>2021-09-11T15:13:00Z</time></trkpt>
<trkpt lat="46.50758" lon="6.74041"><ele>852.2</ele><time>2021-09-11T15:13:06Z</time></trkpt>
<trkpt lat="46.50761" lon="6.74037"><ele>853.4</ele><time>2021-09-11T15:13:11Z</time></trkpt>
<trkpt lat="46.50771" lon="6.74039"><ele>854.8</ele><time>2021-09-11T15:13:22Z</time></trkpt>
<trkpt lat="46.50776" lon="6.74046"><ele>855.8</ele><time>2021-09-11T15:13:30Z</time></trkpt>
<trkpt lat="46.50785" lon="6.74046"><ele>858</ele><time>2021-09-11T15:13:42Z</time></trkpt>
<trkpt lat="46.50786" lon="6.74046"><ele>858.4</ele><time>2021-09-11T15:13:43Z</time></trkpt>
<trkpt lat="46.5079" lon="6.74046"><ele>859.4</ele><time>2021-09-11T15:13:48Z</time></trkpt>
<trkpt lat="46.508" lon="6.74051"><ele>860.4</ele><time>2021-09-11T15:13:59Z</time></trkpt>
<trkpt lat="46.50805" lon="6.7405"><ele>861.2</ele><time>2021-09-11T15:14:05Z</time></trkpt>
<trkpt lat="46.50822" lon="6.74055"><ele>864</ele><time>2021-09-11T15:14:25Z</time></trkpt>
<trkpt lat="46.50838" lon="6.74064"><ele>866.8</ele><time>2021-09-11T15:14:46Z</time></trkpt>
<trkpt lat="46.50856" lon="6.74083"><ele>871.6</ele><time>2021-09-11T15:15:09Z</time></trkpt>
<trkpt lat="46.50873" lon="6.74094"><ele>875.6</ele><time>2021-09-11T15:15:26Z</time></trkpt>
<trkpt lat="46.50877" lon="6.74094"><ele>876.2</ele><time>2021-09-11T15:15:30Z</time></trkpt>
<trkpt lat="46.50881" lon="6.74095"><ele>876.8</ele><time>2021-09-11T15:15:34Z</time></trkpt>
<trkpt lat="46.50889" lon="6.74093"><ele>878.6</ele><time>2021-09-11T15:15:44Z</time></trkpt>
<trkpt lat="46.50905" lon="6.74089"><ele>881.8</ele><time>2021-09-11T15:16:03Z</time></trkpt>
<trkpt lat="46.50925" lon="6.74088"><ele>887.2</ele><time>2021-09-11T15:16:27Z</time></trkpt>
<trkpt lat="46.50943" lon="6.74085"><ele>893.2</ele><time>2021-09-11T15:16:51Z</time></trkpt>
<trkpt lat="46.50961" lon="6.74086"><ele>897.4</ele><time>2021-09-11T15:17:14Z</time></trkpt>
<trkpt lat="46.50979" lon="6.74087"><ele>901.4</ele><time>2021-09-11T15:17:34Z</time></trkpt>
<trkpt lat="46.50995" lon="6.74085"><ele>903.6</ele><time>2021-09-11T15:17:45Z</time></trkpt>
<trkpt lat="46.51021" lon="6.74089"><ele>905.6</ele><time>2021-09-11T15:18:01Z</time></trkpt>
<trkpt lat="46.51039" lon="6.74084"><ele>906.6</ele><time>2021-09-11T15:18:11Z</time></trkpt>
<trkpt lat="46.51041" lon="6.7408"><ele>906.4</ele><time>2021-09-11T15:18:14Z</time></trkpt>
<trkpt lat="46.51039" lon="6.74076"><ele>906</ele><time>2021-09-11T15:18:17Z</time></trkpt>
<trkpt lat="46.51035" lon="6.74075"><ele>906</ele><time>2021-09-11T15:18:20Z</time></trkpt>
<trkpt lat="46.51032" lon="6.74076"><ele>906</ele><time>2021-09-11T15:18:28Z</time></trkpt>
<trkpt lat="46.51022" lon="6.7406"><ele>905.4</ele><time>2021-09-11T15:18:35Z</time></trkpt>
<trkpt lat="46.51021" lon="6.7406"><ele>905</ele><time>2021-09-11T15:18:38Z</time></trkpt>
<trkpt lat="46.51021" lon="6.74058"><ele>905</ele><time>2021-09-11T15:18:46Z</time></trkpt>
<trkpt lat="46.51021" lon="6.74055"><ele>905</ele><time>2021-09-11T15:18:51Z</time></trkpt>
<trkpt lat="46.51022" lon="6.74057"><ele>904.8</ele><time>2021-09-11T15:19:00Z</time></trkpt>
<trkpt lat="46.51022" lon="6.74058"><ele>905</ele><time>2021-09-11T15:19:12Z</time></trkpt>
<trkpt lat="46.51022" lon="6.74059"><ele>904.8</ele><time>2021-09-11T15:19:31Z</time></trkpt>
<trkpt lat="46.51022" lon="6.74058"><ele>904.8</ele><time>2021-09-11T15:19:48Z</time></trkpt>
<trkpt lat="46.51023" lon="6.74058"><ele>904.2</ele><time>2021-09-11T15:19:56Z</time></trkpt>
<trkpt lat="46.51023" lon="6.74058"><ele>904.2</ele><time>2021-09-11T15:19:57Z</time></trkpt>
<trkpt lat="46.51024" lon="6.74059"><ele>904.2</ele><time>2021-09-11T15:20:02Z</time></trkpt>
<trkpt lat="46.51023" lon="6.74059"><ele>904.4</ele><time>2021-09-11T15:20:07Z</time></trkpt>
<trkpt lat="46.51024" lon="6.74059"><ele>904.4</ele><time>2021-09-11T15:20:16Z</time></trkpt>
<trkpt lat="46.51023" lon="6.74058"><ele>904.8</ele><time>2021-09-11T15:20:30Z</time></trkpt>
<trkpt lat="46.51022" lon="6.74058"><ele>905</ele><time>2021-09-11T15:20:47Z</time></trkpt>
<trkpt lat="46.51022" lon="6.74058"><ele>905.2</ele><time>2021-09-11T15:20:49Z</time></trkpt>
<trkpt lat="46.51022" lon="6.74058"><ele>905</ele><time>2021-09-11T15:20:55Z</time></trkpt>
<trkpt lat="46.51022" lon="6.74058"><ele>904.8</ele><time>2021-09-11T15:21:14Z</time></trkpt>
<trkpt lat="46.51022" lon="6.74058"><ele>904.8</ele><time>2021-09-11T15:21:15Z</time></trkpt>
<trkpt lat="46.51022" lon="6.74058"><ele>904.6</ele><time>2021-09-11T15:21:18Z</time></trkpt>
<trkpt lat="46.51022" lon="6.7406"><ele>904.4</ele><time>2021-09-11T15:21:50Z</time></trkpt>
<trkpt lat="46.51021" lon="6.74058"><ele>905.6</ele><time>2021-09-11T15:22:20Z</time></trkpt>
<trkpt lat="46.51022" lon="6.74059"><ele>905.8</ele><time>2021-09-11T15:22:28Z</time></trkpt>
<trkpt lat="46.51023" lon="6.7406"><ele>904.2</ele><time>2021-09-11T15:22:53Z</time></trkpt>
<trkpt lat="46.51024" lon="6.74059"><ele>904.4</ele><time>2021-09-11T15:23:44Z</time></trkpt>
<trkpt lat="46.51024" lon="6.74059"><ele>904.8</ele><time>2021-09-11T15:23:55Z</time></trkpt>
<trkpt lat="46.51024" lon="6.74059"><ele>904.8</ele><time>2021-09-11T15:23:57Z</time></trkpt>
<trkpt lat="46.51024" lon="6.74059"><ele>904.8</ele><time>2021-09-11T15:24:06Z</time></trkpt>
<trkpt lat="46.51023" lon="6.74058"><ele>905.2</ele><time>2021-09-11T15:24:37Z</time></trkpt>
<trkpt lat="46.51023" lon="6.74059"><ele>905.2</ele><time>2021-09-11T15:24:40Z</time></trkpt>
<trkpt lat="46.51024" lon="6.74059"><ele>905.2</ele><time>2021-09-11T15:24:47Z</time></trkpt>
<trkpt lat="46.51024" lon="6.74059"><ele>905.2</ele><time>2021-09-11T15:24:48Z</time></trkpt>
<trkpt lat="46.51024" lon="6.7406"><ele>905.4</ele><time>2021-09-11T15:25:01Z</time></trkpt>
<trkpt lat="46.51024" lon="6.74059"><ele>905.4</ele><time>2021-09-11T15:25:02Z</time></trkpt>
<trkpt lat="46.51024" lon="6.7406"><ele>905.4</ele><time>2021-09-11T15:25:09Z</time></trkpt>
<trkpt lat="46.51024" lon="6.74059"><ele>905.4</ele><time>2021-09-11T15:25:11Z</time></trkpt>
<trkpt lat="46.51024" lon="6.7406"><ele>905.4</ele><time>2021-09-11T15:25:13Z</time></trkpt>
<trkpt lat="46.51025" lon="6.74058"><ele>905.2</ele><time>2021-09-11T15:25:32Z</time></trkpt>
<trkpt lat="46.51025" lon="6.74058"><ele>905</ele><time>2021-09-11T15:25:39Z</time></trkpt>
<trkpt lat="46.51024" lon="6.74056"><ele>905.8</ele><time>2021-09-11T15:26:32Z</time></trkpt>
<trkpt lat="46.51024" lon="6.74056"><ele>905.6</ele><time>2021-09-11T15:26:40Z</time></trkpt>
<trkpt lat="46.51024" lon="6.74057"><ele>906</ele><time>2021-09-11T15:27:01Z</time></trkpt>
<trkpt lat="46.51024" lon="6.74057"><ele>905.8</ele><time>2021-09-11T15:27:04Z</time></trkpt>
<trkpt lat="46.51024" lon="6.74057"><ele>906</ele><time>2021-09-11T15:27:13Z</time></trkpt>
<trkpt lat="46.51024" lon="6.7406"><ele>906</ele><time>2021-09-11T15:27:24Z</time></trkpt>
<trkpt lat="46.51024" lon="6.74059"><ele>906</ele><time>2021-09-11T15:27:31Z</time></trkpt>
<trkpt lat="46.51024" lon="6.74058"><ele>905.2</ele><time>2021-09-11T15:27:44Z</time></trkpt>
<trkpt lat="46.51024" lon="6.74058"><ele>905</ele><time>2021-09-11T15:27:48Z</time></trkpt>
<trkpt lat="46.51024" lon="6.74058"><ele>904.8</ele><time>2021-09-11T15:27:52Z</time></trkpt>
<trkpt lat="46.51024" lon="6.74058"><ele>904.6</ele><time>2021-09-11T15:28:22Z</time></trkpt>
<trkpt lat="46.51023" lon="6.74058"><ele>904.8</ele><time>2021-09-11T15:28:31Z</time></trkpt>
<trkpt lat="46.51023" lon="6.74058"><ele>905</ele><time>2021-09-11T15:28:37Z</time></trkpt>
<trkpt lat="46.51023" lon="6.74058"><ele>905</ele><time>2021-09-11T15:28:38Z</time></trkpt>
<trkpt lat="46.51023" lon="6.74058"><ele>905.2</ele><time>2021-09-11T15:28:43Z</time></trkpt>
<trkpt lat="46.51023" lon="6.74059"><ele>905.6</ele><time>2021-09-11T15:29:00Z</time></trkpt>
<trkpt lat="46.51021" lon="6.74059"><ele>906.8</ele><time>2021-09-11T15:29:19Z</time></trkpt>
<trkpt lat="46.51022" lon="6.74056"><ele>907.4</ele><time>2021-09-11T15:29:41Z</time></trkpt>
<trkpt lat="46.51022" lon="6.74056"><ele>907.2</ele><time>2021-09-11T15:29:46Z</time></trkpt>
<trkpt lat="46.51023" lon="6.74058"><ele>907.2</ele><time>2021-09-11T15:29:51Z</time></trkpt>
<trkpt lat="46.5102" lon="6.74062"><ele>907.6</ele><time>2021-09-11T15:30:14Z</time></trkpt>
<trkpt lat="46.5102" lon="6.74061"><ele>907.6</ele><time>2021-09-11T15:30:15Z</time></trkpt>
<trkpt lat="46.5102" lon="6.7406"><ele>907.6</ele><time>2021-09-11T15:30:20Z</time></trkpt>
<trkpt lat="46.51017" lon="6.74061"><ele>907.6</ele><time>2021-09-11T15:30:34Z</time></trkpt>
<trkpt lat="46.51013" lon="6.74066"><ele>907.4</ele><time>2021-09-11T15:30:38Z</time></trkpt>
<trkpt lat="46.51005" lon="6.74074"><ele>907.6</ele><time>2021-09-11T15:30:45Z</time></trkpt>
<trkpt lat="46.50994" lon="6.74083"><ele>907.8</ele><time>2021-09-11T15:30:56Z</time></trkpt>
<trkpt lat="46.50991" lon="6.74087"><ele>907.8</ele><time>2021-09-11T15:30:59Z</time></trkpt>
<trkpt lat="46.50979" lon="6.74087"><ele>906.8</ele><time>2021-09-11T15:31:03Z</time></trkpt>
<trkpt lat="46.50956" lon="6.74084"><ele>902.4</ele><time>2021-09-11T15:31:08Z</time></trkpt>
<trkpt lat="46.50932" lon="6.74087"><ele>897</ele><time>2021-09-11T15:31:12Z</time></trkpt>
<trkpt lat="46.50911" lon="6.74089"><ele>892</ele><time>2021-09-11T15:31:15Z</time></trkpt>
<trkpt lat="46.50893" lon="6.74092"><ele>887.2</ele><time>2021-09-11T15:31:18Z</time></trkpt>
<trkpt lat="46.50871" lon="6.74092"><ele>881.4</ele><time>2021-09-11T15:31:23Z</time></trkpt>
<trkpt lat="46.50862" lon="6.74087"><ele>879.2</ele><time>2021-09-11T15:31:25Z</time></trkpt>
<trkpt lat="46.50857" lon="6.74084"><ele>877.8</ele><time>2021-09-11T15:31:26Z</time></trkpt>
<trkpt lat="46.50853" lon="6.74079"><ele>876.4</ele><time>2021-09-11T15:31:27Z</time></trkpt>
<trkpt lat="46.50833" lon="6.74061"><ele>871.4</ele><time>2021-09-11T15:31:31Z</time></trkpt>
<trkpt lat="46.50827" lon="6.74058"><ele>870</ele><time>2021-09-11T15:31:32Z</time></trkpt>
<trkpt lat="46.50806" lon="6.74051"><ele>865.6</ele><time>2021-09-11T15:31:35Z</time></trkpt>
<trkpt lat="46.50785" lon="6.74044"><ele>861</ele><time>2021-09-11T15:31:38Z</time></trkpt>
<trkpt lat="46.50767" lon="6.74039"><ele>858.8</ele><time>2021-09-11T15:31:41Z</time></trkpt>
<trkpt lat="46.50753" lon="6.74057"><ele>852.8</ele><time>2021-09-11T15:31:46Z</time></trkpt>
<trkpt lat="46.50751" lon="6.74083"><ele>848.4</ele><time>2021-09-11T15:31:49Z</time></trkpt>
<trkpt lat="46.50749" lon="6.74115"><ele>846.2</ele><time>2021-09-11T15:31:53Z</time></trkpt>
<trkpt lat="46.50748" lon="6.74121"><ele>845.4</ele><time>2021-09-11T15:31:54Z</time></trkpt>
<trkpt lat="46.50744" lon="6.7413"><ele>844.6</ele><time>2021-09-11T15:31:57Z</time></trkpt>
<trkpt lat="46.50744" lon="6.7413"><ele>844.6</ele><time>2021-09-11T15:31:58Z</time></trkpt>
<trkpt lat="46.50744" lon="6.7413"><ele>844.6</ele><time>2021-09-11T15:31:59Z</time></trkpt>
<trkpt lat="46.50744" lon="6.7413"><ele>844.6</ele><time>2021-09-11T15:32:00Z</time></trkpt>
<trkpt lat="46.50745" lon="6.7413"><ele>844.6</ele><time>2021-09-11T15:32:01Z</time></trkpt>
<trkpt lat="46.50744" lon="6.7413"><ele>844.6</ele><time>2021-09-11T15:32:08Z</time></trkpt>
<trkpt lat="46.50744" lon="6.7413"><ele>845.6</ele><time>2021-09-11T15:32:26Z</time></trkpt>
<trkpt lat="46.50744" lon="6.74131"><ele>845.4</ele><time>2021-09-11T15:32:40Z</time></trkpt>
<trkpt lat="46.50745" lon="6.7413"><ele>845.4</ele><time>2021-09-11T15:32:51Z</time></trkpt>
<trkpt lat="46.50745" lon="6.7413"><ele>845.4</ele><time>2021-09-11T15:32:55Z</time></trkpt>
<trkpt lat="46.50744" lon="6.7413"><ele>845.6</ele><time>2021-09-11T15:33:00Z</time></trkpt>
<trkpt lat="46.50726" lon="6.74117"><ele>844.8</ele><time>2021-09-11T15:33:21Z</time></trkpt>
<trkpt lat="46.50706" lon="6.74115"><ele>842</ele><time>2021-09-11T15:33:24Z</time></trkpt>
<trkpt lat="46.50698" lon="6.74115"><ele>840.6</ele><time>2021-09-11T15:33:25Z</time></trkpt>
<trkpt lat="46.50681" lon="6.74117"><ele>836.6</ele><time>2021-09-11T15:33:27Z</time></trkpt>
<trkpt lat="46.50653" lon="6.74121"><ele>827.8</ele><time>2021-09-11T15:33:30Z</time></trkpt>
<trkpt lat="46.50633" lon="6.74123"><ele>822.8</ele><time>2021-09-11T15:33:32Z</time></trkpt>
<trkpt lat="46.50613" lon="6.74125"><ele>818.8</ele><time>2021-09-11T15:33:34Z</time></trkpt>
<trkpt lat="46.50594" lon="6.74126"><ele>815.2</ele><time>2021-09-11T15:33:36Z</time></trkpt>
<trkpt lat="46.50569" lon="6.74127"><ele>810</ele><time>2021-09-11T15:33:39Z</time></trkpt>
<trkpt lat="46.50548" lon="6.74128"><ele>806.2</ele><time>2021-09-11T15:33:42Z</time></trkpt>
<trkpt lat="46.50542" lon="6.74129"><ele>805.2</ele><time>2021-09-11T15:33:43Z</time></trkpt>
<trkpt lat="46.50537" lon="6.7413"><ele>804.2</ele><time>2021-09-11T15:33:44Z</time></trkpt>
<trkpt lat="46.50525" lon="6.74153"><ele>799</ele><time>2021-09-11T15:33:48Z</time></trkpt>
<trkpt lat="46.50523" lon="6.7416"><ele>797.8</ele><time>2021-09-11T15:33:49Z</time></trkpt>
<trkpt lat="46.50522" lon="6.74173"><ele>795.8</ele><time>2021-09-11T15:33:51Z</time></trkpt>
<trkpt lat="46.50522" lon="6.74188"><ele>794</ele><time>2021-09-11T15:33:53Z</time></trkpt>
<trkpt lat="46.50529" lon="6.7422"><ele>790.6</ele><time>2021-09-11T15:33:56Z</time></trkpt>
<trkpt lat="46.50536" lon="6.74247"><ele>788.6</ele><time>2021-09-11T15:33:58Z</time></trkpt>
<trkpt lat="46.50542" lon="6.7426"><ele>787.6</ele><time>2021-09-11T15:33:59Z</time></trkpt>
<trkpt lat="46.50555" lon="6.74283"><ele>786.6</ele><time>2021-09-11T15:34:01Z</time></trkpt>
<trkpt lat="46.50572" lon="6.74299"><ele>788</ele><time>2021-09-11T15:34:03Z</time></trkpt>
<trkpt lat="46.50595" lon="6.74319"><ele>787.6</ele><time>2021-09-11T15:34:06Z</time></trkpt>
<trkpt lat="46.50616" lon="6.7434"><ele>787.4</ele><time>2021-09-11T15:34:09Z</time></trkpt>
<trkpt lat="46.50635" lon="6.74357"><ele>788.4</ele><time>2021-09-11T15:34:12Z</time></trkpt>
<trkpt lat="46.50653" lon="6.74376"><ele>789.4</ele><time>2021-09-11T15:34:15Z</time></trkpt>
<trkpt lat="46.50659" lon="6.74383"><ele>789.4</ele><time>2021-09-11T15:34:16Z</time></trkpt>
<trkpt lat="46.50668" lon="6.74402"><ele>789.6</ele><time>2021-09-11T15:34:18Z</time></trkpt>
<trkpt lat="46.5068" lon="6.74432"><ele>789.4</ele><time>2021-09-11T15:34:21Z</time></trkpt>
<trkpt lat="46.50693" lon="6.74464"><ele>788.8</ele><time>2021-09-11T15:34:24Z</time></trkpt>
<trkpt lat="46.50701" lon="6.74487"><ele>786.6</ele><time>2021-09-11T15:34:26Z</time></trkpt>
<trkpt lat="46.50704" lon="6.74501"><ele>786.8</ele><time>2021-09-11T15:34:27Z</time></trkpt>
<trkpt lat="46.50705" lon="6.74527"><ele>787</ele><time>2021-09-11T15:34:29Z</time></trkpt>
<trkpt lat="46.50701" lon="6.74562"><ele>787.2</ele><time>2021-09-11T15:34:32Z</time></trkpt>
<trkpt lat="46.50699" lon="6.74597"><ele>786.4</ele><time>2021-09-11T15:34:35Z</time></trkpt>
<trkpt lat="46.50693" lon="6.74623"><ele>785.4</ele><time>2021-09-11T15:34:37Z</time></trkpt>
<trkpt lat="46.50676" lon="6.7464"><ele>784</ele><time>2021-09-11T15:34:39Z</time></trkpt>
<trkpt lat="46.50668" lon="6.74647"><ele>783.6</ele><time>2021-09-11T15:34:40Z</time></trkpt>
<trkpt lat="46.5065" lon="6.74663"><ele>782.6</ele><time>2021-09-11T15:34:43Z</time></trkpt>
<trkpt lat="46.50653" lon="6.74688"><ele>784.4</ele><time>2021-09-11T15:34:51Z</time></trkpt>
<trkpt lat="46.5066" lon="6.747"><ele>785.4</ele><time>2021-09-11T15:34:56Z</time></trkpt>
<trkpt lat="46.50671" lon="6.74722"><ele>787.2</ele><time>2021-09-11T15:35:03Z</time></trkpt>
<trkpt lat="46.50674" lon="6.74728"><ele>788.6</ele><time>2021-09-11T15:35:05Z</time></trkpt>
<trkpt lat="46.50677" lon="6.74736"><ele>790.4</ele><time>2021-09-11T15:35:08Z</time></trkpt>
<trkpt lat="46.50679" lon="6.74738"><ele>791</ele><time>2021-09-11T15:35:09Z</time></trkpt>
<trkpt lat="46.50682" lon="6.74743"><ele>792.2</ele><time>2021-09-11T15:35:11Z</time></trkpt>
<trkpt lat="46.50698" lon="6.74768"><ele>797</ele><time>2021-09-11T15:35:20Z</time></trkpt>
<trkpt lat="46.5071" lon="6.74784"><ele>798.2</ele><time>2021-09-11T15:35:25Z</time></trkpt>
<trkpt lat="46.50719" lon="6.74795"><ele>797</ele><time>2021-09-11T15:35:28Z</time></trkpt>
<trkpt lat="46.50726" lon="6.74807"><ele>795.8</ele><time>2021-09-11T15:35:31Z</time></trkpt>
<trkpt lat="46.50732" lon="6.74818"><ele>795.2</ele><time>2021-09-11T15:35:33Z</time></trkpt>
<trkpt lat="46.50744" lon="6.74842"><ele>795</ele><time>2021-09-11T15:35:37Z</time></trkpt>
<trkpt lat="46.50755" lon="6.74867"><ele>796.2</ele><time>2021-09-11T15:35:41Z</time></trkpt>
<trkpt lat="46.50766" lon="6.74892"><ele>796.8</ele><time>2021-09-11T15:35:45Z</time></trkpt>
<trkpt lat="46.50772" lon="6.7491"><ele>797.8</ele><time>2021-09-11T15:35:48Z</time></trkpt>
<trkpt lat="46.50777" lon="6.74938"><ele>799.2</ele><time>2021-09-11T15:35:53Z</time></trkpt>
<trkpt lat="46.5078" lon="6.74955"><ele>800.6</ele><time>2021-09-11T15:35:57Z</time></trkpt>
<trkpt lat="46.50788" lon="6.74979"><ele>802.2</ele><time>2021-09-11T15:36:03Z</time></trkpt>
<trkpt lat="46.50791" lon="6.74991"><ele>802.6</ele><time>2021-09-11T15:36:06Z</time></trkpt>
<trkpt lat="46.50798" lon="6.75016"><ele>803.2</ele><time>2021-09-11T15:36:13Z</time></trkpt>
<trkpt lat="46.50786" lon="6.75029"><ele>802.8</ele><time>2021-09-11T15:36:19Z</time></trkpt>
<trkpt lat="46.50783" lon="6.75028"><ele>803.2</ele><time>2021-09-11T15:36:21Z</time></trkpt>
<trkpt lat="46.50773" lon="6.75023"><ele>804.4</ele><time>2021-09-11T15:36:26Z</time></trkpt>
<trkpt lat="46.5077" lon="6.75021"><ele>805</ele><time>2021-09-11T15:36:28Z</time></trkpt>
<trkpt lat="46.50768" lon="6.75019"><ele>805.6</ele><time>2021-09-11T15:36:30Z</time></trkpt>
<trkpt lat="46.50743" lon="6.75006"><ele>809.4</ele><time>2021-09-11T15:36:46Z</time></trkpt>
<trkpt lat="46.50726" lon="6.74998"><ele>812.8</ele><time>2021-09-11T15:36:57Z</time></trkpt>
<trkpt lat="46.50709" lon="6.74985"><ele>816.2</ele><time>2021-09-11T15:37:08Z</time></trkpt>
<trkpt lat="46.50695" lon="6.74966"><ele>818.6</ele><time>2021-09-11T15:37:20Z</time></trkpt>
<trkpt lat="46.50691" lon="6.74959"><ele>819.2</ele><time>2021-09-11T15:37:23Z</time></trkpt>
<trkpt lat="46.50678" lon="6.74939"><ele>819.8</ele><time>2021-09-11T15:37:31Z</time></trkpt>
<trkpt lat="46.50663" lon="6.74919"><ele>819.2</ele><time>2021-09-11T15:37:38Z</time></trkpt>
<trkpt lat="46.5065" lon="6.74904"><ele>819.6</ele><time>2021-09-11T15:37:44Z</time></trkpt>
<trkpt lat="46.50625" lon="6.7491"><ele>818.4</ele><time>2021-09-11T15:37:53Z</time></trkpt>
<trkpt lat="46.50616" lon="6.74943"><ele>815.4</ele><time>2021-09-11T15:37:57Z</time></trkpt>
<trkpt lat="46.50614" lon="6.74953"><ele>814.6</ele><time>2021-09-11T15:37:58Z</time></trkpt>
<trkpt lat="46.50614" lon="6.74987"><ele>812.4</ele><time>2021-09-11T15:38:01Z</time></trkpt>
<trkpt lat="46.50613" lon="6.75024"><ele>811.2</ele><time>2021-09-11T15:38:04Z</time></trkpt>
<trkpt lat="46.50599" lon="6.75051"><ele>809.6</ele><time>2021-09-11T15:38:07Z</time></trkpt>
<trkpt lat="46.50578" lon="6.75063"><ele>808.2</ele><time>2021-09-11T15:38:11Z</time></trkpt>
<trkpt lat="46.5056" lon="6.75059"><ele>808</ele><time>2021-09-11T15:38:16Z</time></trkpt>
<trkpt lat="46.50544" lon="6.7504"><ele>806</ele><time>2021-09-11T15:38:21Z</time></trkpt>
<trkpt lat="46.50527" lon="6.75018"><ele>804.4</ele><time>2021-09-11T15:38:25Z</time></trkpt>
<trkpt lat="46.50513" lon="6.75001"><ele>803.2</ele><time>2021-09-11T15:38:28Z</time></trkpt>
<trkpt lat="46.505" lon="6.7498"><ele>803.4</ele><time>2021-09-11T15:38:31Z</time></trkpt>
<trkpt lat="46.50492" lon="6.74966"><ele>803.6</ele><time>2021-09-11T15:38:33Z</time></trkpt>
<trkpt lat="46.50478" lon="6.74946"><ele>804</ele><time>2021-09-11T15:38:36Z</time></trkpt>
<trkpt lat="46.50463" lon="6.74923"><ele>804.8</ele><time>2021-09-11T15:38:39Z</time></trkpt>
<trkpt lat="46.50448" lon="6.74901"><ele>805.8</ele><time>2021-09-11T15:38:42Z</time></trkpt>
<trkpt lat="46.50433" lon="6.74882"><ele>806.4</ele><time>2021-09-11T15:38:45Z</time></trkpt>
<trkpt lat="46.50418" lon="6.74861"><ele>808.8</ele><time>2021-09-11T15:38:49Z</time></trkpt>
<trkpt lat="46.504" lon="6.74845"><ele>810.2</ele><time>2021-09-11T15:38:54Z</time></trkpt>
<trkpt lat="46.50381" lon="6.74835"><ele>812.2</ele><time>2021-09-11T15:38:58Z</time></trkpt>
<trkpt lat="46.50363" lon="6.74824"><ele>812.2</ele><time>2021-09-11T15:39:01Z</time></trkpt>
<trkpt lat="46.50355" lon="6.74821"><ele>811.8</ele><time>2021-09-11T15:39:02Z</time></trkpt>
<trkpt lat="46.50331" lon="6.74825"><ele>811.4</ele><time>2021-09-11T15:39:05Z</time></trkpt>
<trkpt lat="46.50312" lon="6.74839"><ele>809.6</ele><time>2021-09-11T15:39:08Z</time></trkpt>
<trkpt lat="46.50305" lon="6.74845"><ele>808.8</ele><time>2021-09-11T15:39:09Z</time></trkpt>
<trkpt lat="46.50286" lon="6.74869"><ele>806.8</ele><time>2021-09-11T15:39:12Z</time></trkpt>
<trkpt lat="46.50265" lon="6.74892"><ele>805.6</ele><time>2021-09-11T15:39:15Z</time></trkpt>
<trkpt lat="46.50248" lon="6.74908"><ele>804.4</ele><time>2021-09-11T15:39:17Z</time></trkpt>
<trkpt lat="46.5023" lon="6.74922"><ele>802.8</ele><time>2021-09-11T15:39:19Z</time></trkpt>
<trkpt lat="46.50212" lon="6.74939"><ele>802.2</ele><time>2021-09-11T15:39:21Z</time></trkpt>
<trkpt lat="46.50196" lon="6.74958"><ele>802.2</ele><time>2021-09-11T15:39:23Z</time></trkpt>
<trkpt lat="46.50181" lon="6.74974"><ele>801.8</ele><time>2021-09-11T15:39:25Z</time></trkpt>
<trkpt lat="46.50164" lon="6.74994"><ele>801.4</ele><time>2021-09-11T15:39:28Z</time></trkpt>
<trkpt lat="46.5015" lon="6.75014"><ele>800.2</ele><time>2021-09-11T15:39:31Z</time></trkpt>
<trkpt lat="46.50133" lon="6.75037"><ele>799.6</ele><time>2021-09-11T15:39:34Z</time></trkpt>
<trkpt lat="46.5012" lon="6.75055"><ele>799.4</ele><time>2021-09-11T15:39:36Z</time></trkpt>
<trkpt lat="46.50113" lon="6.75063"><ele>799</ele><time>2021-09-11T15:39:37Z</time></trkpt>
<trkpt lat="46.50091" lon="6.75084"><ele>798.4</ele><time>2021-09-11T15:39:40Z</time></trkpt>
<trkpt lat="46.5007" lon="6.751"><ele>797.2</ele><time>2021-09-11T15:39:43Z</time></trkpt>
<trkpt lat="46.50064" lon="6.75106"><ele>796.4</ele><time>2021-09-11T15:39:44Z</time></trkpt>
<trkpt lat="46.50056" lon="6.75124"><ele>795</ele><time>2021-09-11T15:39:46Z</time></trkpt>
<trkpt lat="46.50058" lon="6.75155"><ele>792.4</ele><time>2021-09-11T15:39:49Z</time></trkpt>
<trkpt lat="46.50059" lon="6.75165"><ele>792.4</ele><time>2021-09-11T15:39:50Z</time></trkpt>
<trkpt lat="46.50067" lon="6.75194"><ele>794.4</ele><time>2021-09-11T15:39:53Z</time></trkpt>
<trkpt lat="46.50069" lon="6.75212"><ele>794.8</ele><time>2021-09-11T15:39:55Z</time></trkpt>
<trkpt lat="46.50061" lon="6.75238"><ele>795.2</ele><time>2021-09-11T15:39:58Z</time></trkpt>
<trkpt lat="46.50045" lon="6.75261"><ele>797.8</ele><time>2021-09-11T15:40:02Z</time></trkpt>
<trkpt lat="46.50042" lon="6.75265"><ele>798.4</ele><time>2021-09-11T15:40:03Z</time></trkpt>
<trkpt lat="46.50025" lon="6.75287"><ele>800.4</ele><time>2021-09-11T15:40:08Z</time></trkpt>
<trkpt lat="46.50022" lon="6.75292"><ele>800.6</ele><time>2021-09-11T15:40:09Z</time></trkpt>
<trkpt lat="46.50011" lon="6.7532"><ele>799.2</ele><time>2021-09-11T15:40:14Z</time></trkpt>
<trkpt lat="46.50005" lon="6.75337"><ele>796.8</ele><time>2021-09-11T15:40:16Z</time></trkpt>
<trkpt lat="46.50003" lon="6.75347"><ele>795.6</ele><time>2021-09-11T15:40:17Z</time></trkpt>
<trkpt lat="46.50003" lon="6.75367"><ele>793.6</ele><time>2021-09-11T15:40:19Z</time></trkpt>
<trkpt lat="46.50009" lon="6.75391"><ele>791.2</ele><time>2021-09-11T15:40:21Z</time></trkpt>
<trkpt lat="46.50017" lon="6.75416"><ele>789</ele><time>2021-09-11T15:40:23Z</time></trkpt>
<trkpt lat="46.50024" lon="6.75441"><ele>786.4</ele><time>2021-09-11T15:40:25Z</time></trkpt>
<trkpt lat="46.50032" lon="6.75466"><ele>784</ele><time>2021-09-11T15:40:27Z</time></trkpt>
<trkpt lat="46.50039" lon="6.75493"><ele>781.6</ele><time>2021-09-11T15:40:29Z</time></trkpt>
<trkpt lat="46.50047" lon="6.75521"><ele>779.2</ele><time>2021-09-11T15:40:31Z</time></trkpt>
<trkpt lat="46.50055" lon="6.75547"><ele>776.6</ele><time>2021-09-11T15:40:33Z</time></trkpt>
<trkpt lat="46.50063" lon="6.75578"><ele>773</ele><time>2021-09-11T15:40:36Z</time></trkpt>
<trkpt lat="46.50065" lon="6.75586"><ele>771.6</ele><time>2021-09-11T15:40:37Z</time></trkpt>
<trkpt lat="46.50063" lon="6.75601"><ele>769</ele><time>2021-09-11T15:40:39Z</time></trkpt>
<trkpt lat="46.50049" lon="6.75616"><ele>765.4</ele><time>2021-09-11T15:40:42Z</time></trkpt>
<trkpt lat="46.50027" lon="6.75608"><ele>761.8</ele><time>2021-09-11T15:40:45Z</time></trkpt>
<trkpt lat="46.50019" lon="6.75603"><ele>760.6</ele><time>2021-09-11T15:40:46Z</time></trkpt>
<trkpt lat="46.50003" lon="6.75589"><ele>758.4</ele><time>2021-09-11T15:40:48Z</time></trkpt>
<trkpt lat="46.49984" lon="6.75577"><ele>756</ele><time>2021-09-11T15:40:50Z</time></trkpt>
<trkpt lat="46.49975" lon="6.75574"><ele>755</ele><time>2021-09-11T15:40:51Z</time></trkpt>
<trkpt lat="46.49952" lon="6.75578"><ele>751.2</ele><time>2021-09-11T15:40:54Z</time></trkpt>
<trkpt lat="46.49946" lon="6.75605"><ele>748.2</ele><time>2021-09-11T15:40:57Z</time></trkpt>
<trkpt lat="46.49954" lon="6.75628"><ele>745.6</ele><time>2021-09-11T15:40:59Z</time></trkpt>
<trkpt lat="46.4996" lon="6.75641"><ele>744.2</ele><time>2021-09-11T15:41:00Z</time></trkpt>
<trkpt lat="46.4997" lon="6.7567"><ele>741.4</ele><time>2021-09-11T15:41:02Z</time></trkpt>
<trkpt lat="46.49981" lon="6.75699"><ele>739</ele><time>2021-09-11T15:41:04Z</time></trkpt>
<trkpt lat="46.4999" lon="6.75725"><ele>737</ele><time>2021-09-11T15:41:06Z</time></trkpt>
<trkpt lat="46.49999" lon="6.75748"><ele>734.8</ele><time>2021-09-11T15:41:08Z</time></trkpt>
<trkpt lat="46.50008" lon="6.75769"><ele>733</ele><time>2021-09-11T15:41:10Z</time></trkpt>
<trkpt lat="46.50023" lon="6.75785"><ele>731</ele><time>2021-09-11T15:41:12Z</time></trkpt>
<trkpt lat="46.50042" lon="6.758"><ele>728.6</ele><time>2021-09-11T15:41:14Z</time></trkpt>
<trkpt lat="46.50049" lon="6.75806"><ele>727.6</ele><time>2021-09-11T15:41:15Z</time></trkpt>
<trkpt lat="46.5006" lon="6.75817"><ele>725.8</ele><time>2021-09-11T15:41:17Z</time></trkpt>
<trkpt lat="46.50061" lon="6.75843"><ele>721.8</ele><time>2021-09-11T15:41:21Z</time></trkpt>
<trkpt lat="46.50044" lon="6.75861"><ele>718.2</ele><time>2021-09-11T15:41:24Z</time></trkpt>
<trkpt lat="46.50026" lon="6.75875"><ele>715.6</ele><time>2021-09-11T15:41:26Z</time></trkpt>
<trkpt lat="46.50018" lon="6.75883"><ele>714.2</ele><time>2021-09-11T15:41:27Z</time></trkpt>
<trkpt lat="46.50004" lon="6.75902"><ele>712</ele><time>2021-09-11T15:41:29Z</time></trkpt>
<trkpt lat="46.49987" lon="6.75925"><ele>708.8</ele><time>2021-09-11T15:41:32Z</time></trkpt>
<trkpt lat="46.49966" lon="6.75938"><ele>705.4</ele><time>2021-09-11T15:41:35Z</time></trkpt>
<trkpt lat="46.49944" lon="6.75958"><ele>702.4</ele><time>2021-09-11T15:41:38Z</time></trkpt>
<trkpt lat="46.49938" lon="6.75967"><ele>702</ele><time>2021-09-11T15:41:39Z</time></trkpt>
<trkpt lat="46.49918" lon="6.75991"><ele>701</ele><time>2021-09-11T15:41:42Z</time></trkpt>
<trkpt lat="46.49911" lon="6.75997"><ele>700.6</ele><time>2021-09-11T15:41:43Z</time></trkpt>
<trkpt lat="46.49891" lon="6.76011"><ele>699.8</ele><time>2021-09-11T15:41:46Z</time></trkpt>
<trkpt lat="46.4987" lon="6.76018"><ele>699.2</ele><time>2021-09-11T15:41:49Z</time></trkpt>
<trkpt lat="46.49846" lon="6.76019"><ele>698.4</ele><time>2021-09-11T15:41:52Z</time></trkpt>
<trkpt lat="46.4983" lon="6.76022"><ele>697.2</ele><time>2021-09-11T15:41:54Z</time></trkpt>
<trkpt lat="46.49812" lon="6.76031"><ele>696.2</ele><time>2021-09-11T15:41:56Z</time></trkpt>
<trkpt lat="46.49795" lon="6.76045"><ele>694.6</ele><time>2021-09-11T15:41:58Z</time></trkpt>
<trkpt lat="46.49781" lon="6.76065"><ele>693.2</ele><time>2021-09-11T15:42:00Z</time></trkpt>
<trkpt lat="46.49774" lon="6.76078"><ele>692.2</ele><time>2021-09-11T15:42:01Z</time></trkpt>
<trkpt lat="46.49761" lon="6.76104"><ele>690.2</ele><time>2021-09-11T15:42:03Z</time></trkpt>
<trkpt lat="46.49745" lon="6.76131"><ele>688.6</ele><time>2021-09-11T15:42:05Z</time></trkpt>
<trkpt lat="46.4973" lon="6.76151"><ele>687</ele><time>2021-09-11T15:42:07Z</time></trkpt>
<trkpt lat="46.49723" lon="6.76157"><ele>686.4</ele><time>2021-09-11T15:42:08Z</time></trkpt>
<trkpt lat="46.497" lon="6.7616"><ele>686</ele><time>2021-09-11T15:42:11Z</time></trkpt>
<trkpt lat="46.49683" lon="6.7614"><ele>684</ele><time>2021-09-11T15:42:15Z</time></trkpt>
<trkpt lat="46.49678" lon="6.76131"><ele>683.4</ele><time>2021-09-11T15:42:17Z</time></trkpt>
<trkpt lat="46.49667" lon="6.76109"><ele>682.2</ele><time>2021-09-11T15:42:21Z</time></trkpt>
<trkpt lat="46.49656" lon="6.76091"><ele>681.2</ele><time>2021-09-11T15:42:24Z</time></trkpt>
<trkpt lat="46.49639" lon="6.76072"><ele>680.6</ele><time>2021-09-11T15:42:27Z</time></trkpt>
<trkpt lat="46.49633" lon="6.76067"><ele>680.4</ele><time>2021-09-11T15:42:28Z</time></trkpt>
<trkpt lat="46.49611" lon="6.76054"><ele>678.2</ele><time>2021-09-11T15:42:31Z</time></trkpt>
<trkpt lat="46.49603" lon="6.76052"><ele>677.4</ele><time>2021-09-11T15:42:32Z</time></trkpt>
<trkpt lat="46.4958" lon="6.76044"><ele>675.2</ele><time>2021-09-11T15:42:35Z</time></trkpt>
<trkpt lat="46.49573" lon="6.76042"><ele>674.6</ele><time>2021-09-11T15:42:36Z</time></trkpt>
<trkpt lat="46.49553" lon="6.76033"><ele>672.8</ele><time>2021-09-11T15:42:39Z</time></trkpt>
<trkpt lat="46.49532" lon="6.76027"><ele>671.4</ele><time>2021-09-11T15:42:42Z</time></trkpt>
<trkpt lat="46.4951" lon="6.76021"><ele>669.6</ele><time>2021-09-11T15:42:45Z</time></trkpt>
<trkpt lat="46.49486" lon="6.76016"><ele>668.2</ele><time>2021-09-11T15:42:48Z</time></trkpt>
<trkpt lat="46.49462" lon="6.76014"><ele>667.4</ele><time>2021-09-11T15:42:51Z</time></trkpt>
<trkpt lat="46.49439" lon="6.76013"><ele>667.2</ele><time>2021-09-11T15:42:54Z</time></trkpt>
<trkpt lat="46.49418" lon="6.76011"><ele>666.4</ele><time>2021-09-11T15:42:57Z</time></trkpt>
<trkpt lat="46.49399" lon="6.76012"><ele>664.8</ele><time>2021-09-11T15:43:00Z</time></trkpt>
<trkpt lat="46.49375" lon="6.76008"><ele>664</ele><time>2021-09-11T15:43:04Z</time></trkpt>
<trkpt lat="46.49354" lon="6.76004"><ele>662.4</ele><time>2021-09-11T15:43:07Z</time></trkpt>
<trkpt lat="46.49334" lon="6.76003"><ele>661.8</ele><time>2021-09-11T15:43:10Z</time></trkpt>
<trkpt lat="46.49321" lon="6.76005"><ele>661</ele><time>2021-09-11T15:43:12Z</time></trkpt>
<trkpt lat="46.49305" lon="6.76022"><ele>660.8</ele><time>2021-09-11T15:43:15Z</time></trkpt>
<trkpt lat="46.49289" lon="6.7604"><ele>661</ele><time>2021-09-11T15:43:18Z</time></trkpt>
<trkpt lat="46.49271" lon="6.76051"><ele>660.8</ele><time>2021-09-11T15:43:21Z</time></trkpt>
<trkpt lat="46.4925" lon="6.76052"><ele>661.4</ele><time>2021-09-11T15:43:24Z</time></trkpt>
<trkpt lat="46.49243" lon="6.76051"><ele>661.2</ele><time>2021-09-11T15:43:25Z</time></trkpt>
<trkpt lat="46.4922" lon="6.76049"><ele>659.6</ele><time>2021-09-11T15:43:28Z</time></trkpt>
<trkpt lat="46.49202" lon="6.76051"><ele>657.8</ele><time>2021-09-11T15:43:31Z</time></trkpt>
<trkpt lat="46.49193" lon="6.76052"><ele>656</ele><time>2021-09-11T15:43:33Z</time></trkpt>
<trkpt lat="46.49189" lon="6.76051"><ele>655.4</ele><time>2021-09-11T15:43:34Z</time></trkpt>
<trkpt lat="46.49172" lon="6.76027"><ele>652.4</ele><time>2021-09-11T15:43:38Z</time></trkpt>
<trkpt lat="46.49161" lon="6.76008"><ele>650.2</ele><time>2021-09-11T15:43:40Z</time></trkpt>
<trkpt lat="46.49148" lon="6.75992"><ele>648.4</ele><time>2021-09-11T15:43:42Z</time></trkpt>
<trkpt lat="46.4913" lon="6.75978"><ele>644</ele><time>2021-09-11T15:43:46Z</time></trkpt>
<trkpt lat="46.49123" lon="6.75969"><ele>642</ele><time>2021-09-11T15:43:48Z</time></trkpt>
<trkpt lat="46.4912" lon="6.75964"><ele>641.4</ele><time>2021-09-11T15:43:49Z</time></trkpt>
<trkpt lat="46.49104" lon="6.75939"><ele>640.2</ele><time>2021-09-11T15:43:53Z</time></trkpt>
<trkpt lat="46.49088" lon="6.75917"><ele>640.4</ele><time>2021-09-11T15:43:57Z</time></trkpt>
<trkpt lat="46.49071" lon="6.75897"><ele>641</ele><time>2021-09-11T15:44:01Z</time></trkpt>
<trkpt lat="46.49055" lon="6.75876"><ele>641</ele><time>2021-09-11T15:44:05Z</time></trkpt>
<trkpt lat="46.49043" lon="6.75851"><ele>641.6</ele><time>2021-09-11T15:44:09Z</time></trkpt>
<trkpt lat="46.49035" lon="6.75832"><ele>641.4</ele><time>2021-09-11T15:44:12Z</time></trkpt>
<trkpt lat="46.49025" lon="6.75806"><ele>641</ele><time>2021-09-11T15:44:16Z</time></trkpt>
<trkpt lat="46.49017" lon="6.75787"><ele>640.6</ele><time>2021-09-11T15:44:19Z</time></trkpt>
<trkpt lat="46.49008" lon="6.75765"><ele>639.6</ele><time>2021-09-11T15:44:22Z</time></trkpt>
<trkpt lat="46.49006" lon="6.75757"><ele>639.4</ele><time>2021-09-11T15:44:23Z</time></trkpt>
<trkpt lat="46.49004" lon="6.75749"><ele>639.2</ele><time>2021-09-11T15:44:24Z</time></trkpt>
<trkpt lat="46.49002" lon="6.7574"><ele>638.8</ele><time>2021-09-11T15:44:25Z</time></trkpt>
<trkpt lat="46.49003" lon="6.75712"><ele>637</ele><time>2021-09-11T15:44:28Z</time></trkpt>
<trkpt lat="46.49013" lon="6.75691"><ele>635.4</ele><time>2021-09-11T15:44:31Z</time></trkpt>
<trkpt lat="46.49026" lon="6.75681"><ele>635</ele><time>2021-09-11T15:44:33Z</time></trkpt>
<trkpt lat="46.49036" lon="6.75669"><ele>634.4</ele><time>2021-09-11T15:44:35Z</time></trkpt>
<trkpt lat="46.49051" lon="6.75644"><ele>634</ele><time>2021-09-11T15:44:39Z</time></trkpt>
<trkpt lat="46.49066" lon="6.75618"><ele>634.2</ele><time>2021-09-11T15:44:43Z</time></trkpt>
<trkpt lat="46.49073" lon="6.75606"><ele>634.4</ele><time>2021-09-11T15:44:45Z</time></trkpt>
<trkpt lat="46.49087" lon="6.75582"><ele>635.2</ele><time>2021-09-11T15:44:49Z</time></trkpt>
<trkpt lat="46.49101" lon="6.75557"><ele>636.2</ele><time>2021-09-11T15:44:53Z</time></trkpt>
<trkpt lat="46.49116" lon="6.75533"><ele>635</ele><time>2021-09-11T15:44:57Z</time></trkpt>
<trkpt lat="46.49131" lon="6.75519"><ele>633.6</ele><time>2021-09-11T15:45:00Z</time></trkpt>
<trkpt lat="46.49151" lon="6.75512"><ele>632.8</ele><time>2021-09-11T15:45:03Z</time></trkpt>
<trkpt lat="46.49159" lon="6.75511"><ele>632.2</ele><time>2021-09-11T15:45:04Z</time></trkpt>
<trkpt lat="46.49183" lon="6.75508"><ele>630.6</ele><time>2021-09-11T15:45:07Z</time></trkpt>
<trkpt lat="46.49191" lon="6.75506"><ele>630.2</ele><time>2021-09-11T15:45:08Z</time></trkpt>
<trkpt lat="46.492" lon="6.75505"><ele>629.6</ele><time>2021-09-11T15:45:09Z</time></trkpt>
<trkpt lat="46.49218" lon="6.75502"><ele>628.8</ele><time>2021-09-11T15:45:11Z</time></trkpt>
<trkpt lat="46.49236" lon="6.75496"><ele>628.8</ele><time>2021-09-11T15:45:13Z</time></trkpt>
<trkpt lat="46.49254" lon="6.75483"><ele>628</ele><time>2021-09-11T15:45:15Z</time></trkpt>
<trkpt lat="46.49272" lon="6.75471"><ele>626.4</ele><time>2021-09-11T15:45:17Z</time></trkpt>
<trkpt lat="46.49282" lon="6.75468"><ele>625.8</ele><time>2021-09-11T15:45:18Z</time></trkpt>
<trkpt lat="46.49293" lon="6.75468"><ele>625</ele><time>2021-09-11T15:45:19Z</time></trkpt>
<trkpt lat="46.49316" lon="6.75469"><ele>623</ele><time>2021-09-11T15:45:21Z</time></trkpt>
<trkpt lat="46.49338" lon="6.75459"><ele>620.8</ele><time>2021-09-11T15:45:23Z</time></trkpt>
<trkpt lat="46.49349" lon="6.75451"><ele>619.6</ele><time>2021-09-11T15:45:24Z</time></trkpt>
<trkpt lat="46.49369" lon="6.75432"><ele>617</ele><time>2021-09-11T15:45:26Z</time></trkpt>
<trkpt lat="46.49376" lon="6.75421"><ele>616.4</ele><time>2021-09-11T15:45:27Z</time></trkpt>
<trkpt lat="46.49381" lon="6.75387"><ele>614</ele><time>2021-09-11T15:45:30Z</time></trkpt>
<trkpt lat="46.49374" lon="6.75366"><ele>611.6</ele><time>2021-09-11T15:45:33Z</time></trkpt>
<trkpt lat="46.49373" lon="6.75363"><ele>610.8</ele><time>2021-09-11T15:45:34Z</time></trkpt>
<trkpt lat="46.49368" lon="6.75358"><ele>609</ele><time>2021-09-11T15:45:38Z</time></trkpt>
<trkpt lat="46.49364" lon="6.75363"><ele>604.8</ele><time>2021-09-11T15:45:54Z</time></trkpt>
<trkpt lat="46.49345" lon="6.75378"><ele>601</ele><time>2021-09-11T15:46:00Z</time></trkpt>
<trkpt lat="46.49329" lon="6.75392"><ele>598.4</ele><time>2021-09-11T15:46:03Z</time></trkpt>
<trkpt lat="46.49314" lon="6.75406"><ele>596.2</ele><time>2021-09-11T15:46:06Z</time></trkpt>
<trkpt lat="46.49308" lon="6.75408"><ele>595.2</ele><time>2021-09-11T15:46:07Z</time></trkpt>
<trkpt lat="46.49287" lon="6.75408"><ele>593</ele><time>2021-09-11T15:46:10Z</time></trkpt>
<trkpt lat="46.49268" lon="6.75385"><ele>590.2</ele><time>2021-09-11T15:46:13Z</time></trkpt>
<trkpt lat="46.49265" lon="6.75349"><ele>587</ele><time>2021-09-11T15:46:16Z</time></trkpt>
<trkpt lat="46.49276" lon="6.7532"><ele>584.4</ele><time>2021-09-11T15:46:19Z</time></trkpt>
<trkpt lat="46.49281" lon="6.75312"><ele>584.2</ele><time>2021-09-11T15:46:20Z</time></trkpt>
<trkpt lat="46.49284" lon="6.75305"><ele>583.4</ele><time>2021-09-11T15:46:21Z</time></trkpt>
<trkpt lat="46.49282" lon="6.7528"><ele>581.6</ele><time>2021-09-11T15:46:25Z</time></trkpt>
<trkpt lat="46.49279" lon="6.75276"><ele>581.2</ele><time>2021-09-11T15:46:26Z</time></trkpt>
<trkpt lat="46.49275" lon="6.75269"><ele>580.2</ele><time>2021-09-11T15:46:28Z</time></trkpt>
<trkpt lat="46.49286" lon="6.75244"><ele>580</ele><time>2021-09-11T15:46:35Z</time></trkpt>
<trkpt lat="46.49294" lon="6.7523"><ele>580.6</ele><time>2021-09-11T15:46:39Z</time></trkpt>
<trkpt lat="46.49305" lon="6.75215"><ele>581.6</ele><time>2021-09-11T15:46:44Z</time></trkpt>
<trkpt lat="46.49307" lon="6.75211"><ele>581.8</ele><time>2021-09-11T15:46:45Z</time></trkpt>
<trkpt lat="46.49315" lon="6.75197"><ele>583.8</ele><time>2021-09-11T15:46:49Z</time></trkpt>
<trkpt lat="46.49328" lon="6.7517"><ele>586.8</ele><time>2021-09-11T15:46:56Z</time></trkpt>
<trkpt lat="46.49334" lon="6.75158"><ele>587.8</ele><time>2021-09-11T15:46:59Z</time></trkpt>
<trkpt lat="46.49346" lon="6.75137"><ele>588.6</ele><time>2021-09-11T15:47:04Z</time></trkpt>
<trkpt lat="46.49357" lon="6.75116"><ele>589</ele><time>2021-09-11T15:47:09Z</time></trkpt>
<trkpt lat="46.4937" lon="6.75092"><ele>588.8</ele><time>2021-09-11T15:47:14Z</time></trkpt>
<trkpt lat="46.49383" lon="6.75071"><ele>588.8</ele><time>2021-09-11T15:47:18Z</time></trkpt>
<trkpt lat="46.49396" lon="6.75048"><ele>588.4</ele><time>2021-09-11T15:47:22Z</time></trkpt>
<trkpt lat="46.49407" lon="6.75028"><ele>586.4</ele><time>2021-09-11T15:47:25Z</time></trkpt>
<trkpt lat="46.49425" lon="6.75003"><ele>583.6</ele><time>2021-09-11T15:47:28Z</time></trkpt>
<trkpt lat="46.49438" lon="6.74984"><ele>582.4</ele><time>2021-09-11T15:47:30Z</time></trkpt>
<trkpt lat="46.49452" lon="6.74964"><ele>581</ele><time>2021-09-11T15:47:32Z</time></trkpt>
<trkpt lat="46.49466" lon="6.74944"><ele>579.6</ele><time>2021-09-11T15:47:34Z</time></trkpt>
<trkpt lat="46.49474" lon="6.74935"><ele>579.2</ele><time>2021-09-11T15:47:35Z</time></trkpt>
<trkpt lat="46.49489" lon="6.74918"><ele>578.6</ele><time>2021-09-11T15:47:37Z</time></trkpt>
<trkpt lat="46.49504" lon="6.74901"><ele>578.8</ele><time>2021-09-11T15:47:39Z</time></trkpt>
<trkpt lat="46.49523" lon="6.74876"><ele>578.6</ele><time>2021-09-11T15:47:42Z</time></trkpt>
<trkpt lat="46.49541" lon="6.7485"><ele>577.8</ele><time>2021-09-11T15:47:45Z</time></trkpt>
<trkpt lat="46.49557" lon="6.74823"><ele>576.8</ele><time>2021-09-11T15:47:48Z</time></trkpt>
<trkpt lat="46.49571" lon="6.74797"><ele>577.2</ele><time>2021-09-11T15:47:51Z</time></trkpt>
<trkpt lat="46.49585" lon="6.74774"><ele>578</ele><time>2021-09-11T15:47:54Z</time></trkpt>
<trkpt lat="46.49597" lon="6.74753"><ele>579.2</ele><time>2021-09-11T15:47:57Z</time></trkpt>
<trkpt lat="46.49608" lon="6.74729"><ele>580.4</ele><time>2021-09-11T15:48:01Z</time></trkpt>
<trkpt lat="46.49617" lon="6.74701"><ele>581.8</ele><time>2021-09-11T15:48:06Z</time></trkpt>
<trkpt lat="46.49627" lon="6.74676"><ele>583</ele><time>2021-09-11T15:48:11Z</time></trkpt>
<trkpt lat="46.49632" lon="6.74662"><ele>583.2</ele><time>2021-09-11T15:48:14Z</time></trkpt>
<trkpt lat="46.49636" lon="6.74645"><ele>582.6</ele><time>2021-09-11T15:48:19Z</time></trkpt>
<trkpt lat="46.49637" lon="6.74635"><ele>581.4</ele><time>2021-09-11T15:48:22Z</time></trkpt>
<trkpt lat="46.49636" lon="6.74621"><ele>578.6</ele><time>2021-09-11T15:48:26Z</time></trkpt>
<trkpt lat="46.49631" lon="6.7459"><ele>570.6</ele><time>2021-09-11T15:48:32Z</time></trkpt>
<trkpt lat="46.4963" lon="6.74584"><ele>568.6</ele><time>2021-09-11T15:48:33Z</time></trkpt>
<trkpt lat="46.49613" lon="6.74556"><ele>561.4</ele><time>2021-09-11T15:48:37Z</time></trkpt>
<trkpt lat="46.49607" lon="6.74548"><ele>560.2</ele><time>2021-09-11T15:48:38Z</time></trkpt>
<trkpt lat="46.49588" lon="6.74528"><ele>555</ele><time>2021-09-11T15:48:41Z</time></trkpt>
<trkpt lat="46.49567" lon="6.74507"><ele>552.4</ele><time>2021-09-11T15:48:44Z</time></trkpt>
<trkpt lat="46.49561" lon="6.74502"><ele>551</ele><time>2021-09-11T15:48:45Z</time></trkpt>
<trkpt lat="46.49547" lon="6.74491"><ele>548.6</ele><time>2021-09-11T15:48:48Z</time></trkpt>
<trkpt lat="46.49544" lon="6.74463"><ele>547.8</ele><time>2021-09-11T15:48:52Z</time></trkpt>
<trkpt lat="46.49544" lon="6.74456"><ele>548</ele><time>2021-09-11T15:48:53Z</time></trkpt>
<trkpt lat="46.49546" lon="6.74442"><ele>548</ele><time>2021-09-11T15:48:55Z</time></trkpt>
<trkpt lat="46.49547" lon="6.74435"><ele>547.4</ele><time>2021-09-11T15:48:56Z</time></trkpt>
<trkpt lat="46.49559" lon="6.74407"><ele>546</ele><time>2021-09-11T15:49:00Z</time></trkpt>
<trkpt lat="46.49568" lon="6.74388"><ele>545.2</ele><time>2021-09-11T15:49:03Z</time></trkpt>
<trkpt lat="46.49572" lon="6.74376"><ele>544</ele><time>2021-09-11T15:49:05Z</time></trkpt>
<trkpt lat="46.4957" lon="6.74349"><ele>539.8</ele><time>2021-09-11T15:49:09Z</time></trkpt>
<trkpt lat="46.49557" lon="6.74328"><ele>535.4</ele><time>2021-09-11T15:49:12Z</time></trkpt>
<trkpt lat="46.49551" lon="6.74322"><ele>534.6</ele><time>2021-09-11T15:49:13Z</time></trkpt>
<trkpt lat="46.49546" lon="6.74316"><ele>533.6</ele><time>2021-09-11T15:49:14Z</time></trkpt>
<trkpt lat="46.49538" lon="6.74291"><ele>531</ele><time>2021-09-11T15:49:19Z</time></trkpt>
<trkpt lat="46.49548" lon="6.74278"><ele>533.4</ele><time>2021-09-11T15:49:27Z</time></trkpt>
<trkpt lat="46.49552" lon="6.74279"><ele>533.6</ele><time>2021-09-11T15:49:30Z</time></trkpt>
<trkpt lat="46.49554" lon="6.74279"><ele>533.6</ele><time>2021-09-11T15:49:31Z</time></trkpt>
<trkpt lat="46.49561" lon="6.74279"><ele>534</ele><time>2021-09-11T15:49:36Z</time></trkpt>
<trkpt lat="46.49562" lon="6.74279"><ele>534</ele><time>2021-09-11T15:49:37Z</time></trkpt>
<trkpt lat="46.49565" lon="6.74278"><ele>534.2</ele><time>2021-09-11T15:49:39Z</time></trkpt>
<trkpt lat="46.49567" lon="6.74278"><ele>534</ele><time>2021-09-11T15:49:40Z</time></trkpt>
<trkpt lat="46.49569" lon="6.74277"><ele>534</ele><time>2021-09-11T15:49:42Z</time></trkpt>
<trkpt lat="46.49575" lon="6.74271"><ele>534.4</ele><time>2021-09-11T15:49:47Z</time></trkpt>
<trkpt lat="46.49576" lon="6.74269"><ele>534.4</ele><time>2021-09-11T15:49:48Z</time></trkpt>
<trkpt lat="46.49577" lon="6.74268"><ele>534.6</ele><time>2021-09-11T15:49:49Z</time></trkpt>
<trkpt lat="46.49579" lon="6.74266"><ele>534.8</ele><time>2021-09-11T15:49:51Z</time></trkpt>
<trkpt lat="46.49583" lon="6.74264"><ele>534.8</ele><time>2021-09-11T15:49:54Z</time></trkpt>
<trkpt lat="46.49581" lon="6.74262"><ele>534</ele><time>2021-09-11T15:50:04Z</time></trkpt>
<trkpt lat="46.49581" lon="6.74262"><ele>533.6</ele><time>2021-09-11T15:50:12Z</time></trkpt>
<trkpt lat="46.49581" lon="6.74262"><ele>533.8</ele><time>2021-09-11T15:50:14Z</time></trkpt>
<trkpt lat="46.49581" lon="6.74262"><ele>533.4</ele><time>2021-09-11T15:50:22Z</time></trkpt>
<trkpt lat="46.49581" lon="6.74262"><ele>533.4</ele><time>2021-09-11T15:50:23Z</time></trkpt>
<trkpt lat="46.49581" lon="6.74262"><ele>533.4</ele><time>2021-09-11T15:50:25Z</time></trkpt>
<trkpt lat="46.49581" lon="6.74262"><ele>533.4</ele><time>2021-09-11T15:50:26Z</time></trkpt>
<trkpt lat="46.49581" lon="6.74262"><ele>533.6</ele><time>2021-09-11T15:50:31Z</time></trkpt>
<trkpt lat="46.49581" lon="6.74262"><ele>533.4</ele><time>2021-09-11T15:50:40Z</time></trkpt>
<trkpt lat="46.49564" lon="6.74277"><ele>533.8</ele><time>2021-09-11T15:51:00Z</time></trkpt>
<trkpt lat="46.49548" lon="6.74279"><ele>533.2</ele><time>2021-09-11T15:51:03Z</time></trkpt>
<trkpt lat="46.49527" lon="6.74295"><ele>531.8</ele><time>2021-09-11T15:51:07Z</time></trkpt>
<trkpt lat="46.49522" lon="6.743"><ele>531.6</ele><time>2021-09-11T15:51:08Z</time></trkpt>
<trkpt lat="46.49509" lon="6.74318"><ele>530</ele><time>2021-09-11T15:51:11Z</time></trkpt>
<trkpt lat="46.49496" lon="6.74337"><ele>528.6</ele><time>2021-09-11T15:51:14Z</time></trkpt>
<trkpt lat="46.4948" lon="6.7436"><ele>525.8</ele><time>2021-09-11T15:51:18Z</time></trkpt>
<trkpt lat="46.49468" lon="6.74377"><ele>523</ele><time>2021-09-11T15:51:21Z</time></trkpt>
<trkpt lat="46.49452" lon="6.74398"><ele>518.6</ele><time>2021-09-11T15:51:25Z</time></trkpt>
<trkpt lat="46.49438" lon="6.74414"><ele>514.2</ele><time>2021-09-11T15:51:29Z</time></trkpt>
<trkpt lat="46.49416" lon="6.74409"><ele>508.4</ele><time>2021-09-11T15:51:34Z</time></trkpt>
<trkpt lat="46.49411" lon="6.74405"><ele>507</ele><time>2021-09-11T15:51:35Z</time></trkpt>
<trkpt lat="46.4939" lon="6.74388"><ele>501</ele><time>2021-09-11T15:51:39Z</time></trkpt>
<trkpt lat="46.49373" lon="6.74379"><ele>497</ele><time>2021-09-11T15:51:42Z</time></trkpt>
<trkpt lat="46.49359" lon="6.74371"><ele>493.8</ele><time>2021-09-11T15:51:45Z</time></trkpt>
<trkpt lat="46.4935" lon="6.74363"><ele>491.4</ele><time>2021-09-11T15:51:47Z</time></trkpt>
<trkpt lat="46.49336" lon="6.74349"><ele>488</ele><time>2021-09-11T15:51:50Z</time></trkpt>
<trkpt lat="46.49316" lon="6.74343"><ele>483.2</ele><time>2021-09-11T15:51:54Z</time></trkpt>
<trkpt lat="46.49306" lon="6.74343"><ele>481</ele><time>2021-09-11T15:51:56Z</time></trkpt>
<trkpt lat="46.49285" lon="6.74349"><ele>476</ele><time>2021-09-11T15:52:01Z</time></trkpt>
<trkpt lat="46.49281" lon="6.7435"><ele>474.8</ele><time>2021-09-11T15:52:02Z</time></trkpt>
<trkpt lat="46.49263" lon="6.74354"><ele>470</ele><time>2021-09-11T15:52:06Z</time></trkpt>
<trkpt lat="46.49247" lon="6.74357"><ele>465.4</ele><time>2021-09-11T15:52:10Z</time></trkpt>
<trkpt lat="46.49241" lon="6.74368"><ele>461.4</ele><time>2021-09-11T15:52:14Z</time></trkpt>
<trkpt lat="46.4924" lon="6.74375"><ele>459.6</ele><time>2021-09-11T15:52:16Z</time></trkpt>
<trkpt lat="46.49237" lon="6.74383"><ele>456.4</ele><time>2021-09-11T15:52:21Z</time></trkpt>
<trkpt lat="46.49237" lon="6.74384"><ele>455.6</ele><time>2021-09-11T15:52:22Z</time></trkpt>
<trkpt lat="46.49236" lon="6.74363"><ele>454</ele><time>2021-09-11T15:52:28Z</time></trkpt>
<trkpt lat="46.49245" lon="6.74338"><ele>452.6</ele><time>2021-09-11T15:52:31Z</time></trkpt>
<trkpt lat="46.49258" lon="6.7431"><ele>451.6</ele><time>2021-09-11T15:52:34Z</time></trkpt>
<trkpt lat="46.49262" lon="6.743"><ele>451.4</ele><time>2021-09-11T15:52:35Z</time></trkpt>
<trkpt lat="46.49265" lon="6.74264"><ele>451</ele><time>2021-09-11T15:52:38Z</time></trkpt>
<trkpt lat="46.4926" lon="6.74227"><ele>449.6</ele><time>2021-09-11T15:52:41Z</time></trkpt>
<trkpt lat="46.49257" lon="6.74204"><ele>449</ele><time>2021-09-11T15:52:43Z</time></trkpt>
<trkpt lat="46.49259" lon="6.74175"><ele>448</ele><time>2021-09-11T15:52:46Z</time></trkpt>
<trkpt lat="46.4926" lon="6.74167"><ele>448</ele><time>2021-09-11T15:52:47Z</time></trkpt>
<trkpt lat="46.49266" lon="6.74137"><ele>447.2</ele><time>2021-09-11T15:52:51Z</time></trkpt>
<trkpt lat="46.49273" lon="6.74106"><ele>446.8</ele><time>2021-09-11T15:52:55Z</time></trkpt>
<trkpt lat="46.4928" lon="6.74074"><ele>446.2</ele><time>2021-09-11T15:52:59Z</time></trkpt>
<trkpt lat="46.49286" lon="6.74049"><ele>446</ele><time>2021-09-11T15:53:02Z</time></trkpt>
<trkpt lat="46.49288" lon="6.74031"><ele>445.6</ele><time>2021-09-11T15:53:04Z</time></trkpt>
<trkpt lat="46.49288" lon="6.74002"><ele>444.8</ele><time>2021-09-11T15:53:07Z</time></trkpt>
<trkpt lat="46.49286" lon="6.73972"><ele>444</ele><time>2021-09-11T15:53:10Z</time></trkpt>
<trkpt lat="46.49283" lon="6.73939"><ele>442.8</ele><time>2021-09-11T15:53:13Z</time></trkpt>
<trkpt lat="46.49282" lon="6.73904"><ele>441.4</ele><time>2021-09-11T15:53:16Z</time></trkpt>
<trkpt lat="46.49286" lon="6.73867"><ele>440.2</ele><time>2021-09-11T15:53:19Z</time></trkpt>
<trkpt lat="46.49291" lon="6.73843"><ele>439.6</ele><time>2021-09-11T15:53:21Z</time></trkpt>
<trkpt lat="46.493" lon="6.73813"><ele>439.2</ele><time>2021-09-11T15:53:24Z</time></trkpt>
<trkpt lat="46.49309" lon="6.73787"><ele>438.6</ele><time>2021-09-11T15:53:27Z</time></trkpt>
<trkpt lat="46.49319" lon="6.73763"><ele>437.8</ele><time>2021-09-11T15:53:30Z</time></trkpt>
<trkpt lat="46.49325" lon="6.73746"><ele>437.8</ele><time>2021-09-11T15:53:32Z</time></trkpt>
<trkpt lat="46.49331" lon="6.7372"><ele>436.8</ele><time>2021-09-11T15:53:35Z</time></trkpt>
<trkpt lat="46.49335" lon="6.7369"><ele>436.2</ele><time>2021-09-11T15:53:38Z</time></trkpt>
<trkpt lat="46.49338" lon="6.7366"><ele>436</ele><time>2021-09-11T15:53:41Z</time></trkpt>
<trkpt lat="46.49338" lon="6.7363"><ele>436.4</ele><time>2021-09-11T15:53:44Z</time></trkpt>
<trkpt lat="46.4934" lon="6.73602"><ele>436.6</ele><time>2021-09-11T15:53:47Z</time></trkpt>
<trkpt lat="46.49342" lon="6.7357"><ele>436.4</ele><time>2021-09-11T15:53:51Z</time></trkpt>
<trkpt lat="46.49342" lon="6.73547"><ele>436.2</ele><time>2021-09-11T15:53:55Z</time></trkpt>
<trkpt lat="46.49341" lon="6.73533"><ele>436.4</ele><time>2021-09-11T15:53:57Z</time></trkpt>
<trkpt lat="46.4934" lon="6.73511"><ele>436.2</ele><time>2021-09-11T15:54:00Z</time></trkpt>
<trkpt lat="46.49342" lon="6.73489"><ele>433.8</ele><time>2021-09-11T15:54:03Z</time></trkpt>
<trkpt lat="46.49354" lon="6.73459"><ele>431.8</ele><time>2021-09-11T15:54:07Z</time></trkpt>
<trkpt lat="46.49358" lon="6.73452"><ele>431.4</ele><time>2021-09-11T15:54:08Z</time></trkpt>
<trkpt lat="46.49363" lon="6.73445"><ele>431</ele><time>2021-09-11T15:54:09Z</time></trkpt>
<trkpt lat="46.49381" lon="6.73434"><ele>430.8</ele><time>2021-09-11T15:54:12Z</time></trkpt>
<trkpt lat="46.49395" lon="6.73443"><ele>430.8</ele><time>2021-09-11T15:54:15Z</time></trkpt>
<trkpt lat="46.49409" lon="6.73459"><ele>429.8</ele><time>2021-09-11T15:54:21Z</time></trkpt>
<trkpt lat="46.49415" lon="6.73465"><ele>429.8</ele><time>2021-09-11T15:54:25Z</time></trkpt>
<trkpt lat="46.4942" lon="6.73469"><ele>430.8</ele><time>2021-09-11T15:54:30Z</time></trkpt>
<trkpt lat="46.49427" lon="6.73471"><ele>432.4</ele><time>2021-09-11T15:54:36Z</time></trkpt>
<trkpt lat="46.4943" lon="6.73472"><ele>433</ele><time>2021-09-11T15:54:39Z</time></trkpt>
<trkpt lat="46.49444" lon="6.73475"><ele>438.4</ele><time>2021-09-11T15:54:52Z</time></trkpt>
<trkpt lat="46.49448" lon="6.73476"><ele>439.6</ele><time>2021-09-11T15:54:56Z</time></trkpt>
<trkpt lat="46.49449" lon="6.73476"><ele>440.2</ele><time>2021-09-11T15:54:57Z</time></trkpt>
<trkpt lat="46.49452" lon="6.73476"><ele>441.2</ele><time>2021-09-11T15:55:00Z</time></trkpt>
<trkpt lat="46.49459" lon="6.73476"><ele>443.6</ele><time>2021-09-11T15:55:07Z</time></trkpt>
<trkpt lat="46.49467" lon="6.73474"><ele>446</ele><time>2021-09-11T15:55:15Z</time></trkpt>
<trkpt lat="46.49473" lon="6.73473"><ele>447</ele><time>2021-09-11T15:55:22Z</time></trkpt>
<trkpt lat="46.49475" lon="6.73472"><ele>447.6</ele><time>2021-09-11T15:55:24Z</time></trkpt>
<trkpt lat="46.49476" lon="6.73471"><ele>448.2</ele><time>2021-09-11T15:55:26Z</time></trkpt>
<trkpt lat="46.49481" lon="6.73469"><ele>449</ele><time>2021-09-11T15:55:31Z</time></trkpt>
<trkpt lat="46.49487" lon="6.73466"><ele>450.4</ele><time>2021-09-11T15:55:38Z</time></trkpt>
<trkpt lat="46.49491" lon="6.73465"><ele>451.2</ele><time>2021-09-11T15:55:43Z</time></trkpt>
<trkpt lat="46.49509" lon="6.73457"><ele>454.8</ele><time>2021-09-11T15:56:06Z</time></trkpt>
<trkpt lat="46.49527" lon="6.73451"><ele>458.4</ele><time>2021-09-11T15:56:22Z</time></trkpt>
<trkpt lat="46.49545" lon="6.73446"><ele>461.2</ele><time>2021-09-11T15:56:39Z</time></trkpt>
<trkpt lat="46.49552" lon="6.73446"><ele>462.2</ele><time>2021-09-11T15:56:45Z</time></trkpt>
<trkpt lat="46.49562" lon="6.73444"><ele>464.4</ele><time>2021-09-11T15:56:55Z</time></trkpt>
<trkpt lat="46.4957" lon="6.73442"><ele>465.4</ele><time>2021-09-11T15:57:02Z</time></trkpt>
<trkpt lat="46.49574" lon="6.73441"><ele>466</ele><time>2021-09-11T15:57:06Z</time></trkpt>
<trkpt lat="46.49587" lon="6.73439"><ele>468.6</ele><time>2021-09-11T15:57:20Z</time></trkpt>
<trkpt lat="46.49593" lon="6.73438"><ele>469.4</ele><time>2021-09-11T15:57:26Z</time></trkpt>
<trkpt lat="46.49601" lon="6.73439"><ele>471.6</ele><time>2021-09-11T15:57:35Z</time></trkpt>
<trkpt lat="46.49607" lon="6.73438"><ele>473.8</ele><time>2021-09-11T15:57:42Z</time></trkpt>
<trkpt lat="46.49625" lon="6.73445"><ele>479.2</ele><time>2021-09-11T15:58:04Z</time></trkpt>
<trkpt lat="46.49642" lon="6.7345"><ele>482</ele><time>2021-09-11T15:58:21Z</time></trkpt>
<trkpt lat="46.49659" lon="6.73456"><ele>486.2</ele><time>2021-09-11T15:58:40Z</time></trkpt>
<trkpt lat="46.49675" lon="6.73449"><ele>489.8</ele><time>2021-09-11T15:58:56Z</time></trkpt>
<trkpt lat="46.49674" lon="6.73441"><ele>491.2</ele><time>2021-09-11T15:59:01Z</time></trkpt>
<trkpt lat="46.4967" lon="6.73435"><ele>492.2</ele><time>2021-09-11T15:59:05Z</time></trkpt>
<trkpt lat="46.49656" lon="6.73415"><ele>493.6</ele><time>2021-09-11T15:59:14Z</time></trkpt>
<trkpt lat="46.49642" lon="6.73396"><ele>494.4</ele><time>2021-09-11T15:59:20Z</time></trkpt>
<trkpt lat="46.49627" lon="6.73375"><ele>495</ele><time>2021-09-11T15:59:26Z</time></trkpt>
<trkpt lat="46.49613" lon="6.73354"><ele>495.4</ele><time>2021-09-11T15:59:31Z</time></trkpt>
<trkpt lat="46.49585" lon="6.7334"><ele>496.2</ele><time>2021-09-11T15:59:40Z</time></trkpt>
<trkpt lat="46.49571" lon="6.73337"><ele>495.4</ele><time>2021-09-11T15:59:43Z</time></trkpt>
<trkpt lat="46.49553" lon="6.73322"><ele>494.4</ele><time>2021-09-11T15:59:47Z</time></trkpt>
<trkpt lat="46.49538" lon="6.73303"><ele>494</ele><time>2021-09-11T15:59:51Z</time></trkpt>
<trkpt lat="46.49529" lon="6.73281"><ele>495</ele><time>2021-09-11T15:59:55Z</time></trkpt>
<trkpt lat="46.49518" lon="6.73256"><ele>496.8</ele><time>2021-09-11T16:00:02Z</time></trkpt>
<trkpt lat="46.49511" lon="6.73245"><ele>497.8</ele><time>2021-09-11T16:00:06Z</time></trkpt>
<trkpt lat="46.49492" lon="6.73219"><ele>501</ele><time>2021-09-11T16:00:15Z</time></trkpt>
<trkpt lat="46.49478" lon="6.732"><ele>501</ele><time>2021-09-11T16:00:21Z</time></trkpt>
<trkpt lat="46.49464" lon="6.73179"><ele>500</ele><time>2021-09-11T16:00:27Z</time></trkpt>
<trkpt lat="46.49451" lon="6.73159"><ele>499.6</ele><time>2021-09-11T16:00:32Z</time></trkpt>
<trkpt lat="46.49435" lon="6.73137"><ele>499.4</ele><time>2021-09-11T16:00:37Z</time></trkpt>
<trkpt lat="46.49421" lon="6.73116"><ele>499.6</ele><time>2021-09-11T16:00:41Z</time></trkpt>
<trkpt lat="46.49412" lon="6.73092"><ele>499.6</ele><time>2021-09-11T16:00:45Z</time></trkpt>
<trkpt lat="46.49408" lon="6.73065"><ele>499.8</ele><time>2021-09-11T16:00:49Z</time></trkpt>
<trkpt lat="46.49408" lon="6.73037"><ele>500</ele><time>2021-09-11T16:00:53Z</time></trkpt>
<trkpt lat="46.4941" lon="6.73009"><ele>499.8</ele><time>2021-09-11T16:00:57Z</time></trkpt>
<trkpt lat="46.4941" lon="6.73002"><ele>499.8</ele><time>2021-09-11T16:00:58Z</time></trkpt>
<trkpt lat="46.49407" lon="6.72975"><ele>500</ele><time>2021-09-11T16:01:02Z</time></trkpt>
<trkpt lat="46.49403" lon="6.72946"><ele>501</ele><time>2021-09-11T16:01:07Z</time></trkpt>
<trkpt lat="46.49398" lon="6.72919"><ele>503</ele><time>2021-09-11T16:01:14Z</time></trkpt>
<trkpt lat="46.49392" lon="6.72891"><ele>505.4</ele><time>2021-09-11T16:01:22Z</time></trkpt>
<trkpt lat="46.49389" lon="6.72864"><ele>506.4</ele><time>2021-09-11T16:01:30Z</time></trkpt>
<trkpt lat="46.49389" lon="6.72856"><ele>506.4</ele><time>2021-09-11T16:01:34Z</time></trkpt>
<trkpt lat="46.49389" lon="6.72852"><ele>506.6</ele><time>2021-09-11T16:01:38Z</time></trkpt>
<trkpt lat="46.49389" lon="6.72854"><ele>506.8</ele><time>2021-09-11T16:01:50Z</time></trkpt>
<trkpt lat="46.49389" lon="6.72853"><ele>507</ele><time>2021-09-11T16:01:59Z</time></trkpt>
<trkpt lat="46.49389" lon="6.7285"><ele>507.2</ele><time>2021-09-11T16:02:04Z</time></trkpt>
<trkpt lat="46.49379" lon="6.72828"><ele>506.6</ele><time>2021-09-11T16:02:10Z</time></trkpt>
<trkpt lat="46.49384" lon="6.72795"><ele>505.4</ele><time>2021-09-11T16:02:14Z</time></trkpt>
<trkpt lat="46.49401" lon="6.72776"><ele>504</ele><time>2021-09-11T16:02:17Z</time></trkpt>
<trkpt lat="46.49415" lon="6.72763"><ele>501.4</ele><time>2021-09-11T16:02:19Z</time></trkpt>
<trkpt lat="46.49436" lon="6.7274"><ele>499.2</ele><time>2021-09-11T16:02:22Z</time></trkpt>
<trkpt lat="46.49449" lon="6.72719"><ele>497.6</ele><time>2021-09-11T16:02:24Z</time></trkpt>
<trkpt lat="46.49459" lon="6.72694"><ele>496</ele><time>2021-09-11T16:02:26Z</time></trkpt>
<trkpt lat="46.49464" lon="6.72682"><ele>495.4</ele><time>2021-09-11T16:02:27Z</time></trkpt>
<trkpt lat="46.49471" lon="6.7267"><ele>494.6</ele><time>2021-09-11T16:02:28Z</time></trkpt>
<trkpt lat="46.49485" lon="6.72648"><ele>492.8</ele><time>2021-09-11T16:02:30Z</time></trkpt>
<trkpt lat="46.49498" lon="6.72629"><ele>491.6</ele><time>2021-09-11T16:02:32Z</time></trkpt>
<trkpt lat="46.49499" lon="6.726"><ele>489.8</ele><time>2021-09-11T16:02:35Z</time></trkpt>
<trkpt lat="46.49495" lon="6.72593"><ele>489</ele><time>2021-09-11T16:02:36Z</time></trkpt>
<trkpt lat="46.4948" lon="6.7258"><ele>488.4</ele><time>2021-09-11T16:02:39Z</time></trkpt>
<trkpt lat="46.49468" lon="6.7257"><ele>487.8</ele><time>2021-09-11T16:02:44Z</time></trkpt>
<trkpt lat="46.49453" lon="6.72551"><ele>487.2</ele><time>2021-09-11T16:02:49Z</time></trkpt>
<trkpt lat="46.49443" lon="6.72535"><ele>486.8</ele><time>2021-09-11T16:02:52Z</time></trkpt>
<trkpt lat="46.49435" lon="6.72502"><ele>486</ele><time>2021-09-11T16:02:56Z</time></trkpt>
<trkpt lat="46.49434" lon="6.72494"><ele>485.6</ele><time>2021-09-11T16:02:57Z</time></trkpt>
<trkpt lat="46.49433" lon="6.72465"><ele>484.6</ele><time>2021-09-11T16:03:00Z</time></trkpt>
<trkpt lat="46.49431" lon="6.72438"><ele>483.6</ele><time>2021-09-11T16:03:03Z</time></trkpt>
<trkpt lat="46.4943" lon="6.72411"><ele>483.2</ele><time>2021-09-11T16:03:06Z</time></trkpt>
<trkpt lat="46.49429" lon="6.72394"><ele>483</ele><time>2021-09-11T16:03:08Z</time></trkpt>
<trkpt lat="46.49428" lon="6.72385"><ele>483.2</ele><time>2021-09-11T16:03:09Z</time></trkpt>
<trkpt lat="46.49428" lon="6.72376"><ele>483.2</ele><time>2021-09-11T16:03:10Z</time></trkpt>
<trkpt lat="46.49426" lon="6.72348"><ele>483.6</ele><time>2021-09-11T16:03:13Z</time></trkpt>
<trkpt lat="46.49425" lon="6.72321"><ele>483.6</ele><time>2021-09-11T16:03:16Z</time></trkpt>
<trkpt lat="46.49423" lon="6.72295"><ele>483.2</ele><time>2021-09-11T16:03:19Z</time></trkpt>
<trkpt lat="46.49422" lon="6.72268"><ele>483</ele><time>2021-09-11T16:03:22Z</time></trkpt>
<trkpt lat="46.4942" lon="6.72241"><ele>482.8</ele><time>2021-09-11T16:03:25Z</time></trkpt>
<trkpt lat="46.49419" lon="6.72214"><ele>482.8</ele><time>2021-09-11T16:03:28Z</time></trkpt>
<trkpt lat="46.49418" lon="6.72187"><ele>482.6</ele><time>2021-09-11T16:03:31Z</time></trkpt>
<trkpt lat="46.49416" lon="6.7216"><ele>482.8</ele><time>2021-09-11T16:03:34Z</time></trkpt>
<trkpt lat="46.49414" lon="6.72129"><ele>483.4</ele><time>2021-09-11T16:03:38Z</time></trkpt>
<trkpt lat="46.49413" lon="6.72103"><ele>483.8</ele><time>2021-09-11T16:03:42Z</time></trkpt>
<trkpt lat="46.49412" lon="6.72076"><ele>484.6</ele><time>2021-09-11T16:03:47Z</time></trkpt>
<trkpt lat="46.49404" lon="6.72055"><ele>484.6</ele><time>2021-09-11T16:03:52Z</time></trkpt>
<trkpt lat="46.49402" lon="6.72031"><ele>484.2</ele><time>2021-09-11T16:03:56Z</time></trkpt>
<trkpt lat="46.49402" lon="6.72008"><ele>483.8</ele><time>2021-09-11T16:03:59Z</time></trkpt>
<trkpt lat="46.49394" lon="6.71983"><ele>483.4</ele><time>2021-09-11T16:04:02Z</time></trkpt>
<trkpt lat="46.49383" lon="6.71954"><ele>482.6</ele><time>2021-09-11T16:04:05Z</time></trkpt>
<trkpt lat="46.49374" lon="6.7192"><ele>480.8</ele><time>2021-09-11T16:04:08Z</time></trkpt>
<trkpt lat="46.49372" lon="6.71896"><ele>480.8</ele><time>2021-09-11T16:04:10Z</time></trkpt>
<trkpt lat="46.49373" lon="6.71864"><ele>480.4</ele><time>2021-09-11T16:04:13Z</time></trkpt>
<trkpt lat="46.49374" lon="6.71839"><ele>480.8</ele><time>2021-09-11T16:04:16Z</time></trkpt>
<trkpt lat="46.49376" lon="6.71806"><ele>480.8</ele><time>2021-09-11T16:04:20Z</time></trkpt>
<trkpt lat="46.49376" lon="6.71799"><ele>480.8</ele><time>2021-09-11T16:04:21Z</time></trkpt>
<trkpt lat="46.49377" lon="6.7177"><ele>482</ele><time>2021-09-11T16:04:26Z</time></trkpt>
<trkpt lat="46.49378" lon="6.71762"><ele>482.6</ele><time>2021-09-11T16:04:29Z</time></trkpt>
<trkpt lat="46.49382" lon="6.71743"><ele>483.6</ele><time>2021-09-11T16:04:35Z</time></trkpt>
<trkpt lat="46.49384" lon="6.71724"><ele>485.4</ele><time>2021-09-11T16:04:41Z</time></trkpt>
<trkpt lat="46.49385" lon="6.71722"><ele>486.4</ele><time>2021-09-11T16:04:46Z</time></trkpt>
<trkpt lat="46.49385" lon="6.71723"><ele>487</ele><time>2021-09-11T16:04:48Z</time></trkpt>
<trkpt lat="46.49383" lon="6.71724"><ele>487.8</ele><time>2021-09-11T16:04:53Z</time></trkpt>
<trkpt lat="46.49379" lon="6.71724"><ele>488.4</ele><time>2021-09-11T16:05:05Z</time></trkpt>
<trkpt lat="46.49382" lon="6.71699"><ele>487.8</ele><time>2021-09-11T16:05:22Z</time></trkpt>
<trkpt lat="46.49382" lon="6.71694"><ele>487.2</ele><time>2021-09-11T16:05:23Z</time></trkpt>
<trkpt lat="46.49375" lon="6.71679"><ele>486.4</ele><time>2021-09-11T16:05:27Z</time></trkpt>
<trkpt lat="46.49358" lon="6.71663"><ele>486.6</ele><time>2021-09-11T16:05:34Z</time></trkpt>
<trkpt lat="46.49352" lon="6.71653"><ele>487</ele><time>2021-09-11T16:05:39Z</time></trkpt>
<trkpt lat="46.49353" lon="6.71645"><ele>487</ele><time>2021-09-11T16:05:41Z</time></trkpt>
<trkpt lat="46.49364" lon="6.71623"><ele>486</ele><time>2021-09-11T16:05:46Z</time></trkpt>
<trkpt lat="46.49378" lon="6.71603"><ele>484.8</ele><time>2021-09-11T16:05:51Z</time></trkpt>
<trkpt lat="46.49394" lon="6.71592"><ele>484</ele><time>2021-09-11T16:05:56Z</time></trkpt>
<trkpt lat="46.49403" lon="6.71589"><ele>483</ele><time>2021-09-11T16:06:01Z</time></trkpt>
<trkpt lat="46.49415" lon="6.71587"><ele>486</ele><time>2021-09-11T16:06:07Z</time></trkpt>
<trkpt lat="46.49421" lon="6.71589"><ele>488.4</ele><time>2021-09-11T16:06:12Z</time></trkpt>
<trkpt lat="46.49436" lon="6.71564"><ele>486.8</ele><time>2021-09-11T16:06:17Z</time></trkpt>
<trkpt lat="46.4944" lon="6.71559"><ele>487.2</ele><time>2021-09-11T16:06:18Z</time></trkpt>
<trkpt lat="46.49453" lon="6.71544"><ele>487.2</ele><time>2021-09-11T16:06:21Z</time></trkpt>
<trkpt lat="46.49476" lon="6.71515"><ele>488.8</ele><time>2021-09-11T16:06:28Z</time></trkpt>
<trkpt lat="46.49492" lon="6.715"><ele>491.6</ele><time>2021-09-11T16:06:34Z</time></trkpt>
<trkpt lat="46.4951" lon="6.71488"><ele>493.4</ele><time>2021-09-11T16:06:40Z</time></trkpt>
<trkpt lat="46.49518" lon="6.71484"><ele>493</ele><time>2021-09-11T16:06:45Z</time></trkpt>
<trkpt lat="46.49518" lon="6.71463"><ele>492.2</ele><time>2021-09-11T16:06:50Z</time></trkpt>
<trkpt lat="46.49517" lon="6.71432"><ele>491.4</ele><time>2021-09-11T16:06:54Z</time></trkpt>
<trkpt lat="46.49515" lon="6.71403"><ele>490</ele><time>2021-09-11T16:06:57Z</time></trkpt>
<trkpt lat="46.49513" lon="6.71369"><ele>488</ele><time>2021-09-11T16:07:00Z</time></trkpt>
<trkpt lat="46.49512" lon="6.71332"><ele>486</ele><time>2021-09-11T16:07:03Z</time></trkpt>
<trkpt lat="46.49512" lon="6.71305"><ele>484.6</ele><time>2021-09-11T16:07:05Z</time></trkpt>
<trkpt lat="46.49517" lon="6.71278"><ele>483.4</ele><time>2021-09-11T16:07:07Z</time></trkpt>
<trkpt lat="46.49526" lon="6.71255"><ele>482.2</ele><time>2021-09-11T16:07:09Z</time></trkpt>
<trkpt lat="46.49539" lon="6.71235"><ele>481.2</ele><time>2021-09-11T16:07:11Z</time></trkpt>
<trkpt lat="46.49545" lon="6.71226"><ele>480.6</ele><time>2021-09-11T16:07:12Z</time></trkpt>
<trkpt lat="46.49569" lon="6.7121"><ele>478.8</ele><time>2021-09-11T16:07:15Z</time></trkpt>
<trkpt lat="46.49587" lon="6.71206"><ele>477.8</ele><time>2021-09-11T16:07:17Z</time></trkpt>
<trkpt lat="46.49605" lon="6.71207"><ele>476.8</ele><time>2021-09-11T16:07:19Z</time></trkpt>
<trkpt lat="46.49624" lon="6.71207"><ele>475.2</ele><time>2021-09-11T16:07:21Z</time></trkpt>
<trkpt lat="46.49634" lon="6.71206"><ele>474.6</ele><time>2021-09-11T16:07:22Z</time></trkpt>
<trkpt lat="46.49653" lon="6.71198"><ele>473.6</ele><time>2021-09-11T16:07:24Z</time></trkpt>
<trkpt lat="46.49662" lon="6.71192"><ele>473</ele><time>2021-09-11T16:07:25Z</time></trkpt>
<trkpt lat="46.49678" lon="6.71176"><ele>471.8</ele><time>2021-09-11T16:07:27Z</time></trkpt>
<trkpt lat="46.49692" lon="6.71159"><ele>470.8</ele><time>2021-09-11T16:07:29Z</time></trkpt>
<trkpt lat="46.49707" lon="6.71143"><ele>469.8</ele><time>2021-09-11T16:07:31Z</time></trkpt>
<trkpt lat="46.49728" lon="6.71119"><ele>468.8</ele><time>2021-09-11T16:07:34Z</time></trkpt>
<trkpt lat="46.49741" lon="6.71103"><ele>468</ele><time>2021-09-11T16:07:36Z</time></trkpt>
<trkpt lat="46.49757" lon="6.71085"><ele>467.2</ele><time>2021-09-11T16:07:39Z</time></trkpt>
<trkpt lat="46.49771" lon="6.71067"><ele>466.6</ele><time>2021-09-11T16:07:42Z</time></trkpt>
<trkpt lat="46.49786" lon="6.71049"><ele>465.6</ele><time>2021-09-11T16:07:45Z</time></trkpt>
<trkpt lat="46.49803" lon="6.71033"><ele>465.4</ele><time>2021-09-11T16:07:48Z</time></trkpt>
<trkpt lat="46.49808" lon="6.71028"><ele>465</ele><time>2021-09-11T16:07:49Z</time></trkpt>
<trkpt lat="46.49824" lon="6.7101"><ele>464.6</ele><time>2021-09-11T16:07:52Z</time></trkpt>
<trkpt lat="46.49839" lon="6.70991"><ele>464</ele><time>2021-09-11T16:07:55Z</time></trkpt>
<trkpt lat="46.49852" lon="6.70968"><ele>463.2</ele><time>2021-09-11T16:07:58Z</time></trkpt>
<trkpt lat="46.4986" lon="6.70942"><ele>462.8</ele><time>2021-09-11T16:08:01Z</time></trkpt>
<trkpt lat="46.49869" lon="6.70918"><ele>462.4</ele><time>2021-09-11T16:08:04Z</time></trkpt>
<trkpt lat="46.49876" lon="6.70894"><ele>461.8</ele><time>2021-09-11T16:08:07Z</time></trkpt>
<trkpt lat="46.49881" lon="6.70878"><ele>461.6</ele><time>2021-09-11T16:08:09Z</time></trkpt>
<trkpt lat="46.49886" lon="6.70854"><ele>463</ele><time>2021-09-11T16:08:12Z</time></trkpt>
<trkpt lat="46.49885" lon="6.70826"><ele>463</ele><time>2021-09-11T16:08:15Z</time></trkpt>
<trkpt lat="46.49884" lon="6.70816"><ele>463</ele><time>2021-09-11T16:08:16Z</time></trkpt>
<trkpt lat="46.49879" lon="6.70786"><ele>462.6</ele><time>2021-09-11T16:08:19Z</time></trkpt>
<trkpt lat="46.49872" lon="6.70756"><ele>460.4</ele><time>2021-09-11T16:08:22Z</time></trkpt>
<trkpt lat="46.49865" lon="6.70726"><ele>459</ele><time>2021-09-11T16:08:25Z</time></trkpt>
<trkpt lat="46.49857" lon="6.70696"><ele>458</ele><time>2021-09-11T16:08:29Z</time></trkpt>
<trkpt lat="46.49855" lon="6.70686"><ele>458.2</ele><time>2021-09-11T16:08:31Z</time></trkpt>
<trkpt lat="46.49857" lon="6.70665"><ele>460.2</ele><time>2021-09-11T16:08:37Z</time></trkpt>
<trkpt lat="46.49859" lon="6.70662"><ele>460.6</ele><time>2021-09-11T16:08:38Z</time></trkpt>
<trkpt lat="46.49868" lon="6.70647"><ele>463</ele><time>2021-09-11T16:08:43Z</time></trkpt>
<trkpt lat="46.49869" lon="6.70644"><ele>463.4</ele><time>2021-09-11T16:08:44Z</time></trkpt>
<trkpt lat="46.49877" lon="6.70629"><ele>465</ele><time>2021-09-11T16:08:48Z</time></trkpt>
<trkpt lat="46.49879" lon="6.70625"><ele>465.2</ele><time>2021-09-11T16:08:49Z</time></trkpt>
<trkpt lat="46.49882" lon="6.70618"><ele>466</ele><time>2021-09-11T16:08:51Z</time></trkpt>
<trkpt lat="46.49894" lon="6.70594"><ele>468.6</ele><time>2021-09-11T16:08:58Z</time></trkpt>
<trkpt lat="46.49905" lon="6.70572"><ele>469.6</ele><time>2021-09-11T16:09:02Z</time></trkpt>
<trkpt lat="46.49912" lon="6.70558"><ele>470.2</ele><time>2021-09-11T16:09:04Z</time></trkpt>
<trkpt lat="46.4992" lon="6.70543"><ele>469.2</ele><time>2021-09-11T16:09:06Z</time></trkpt>
<trkpt lat="46.49932" lon="6.70519"><ele>467.8</ele><time>2021-09-11T16:09:09Z</time></trkpt>
<trkpt lat="46.49936" lon="6.7051"><ele>467</ele><time>2021-09-11T16:09:10Z</time></trkpt>
<trkpt lat="46.49947" lon="6.70481"><ele>465.6</ele><time>2021-09-11T16:09:13Z</time></trkpt>
<trkpt lat="46.49962" lon="6.70459"><ele>466.8</ele><time>2021-09-11T16:09:16Z</time></trkpt>
<trkpt lat="46.49976" lon="6.70441"><ele>466.2</ele><time>2021-09-11T16:09:19Z</time></trkpt>
<trkpt lat="46.4998" lon="6.70435"><ele>465.8</ele><time>2021-09-11T16:09:20Z</time></trkpt>
<trkpt lat="46.49989" lon="6.70411"><ele>464.6</ele><time>2021-09-11T16:09:23Z</time></trkpt>
<trkpt lat="46.4999" lon="6.70382"><ele>463.8</ele><time>2021-09-11T16:09:26Z</time></trkpt>
<trkpt lat="46.49989" lon="6.70373"><ele>463.4</ele><time>2021-09-11T16:09:27Z</time></trkpt>
<trkpt lat="46.49987" lon="6.70344"><ele>463</ele><time>2021-09-11T16:09:30Z</time></trkpt>
<trkpt lat="46.49995" lon="6.70315"><ele>465</ele><time>2021-09-11T16:09:34Z</time></trkpt>
<trkpt lat="46.50002" lon="6.70309"><ele>466.4</ele><time>2021-09-11T16:09:37Z</time></trkpt>
<trkpt lat="46.50007" lon="6.7031"><ele>467.6</ele><time>2021-09-11T16:09:40Z</time></trkpt>
<trkpt lat="46.50011" lon="6.70313"><ele>468</ele><time>2021-09-11T16:09:42Z</time></trkpt>
<trkpt lat="46.5003" lon="6.70316"><ele>470.2</ele><time>2021-09-11T16:09:50Z</time></trkpt>
<trkpt lat="46.50037" lon="6.70306"><ele>470.8</ele><time>2021-09-11T16:09:53Z</time></trkpt>
<trkpt lat="46.50046" lon="6.70289"><ele>471</ele><time>2021-09-11T16:09:57Z</time></trkpt>
<trkpt lat="46.50052" lon="6.7028"><ele>471.2</ele><time>2021-09-11T16:09:59Z</time></trkpt>
<trkpt lat="46.50059" lon="6.70271"><ele>471.4</ele><time>2021-09-11T16:10:01Z</time></trkpt>
<trkpt lat="46.50075" lon="6.70255"><ele>471.4</ele><time>2021-09-11T16:10:05Z</time></trkpt>
<trkpt lat="46.50091" lon="6.70239"><ele>471.6</ele><time>2021-09-11T16:10:09Z</time></trkpt>
<trkpt lat="46.50105" lon="6.70228"><ele>471.6</ele><time>2021-09-11T16:10:13Z</time></trkpt>
<trkpt lat="46.50116" lon="6.70235"><ele>472</ele><time>2021-09-11T16:10:18Z</time></trkpt>
<trkpt lat="46.50118" lon="6.70237"><ele>471.8</ele><time>2021-09-11T16:10:20Z</time></trkpt>
<trkpt lat="46.50141" lon="6.70207"><ele>470.2</ele><time>2021-09-11T16:10:30Z</time></trkpt>
<trkpt lat="46.50148" lon="6.70197"><ele>469.8</ele><time>2021-09-11T16:10:32Z</time></trkpt>
<trkpt lat="46.50165" lon="6.70181"><ele>467</ele><time>2021-09-11T16:10:37Z</time></trkpt>
<trkpt lat="46.50179" lon="6.70161"><ele>464.8</ele><time>2021-09-11T16:10:41Z</time></trkpt>
<trkpt lat="46.5019" lon="6.70133"><ele>457</ele><time>2021-09-11T16:10:45Z</time></trkpt>
<trkpt lat="46.50193" lon="6.70125"><ele>456.2</ele><time>2021-09-11T16:10:46Z</time></trkpt>
<trkpt lat="46.50206" lon="6.70106"><ele>453.4</ele><time>2021-09-11T16:10:49Z</time></trkpt>
<trkpt lat="46.50222" lon="6.70086"><ele>449.6</ele><time>2021-09-11T16:10:53Z</time></trkpt>
<trkpt lat="46.50237" lon="6.7007"><ele>445.4</ele><time>2021-09-11T16:10:56Z</time></trkpt>
<trkpt lat="46.50253" lon="6.70055"><ele>443</ele><time>2021-09-11T16:10:59Z</time></trkpt>
<trkpt lat="46.50265" lon="6.70033"><ele>440.4</ele><time>2021-09-11T16:11:03Z</time></trkpt>
<trkpt lat="46.50268" lon="6.70026"><ele>439.4</ele><time>2021-09-11T16:11:04Z</time></trkpt>
<trkpt lat="46.50272" lon="6.70019"><ele>438.2</ele><time>2021-09-11T16:11:05Z</time></trkpt>
<trkpt lat="46.50286" lon="6.69999"><ele>433.8</ele><time>2021-09-11T16:11:09Z</time></trkpt>
<trkpt lat="46.50299" lon="6.69998"><ele>430.6</ele><time>2021-09-11T16:11:12Z</time></trkpt>
<trkpt lat="46.5031" lon="6.70008"><ele>428.4</ele><time>2021-09-11T16:11:14Z</time></trkpt>
<trkpt lat="46.50315" lon="6.70009"><ele>427.6</ele><time>2021-09-11T16:11:15Z</time></trkpt>
<trkpt lat="46.50327" lon="6.69991"><ele>423.8</ele><time>2021-09-11T16:11:19Z</time></trkpt>
<trkpt lat="46.50321" lon="6.69967"><ele>420.6</ele><time>2021-09-11T16:11:22Z</time></trkpt>
<trkpt lat="46.50319" lon="6.69958"><ele>419.6</ele><time>2021-09-11T16:11:23Z</time></trkpt>
<trkpt lat="46.50318" lon="6.69926"><ele>415.8</ele><time>2021-09-11T16:11:27Z</time></trkpt>
<trkpt lat="46.50319" lon="6.69916"><ele>414</ele><time>2021-09-11T16:11:29Z</time></trkpt>
<trkpt lat="46.50328" lon="6.69904"><ele>412</ele><time>2021-09-11T16:11:35Z</time></trkpt>
<trkpt lat="46.50334" lon="6.69898"><ele>410.6</ele><time>2021-09-11T16:11:40Z</time></trkpt>
<trkpt lat="46.50337" lon="6.69895"><ele>410</ele><time>2021-09-11T16:11:43Z</time></trkpt>
<trkpt lat="46.5034" lon="6.69892"><ele>410</ele><time>2021-09-11T16:11:46Z</time></trkpt>
<trkpt lat="46.50341" lon="6.69891"><ele>409.8</ele><time>2021-09-11T16:11:47Z</time></trkpt>
<trkpt lat="46.50347" lon="6.6989"><ele>410.2</ele><time>2021-09-11T16:11:52Z</time></trkpt>
<trkpt lat="46.50348" lon="6.69889"><ele>410.4</ele><time>2021-09-11T16:11:53Z</time></trkpt>
<trkpt lat="46.50352" lon="6.69884"><ele>410.8</ele><time>2021-09-11T16:11:58Z</time></trkpt>
<trkpt lat="46.50358" lon="6.69879"><ele>411.6</ele><time>2021-09-11T16:12:04Z</time></trkpt>
<trkpt lat="46.50368" lon="6.69877"><ele>413.8</ele><time>2021-09-11T16:12:11Z</time></trkpt>
<trkpt lat="46.50375" lon="6.69874"><ele>415.6</ele><time>2021-09-11T16:12:16Z</time></trkpt>
<trkpt lat="46.50386" lon="6.69868"><ele>418.6</ele><time>2021-09-11T16:12:24Z</time></trkpt>
<trkpt lat="46.50387" lon="6.69869"><ele>419.4</ele><time>2021-09-11T16:12:25Z</time></trkpt>
<trkpt lat="46.50389" lon="6.69869"><ele>420.6</ele><time>2021-09-11T16:12:27Z</time></trkpt>
<trkpt lat="46.50407" lon="6.69862"><ele>432</ele><time>2021-09-11T16:12:41Z</time></trkpt>
<trkpt lat="46.50424" lon="6.69857"><ele>435.4</ele><time>2021-09-11T16:12:55Z</time></trkpt>
<trkpt lat="46.50443" lon="6.69851"><ele>438.4</ele><time>2021-09-11T16:13:10Z</time></trkpt>
<trkpt lat="46.50459" lon="6.69833"><ele>439.2</ele><time>2021-09-11T16:13:19Z</time></trkpt>
<trkpt lat="46.50474" lon="6.6981"><ele>438.8</ele><time>2021-09-11T16:13:24Z</time></trkpt>
<trkpt lat="46.50477" lon="6.69806"><ele>438.8</ele><time>2021-09-11T16:13:25Z</time></trkpt>
<trkpt lat="46.50489" lon="6.69785"><ele>438.6</ele><time>2021-09-11T16:13:30Z</time></trkpt>
<trkpt lat="46.50497" lon="6.6976"><ele>439.2</ele><time>2021-09-11T16:13:37Z</time></trkpt>
<trkpt lat="46.50498" lon="6.69731"><ele>440.2</ele><time>2021-09-11T16:13:49Z</time></trkpt>
<trkpt lat="46.50503" lon="6.6972"><ele>440</ele><time>2021-09-11T16:13:54Z</time></trkpt>
<trkpt lat="46.50512" lon="6.69723"><ele>440.4</ele><time>2021-09-11T16:13:58Z</time></trkpt>
<trkpt lat="46.5052" lon="6.69726"><ele>442</ele><time>2021-09-11T16:14:03Z</time></trkpt>
<trkpt lat="46.50525" lon="6.69718"><ele>442.4</ele><time>2021-09-11T16:14:07Z</time></trkpt>
<trkpt lat="46.50529" lon="6.6971"><ele>442</ele><time>2021-09-11T16:14:11Z</time></trkpt>
<trkpt lat="46.50543" lon="6.69719"><ele>441.8</ele><time>2021-09-11T16:14:18Z</time></trkpt>
<trkpt lat="46.50562" lon="6.69722"><ele>442.6</ele><time>2021-09-11T16:14:25Z</time></trkpt>
<trkpt lat="46.5058" lon="6.69715"><ele>441.8</ele><time>2021-09-11T16:14:30Z</time></trkpt>
<trkpt lat="46.50589" lon="6.69707"><ele>442.2</ele><time>2021-09-11T16:14:35Z</time></trkpt>
<trkpt lat="46.50597" lon="6.69686"><ele>444.2</ele><time>2021-09-11T16:15:10Z</time></trkpt>
<trkpt lat="46.506" lon="6.69659"><ele>446.2</ele><time>2021-09-11T16:15:30Z</time></trkpt>
<trkpt lat="46.50601" lon="6.69659"><ele>446.2</ele><time>2021-09-11T16:15:31Z</time></trkpt>
<trkpt lat="46.50616" lon="6.69657"><ele>448.4</ele><time>2021-09-11T16:15:48Z</time></trkpt>
<trkpt lat="46.5063" lon="6.69661"><ele>451.4</ele><time>2021-09-11T16:15:58Z</time></trkpt>
<trkpt lat="46.50648" lon="6.69664"><ele>454.6</ele><time>2021-09-11T16:16:13Z</time></trkpt>
<trkpt lat="46.50665" lon="6.69662"><ele>459</ele><time>2021-09-11T16:16:26Z</time></trkpt>
<trkpt lat="46.50671" lon="6.69638"><ele>460.8</ele><time>2021-09-11T16:16:35Z</time></trkpt>
<trkpt lat="46.50681" lon="6.69616"><ele>462</ele><time>2021-09-11T16:16:43Z</time></trkpt>
<trkpt lat="46.50692" lon="6.69593"><ele>462.8</ele><time>2021-09-11T16:16:52Z</time></trkpt>
<trkpt lat="46.50705" lon="6.69572"><ele>464.4</ele><time>2021-09-11T16:17:00Z</time></trkpt>
<trkpt lat="46.50715" lon="6.69559"><ele>464.4</ele><time>2021-09-11T16:17:05Z</time></trkpt>
<trkpt lat="46.5073" lon="6.69539"><ele>464.6</ele><time>2021-09-11T16:17:12Z</time></trkpt>
<trkpt lat="46.50746" lon="6.69521"><ele>463.8</ele><time>2021-09-11T16:17:19Z</time></trkpt>
<trkpt lat="46.50757" lon="6.69509"><ele>463.6</ele><time>2021-09-11T16:17:24Z</time></trkpt>
<trkpt lat="46.50762" lon="6.69504"><ele>463.6</ele><time>2021-09-11T16:17:28Z</time></trkpt>
<trkpt lat="46.50767" lon="6.69501"><ele>464.2</ele><time>2021-09-11T16:17:30Z</time></trkpt>
<trkpt lat="46.50787" lon="6.69499"><ele>465.4</ele><time>2021-09-11T16:17:38Z</time></trkpt>
<trkpt lat="46.50805" lon="6.69498"><ele>468.8</ele><time>2021-09-11T16:17:46Z</time></trkpt>
<trkpt lat="46.50816" lon="6.69495"><ele>471.8</ele><time>2021-09-11T16:17:52Z</time></trkpt>
<trkpt lat="46.50821" lon="6.69477"><ele>476</ele><time>2021-09-11T16:17:57Z</time></trkpt>
<trkpt lat="46.50831" lon="6.69454"><ele>477.4</ele><time>2021-09-11T16:18:03Z</time></trkpt>
<trkpt lat="46.50842" lon="6.69431"><ele>477</ele><time>2021-09-11T16:18:08Z</time></trkpt>
<trkpt lat="46.50852" lon="6.69408"><ele>476.4</ele><time>2021-09-11T16:18:13Z</time></trkpt>
<trkpt lat="46.50856" lon="6.69398"><ele>475.8</ele><time>2021-09-11T16:18:15Z</time></trkpt>
<trkpt lat="46.50867" lon="6.69375"><ele>474</ele><time>2021-09-11T16:18:20Z</time></trkpt>
<trkpt lat="46.5088" lon="6.69352"><ele>473.6</ele><time>2021-09-11T16:18:25Z</time></trkpt>
<trkpt lat="46.50887" lon="6.69342"><ele>473</ele><time>2021-09-11T16:18:28Z</time></trkpt>
<trkpt lat="46.50925" lon="6.6931"><ele>479.2</ele><time>2021-09-11T16:18:45Z</time></trkpt>
<trkpt lat="46.50941" lon="6.69291"><ele>479.8</ele><time>2021-09-11T16:18:53Z</time></trkpt>
<trkpt lat="46.50945" lon="6.69287"><ele>479.8</ele><time>2021-09-11T16:18:55Z</time></trkpt>
<trkpt lat="46.50954" lon="6.6928"><ele>479.6</ele><time>2021-09-11T16:18:58Z</time></trkpt>
<trkpt lat="46.50969" lon="6.69268"><ele>478.4</ele><time>2021-09-11T16:19:09Z</time></trkpt>
<trkpt lat="46.50975" lon="6.69284"><ele>476.6</ele><time>2021-09-11T16:19:21Z</time></trkpt>
<trkpt lat="46.50985" lon="6.69282"><ele>475</ele><time>2021-09-11T16:19:34Z</time></trkpt>
<trkpt lat="46.50989" lon="6.69281"><ele>474.2</ele><time>2021-09-11T16:19:39Z</time></trkpt>
<trkpt lat="46.50993" lon="6.69281"><ele>473.6</ele><time>2021-09-11T16:19:42Z</time></trkpt>
<trkpt lat="46.51011" lon="6.69278"><ele>471</ele><time>2021-09-11T16:19:57Z</time></trkpt>
<trkpt lat="46.5102" lon="6.69268"><ele>468</ele><time>2021-09-11T16:20:09Z</time></trkpt>
<trkpt lat="46.51027" lon="6.6925"><ele>464.4</ele><time>2021-09-11T16:20:24Z</time></trkpt>
<trkpt lat="46.5103" lon="6.69247"><ele>462.8</ele><time>2021-09-11T16:20:31Z</time></trkpt>
<trkpt lat="46.51035" lon="6.69241"><ele>461.6</ele><time>2021-09-11T16:20:40Z</time></trkpt>
<trkpt lat="46.51037" lon="6.69238"><ele>461.2</ele><time>2021-09-11T16:20:43Z</time></trkpt>
<trkpt lat="46.51041" lon="6.6923"><ele>460.6</ele><time>2021-09-11T16:20:51Z</time></trkpt>
<trkpt lat="46.51041" lon="6.6921"><ele>459.8</ele><time>2021-09-11T16:21:06Z</time></trkpt>
<trkpt lat="46.51049" lon="6.69193"><ele>458.8</ele><time>2021-09-11T16:21:27Z</time></trkpt>
<trkpt lat="46.51067" lon="6.69184"><ele>460.2</ele><time>2021-09-11T16:21:59Z</time></trkpt>
<trkpt lat="46.51073" lon="6.69179"><ele>460.8</ele><time>2021-09-11T16:22:10Z</time></trkpt>
<trkpt lat="46.51071" lon="6.69157"><ele>463.2</ele><time>2021-09-11T16:22:27Z</time></trkpt>
<trkpt lat="46.51067" lon="6.69152"><ele>463.4</ele><time>2021-09-11T16:22:28Z</time></trkpt>
<trkpt lat="46.51052" lon="6.69136"><ele>463.4</ele><time>2021-09-11T16:22:31Z</time></trkpt>
<trkpt lat="46.51033" lon="6.69115"><ele>461.6</ele><time>2021-09-11T16:22:34Z</time></trkpt>
<trkpt lat="46.51012" lon="6.69091"><ele>460.4</ele><time>2021-09-11T16:22:37Z</time></trkpt>
<trkpt lat="46.51005" lon="6.69083"><ele>460.2</ele><time>2021-09-11T16:22:38Z</time></trkpt>
<trkpt lat="46.5099" lon="6.69067"><ele>459.6</ele><time>2021-09-11T16:22:40Z</time></trkpt>
<trkpt lat="46.50984" lon="6.69058"><ele>459.6</ele><time>2021-09-11T16:22:41Z</time></trkpt>
<trkpt lat="46.50975" lon="6.69026"><ele>458.6</ele><time>2021-09-11T16:22:44Z</time></trkpt>
<trkpt lat="46.50974" lon="6.69015"><ele>458.2</ele><time>2021-09-11T16:22:45Z</time></trkpt>
<trkpt lat="46.50974" lon="6.69004"><ele>457.8</ele><time>2021-09-11T16:22:46Z</time></trkpt>
<trkpt lat="46.50973" lon="6.68995"><ele>457.2</ele><time>2021-09-11T16:22:47Z</time></trkpt>
<trkpt lat="46.50971" lon="6.68985"><ele>456.8</ele><time>2021-09-11T16:22:48Z</time></trkpt>
<trkpt lat="46.50959" lon="6.6896"><ele>455.6</ele><time>2021-09-11T16:22:51Z</time></trkpt>
<trkpt lat="46.50954" lon="6.68954"><ele>455.2</ele><time>2021-09-11T16:22:52Z</time></trkpt>
<trkpt lat="46.50944" lon="6.68942"><ele>454.4</ele><time>2021-09-11T16:22:54Z</time></trkpt>
<trkpt lat="46.50934" lon="6.68914"><ele>452.4</ele><time>2021-09-11T16:22:58Z</time></trkpt>
<trkpt lat="46.50938" lon="6.68889"><ele>451.6</ele><time>2021-09-11T16:23:01Z</time></trkpt>
<trkpt lat="46.50943" lon="6.6886"><ele>451.2</ele><time>2021-09-11T16:23:04Z</time></trkpt>
<trkpt lat="46.50948" lon="6.68829"><ele>450.6</ele><time>2021-09-11T16:23:07Z</time></trkpt>
<trkpt lat="46.50951" lon="6.68819"><ele>450.2</ele><time>2021-09-11T16:23:08Z</time></trkpt>
<trkpt lat="46.50963" lon="6.68791"><ele>450.2</ele><time>2021-09-11T16:23:11Z</time></trkpt>
<trkpt lat="46.50966" lon="6.6876"><ele>449.6</ele><time>2021-09-11T16:23:14Z</time></trkpt>
<trkpt lat="46.50967" lon="6.6873"><ele>448.4</ele><time>2021-09-11T16:23:17Z</time></trkpt>
<trkpt lat="46.50968" lon="6.68704"><ele>448</ele><time>2021-09-11T16:23:20Z</time></trkpt>
<trkpt lat="46.50967" lon="6.68697"><ele>447.4</ele><time>2021-09-11T16:23:21Z</time></trkpt>
<trkpt lat="46.5096" lon="6.68673"><ele>446.6</ele><time>2021-09-11T16:23:25Z</time></trkpt>
<trkpt lat="46.50954" lon="6.68652"><ele>446.2</ele><time>2021-09-11T16:23:28Z</time></trkpt>
<trkpt lat="46.50953" lon="6.68628"><ele>446.2</ele><time>2021-09-11T16:23:31Z</time></trkpt>
<trkpt lat="46.50954" lon="6.686"><ele>445.6</ele><time>2021-09-11T16:23:34Z</time></trkpt>
<trkpt lat="46.50953" lon="6.68571"><ele>444.6</ele><time>2021-09-11T16:23:37Z</time></trkpt>
<trkpt lat="46.50944" lon="6.68542"><ele>445.2</ele><time>2021-09-11T16:23:40Z</time></trkpt>
<trkpt lat="46.50934" lon="6.68512"><ele>445.4</ele><time>2021-09-11T16:23:43Z</time></trkpt>
<trkpt lat="46.50926" lon="6.68481"><ele>443.8</ele><time>2021-09-11T16:23:46Z</time></trkpt>
<trkpt lat="46.50917" lon="6.68447"><ele>443.2</ele><time>2021-09-11T16:23:49Z</time></trkpt>
<trkpt lat="46.50909" lon="6.68412"><ele>441.8</ele><time>2021-09-11T16:23:52Z</time></trkpt>
<trkpt lat="46.50903" lon="6.68374"><ele>440.6</ele><time>2021-09-11T16:23:55Z</time></trkpt>
<trkpt lat="46.50899" lon="6.6834"><ele>439.4</ele><time>2021-09-11T16:23:58Z</time></trkpt>
<trkpt lat="46.50895" lon="6.68309"><ele>438.6</ele><time>2021-09-11T16:24:01Z</time></trkpt>
<trkpt lat="46.50892" lon="6.68281"><ele>437.6</ele><time>2021-09-11T16:24:06Z</time></trkpt>
<trkpt lat="46.50875" lon="6.68281"><ele>436.4</ele><time>2021-09-11T16:24:11Z</time></trkpt>
<trkpt lat="46.5086" lon="6.6829"><ele>435.8</ele><time>2021-09-11T16:24:13Z</time></trkpt>
<trkpt lat="46.50842" lon="6.68299"><ele>434.4</ele><time>2021-09-11T16:24:15Z</time></trkpt>
<trkpt lat="46.50824" lon="6.68306"><ele>433</ele><time>2021-09-11T16:24:17Z</time></trkpt>
<trkpt lat="46.50809" lon="6.6831"><ele>430.8</ele><time>2021-09-11T16:24:19Z</time></trkpt>
<trkpt lat="46.50798" lon="6.68305"><ele>429.6</ele><time>2021-09-11T16:24:21Z</time></trkpt>
<trkpt lat="46.50792" lon="6.68281"><ele>429.2</ele><time>2021-09-11T16:24:25Z</time></trkpt>
<trkpt lat="46.50788" lon="6.68251"><ele>431</ele><time>2021-09-11T16:24:31Z</time></trkpt>
<trkpt lat="46.50787" lon="6.68242"><ele>431.4</ele><time>2021-09-11T16:24:33Z</time></trkpt>
<trkpt lat="46.50786" lon="6.68232"><ele>432</ele><time>2021-09-11T16:24:35Z</time></trkpt>
<trkpt lat="46.50784" lon="6.68218"><ele>432.8</ele><time>2021-09-11T16:24:38Z</time></trkpt>
<trkpt lat="46.50782" lon="6.68193"><ele>433.8</ele><time>2021-09-11T16:24:43Z</time></trkpt>
<trkpt lat="46.50778" lon="6.68141"><ele>434.8</ele><time>2021-09-11T16:24:52Z</time></trkpt>
<trkpt lat="46.50777" lon="6.68129"><ele>435.2</ele><time>2021-09-11T16:24:54Z</time></trkpt>
<trkpt lat="46.50775" lon="6.68103"><ele>436</ele><time>2021-09-11T16:24:58Z</time></trkpt>
<trkpt lat="46.50775" lon="6.68072"><ele>436</ele><time>2021-09-11T16:25:03Z</time></trkpt>
<trkpt lat="46.50773" lon="6.68041"><ele>435.8</ele><time>2021-09-11T16:25:08Z</time></trkpt>
<trkpt lat="46.50772" lon="6.68024"><ele>434.6</ele><time>2021-09-11T16:25:11Z</time></trkpt>
<trkpt lat="46.50755" lon="6.68009"><ele>429.6</ele><time>2021-09-11T16:25:16Z</time></trkpt>
<trkpt lat="46.50748" lon="6.68009"><ele>428.8</ele><time>2021-09-11T16:25:17Z</time></trkpt>
<trkpt lat="46.50732" lon="6.6801"><ele>427</ele><time>2021-09-11T16:25:19Z</time></trkpt>
<trkpt lat="46.50716" lon="6.6801"><ele>425.4</ele><time>2021-09-11T16:25:21Z</time></trkpt>
<trkpt lat="46.50704" lon="6.68011"><ele>423.8</ele><time>2021-09-11T16:25:23Z</time></trkpt>
<trkpt lat="46.50694" lon="6.68008"><ele>422.2</ele><time>2021-09-11T16:25:25Z</time></trkpt>
<trkpt lat="46.50687" lon="6.67984"><ele>420.6</ele><time>2021-09-11T16:25:29Z</time></trkpt>
<trkpt lat="46.50686" lon="6.67957"><ele>419.8</ele><time>2021-09-11T16:25:33Z</time></trkpt>
<trkpt lat="46.50688" lon="6.67929"><ele>419.8</ele><time>2021-09-11T16:25:37Z</time></trkpt>
<trkpt lat="46.50692" lon="6.67902"><ele>420.4</ele><time>2021-09-11T16:25:41Z</time></trkpt>
<trkpt lat="46.50698" lon="6.67872"><ele>421.4</ele><time>2021-09-11T16:25:46Z</time></trkpt>
<trkpt lat="46.50704" lon="6.67844"><ele>423</ele><time>2021-09-11T16:25:51Z</time></trkpt>
<trkpt lat="46.50709" lon="6.67828"><ele>424.2</ele><time>2021-09-11T16:25:54Z</time></trkpt>
<trkpt lat="46.50723" lon="6.67808"><ele>430.8</ele><time>2021-09-11T16:25:59Z</time></trkpt>
<trkpt lat="46.50728" lon="6.67803"><ele>432</ele><time>2021-09-11T16:26:01Z</time></trkpt>
<trkpt lat="46.50731" lon="6.67801"><ele>432.2</ele><time>2021-09-11T16:26:02Z</time></trkpt>
<trkpt lat="46.50749" lon="6.67788"><ele>435</ele><time>2021-09-11T16:26:09Z</time></trkpt>
<trkpt lat="46.50767" lon="6.67773"><ele>437.2</ele><time>2021-09-11T16:26:16Z</time></trkpt>
<trkpt lat="46.50781" lon="6.67752"><ele>439</ele><time>2021-09-11T16:26:23Z</time></trkpt>
<trkpt lat="46.50783" lon="6.67749"><ele>439</ele><time>2021-09-11T16:26:24Z</time></trkpt>
<trkpt lat="46.50787" lon="6.67739"><ele>439</ele><time>2021-09-11T16:26:27Z</time></trkpt>
<trkpt lat="46.50791" lon="6.67732"><ele>439</ele><time>2021-09-11T16:26:29Z</time></trkpt>
<trkpt lat="46.50794" lon="6.67726"><ele>439.4</ele><time>2021-09-11T16:26:31Z</time></trkpt>
<trkpt lat="46.50806" lon="6.67704"><ele>440.8</ele><time>2021-09-11T16:26:38Z</time></trkpt>
<trkpt lat="46.50822" lon="6.67672"><ele>441.8</ele><time>2021-09-11T16:26:48Z</time></trkpt>
<trkpt lat="46.50832" lon="6.6765"><ele>442</ele><time>2021-09-11T16:26:55Z</time></trkpt>
<trkpt lat="46.50843" lon="6.67629"><ele>442.2</ele><time>2021-09-11T16:27:02Z</time></trkpt>
<trkpt lat="46.50859" lon="6.67611"><ele>442.2</ele><time>2021-09-11T16:27:10Z</time></trkpt>
<trkpt lat="46.50878" lon="6.67601"><ele>443.6</ele><time>2021-09-11T16:27:17Z</time></trkpt>
<trkpt lat="46.50896" lon="6.67598"><ele>447</ele><time>2021-09-11T16:27:23Z</time></trkpt>
<trkpt lat="46.50916" lon="6.67599"><ele>447.8</ele><time>2021-09-11T16:27:30Z</time></trkpt>
<trkpt lat="46.50925" lon="6.67575"><ele>448.8</ele><time>2021-09-11T16:27:35Z</time></trkpt>
<trkpt lat="46.50927" lon="6.67547"><ele>449</ele><time>2021-09-11T16:27:40Z</time></trkpt>
<trkpt lat="46.50929" lon="6.67518"><ele>449.2</ele><time>2021-09-11T16:27:46Z</time></trkpt>
<trkpt lat="46.50943" lon="6.675"><ele>450.4</ele><time>2021-09-11T16:27:52Z</time></trkpt>
<trkpt lat="46.50961" lon="6.67489"><ele>452.2</ele><time>2021-09-11T16:27:58Z</time></trkpt>
<trkpt lat="46.50966" lon="6.67483"><ele>452.4</ele><time>2021-09-11T16:28:00Z</time></trkpt>
<trkpt lat="46.50975" lon="6.67463"><ele>452.4</ele><time>2021-09-11T16:28:05Z</time></trkpt>
<trkpt lat="46.50988" lon="6.67441"><ele>451.4</ele><time>2021-09-11T16:28:10Z</time></trkpt>
<trkpt lat="46.51004" lon="6.67418"><ele>449.8</ele><time>2021-09-11T16:28:15Z</time></trkpt>
<trkpt lat="46.51017" lon="6.67393"><ele>448</ele><time>2021-09-11T16:28:19Z</time></trkpt>
<trkpt lat="46.51029" lon="6.67365"><ele>446</ele><time>2021-09-11T16:28:23Z</time></trkpt>
<trkpt lat="46.51041" lon="6.67339"><ele>446.2</ele><time>2021-09-11T16:28:27Z</time></trkpt>
<trkpt lat="46.51053" lon="6.67316"><ele>446</ele><time>2021-09-11T16:28:31Z</time></trkpt>
<trkpt lat="46.51066" lon="6.67298"><ele>446.6</ele><time>2021-09-11T16:28:37Z</time></trkpt>
<trkpt lat="46.51075" lon="6.67301"><ele>447.2</ele><time>2021-09-11T16:28:41Z</time></trkpt>
<trkpt lat="46.51082" lon="6.67304"><ele>449</ele><time>2021-09-11T16:28:45Z</time></trkpt>
<trkpt lat="46.511" lon="6.67309"><ele>459.4</ele><time>2021-09-11T16:28:56Z</time></trkpt>
<trkpt lat="46.51119" lon="6.67319"><ele>464.8</ele><time>2021-09-11T16:29:06Z</time></trkpt>
<trkpt lat="46.51126" lon="6.67324"><ele>466.8</ele><time>2021-09-11T16:29:10Z</time></trkpt>
<trkpt lat="46.51133" lon="6.67331"><ele>467.4</ele><time>2021-09-11T16:29:14Z</time></trkpt>
<trkpt lat="46.5114" lon="6.67343"><ele>465.8</ele><time>2021-09-11T16:29:18Z</time></trkpt>
<trkpt lat="46.51145" lon="6.67371"><ele>461.4</ele><time>2021-09-11T16:29:26Z</time></trkpt>
<trkpt lat="46.51145" lon="6.67392"><ele>460.2</ele><time>2021-09-11T16:29:33Z</time></trkpt>
<trkpt lat="46.51146" lon="6.674"><ele>460.6</ele><time>2021-09-11T16:29:36Z</time></trkpt>
<trkpt lat="46.51167" lon="6.67404"><ele>462</ele><time>2021-09-11T16:29:44Z</time></trkpt>
<trkpt lat="46.51185" lon="6.67399"><ele>461.8</ele><time>2021-09-11T16:29:49Z</time></trkpt>
<trkpt lat="46.51205" lon="6.67396"><ele>462.6</ele><time>2021-09-11T16:29:53Z</time></trkpt>
<trkpt lat="46.51224" lon="6.67394"><ele>460.6</ele><time>2021-09-11T16:29:56Z</time></trkpt>
<trkpt lat="46.51229" lon="6.67393"><ele>460.2</ele><time>2021-09-11T16:29:57Z</time></trkpt>
<trkpt lat="46.51247" lon="6.67387"><ele>458</ele><time>2021-09-11T16:30:00Z</time></trkpt>
<trkpt lat="46.51268" lon="6.67387"><ele>455.6</ele><time>2021-09-11T16:30:03Z</time></trkpt>
<trkpt lat="46.51283" lon="6.67394"><ele>452.6</ele><time>2021-09-11T16:30:05Z</time></trkpt>
<trkpt lat="46.51296" lon="6.67402"><ele>451.4</ele><time>2021-09-11T16:30:07Z</time></trkpt>
<trkpt lat="46.51314" lon="6.67413"><ele>450.4</ele><time>2021-09-11T16:30:10Z</time></trkpt>
<trkpt lat="46.51325" lon="6.67429"><ele>449.2</ele><time>2021-09-11T16:30:13Z</time></trkpt>
<trkpt lat="46.51332" lon="6.67438"><ele>449.6</ele><time>2021-09-11T16:30:16Z</time></trkpt>
<trkpt lat="46.51344" lon="6.67436"><ele>449.4</ele><time>2021-09-11T16:30:19Z</time></trkpt>
<trkpt lat="46.51351" lon="6.67432"><ele>450</ele><time>2021-09-11T16:30:21Z</time></trkpt>
<trkpt lat="46.51359" lon="6.67426"><ele>448.8</ele><time>2021-09-11T16:30:23Z</time></trkpt>
<trkpt lat="46.51375" lon="6.67411"><ele>449.6</ele><time>2021-09-11T16:30:27Z</time></trkpt>
<trkpt lat="46.5139" lon="6.6739"><ele>451.6</ele><time>2021-09-11T16:30:31Z</time></trkpt>
<trkpt lat="46.5139" lon="6.67364"><ele>454.2</ele><time>2021-09-11T16:30:36Z</time></trkpt>
<trkpt lat="46.51388" lon="6.67354"><ele>452.2</ele><time>2021-09-11T16:30:39Z</time></trkpt>
<trkpt lat="46.51367" lon="6.67341"><ele>448.6</ele><time>2021-09-11T16:30:43Z</time></trkpt>
<trkpt lat="46.51358" lon="6.67331"><ele>448</ele><time>2021-09-11T16:30:45Z</time></trkpt>
<trkpt lat="46.51342" lon="6.67308"><ele>447.8</ele><time>2021-09-11T16:30:49Z</time></trkpt>
<trkpt lat="46.51332" lon="6.67286"><ele>448</ele><time>2021-09-11T16:30:53Z</time></trkpt>
<trkpt lat="46.51325" lon="6.67257"><ele>448.2</ele><time>2021-09-11T16:30:58Z</time></trkpt>
<trkpt lat="46.51319" lon="6.6723"><ele>448.6</ele><time>2021-09-11T16:31:03Z</time></trkpt>
<trkpt lat="46.51312" lon="6.67204"><ele>449</ele><time>2021-09-11T16:31:08Z</time></trkpt>
<trkpt lat="46.51311" lon="6.67199"><ele>449</ele><time>2021-09-11T16:31:09Z</time></trkpt>
<trkpt lat="46.51302" lon="6.67172"><ele>449.2</ele><time>2021-09-11T16:31:14Z</time></trkpt>
<trkpt lat="46.51297" lon="6.67157"><ele>449</ele><time>2021-09-11T16:31:17Z</time></trkpt>
<trkpt lat="46.51285" lon="6.67135"><ele>446.6</ele><time>2021-09-11T16:31:23Z</time></trkpt>
<trkpt lat="46.51268" lon="6.67119"><ele>445.4</ele><time>2021-09-11T16:31:28Z</time></trkpt>
<trkpt lat="46.51249" lon="6.67108"><ele>445.6</ele><time>2021-09-11T16:31:32Z</time></trkpt>
<trkpt lat="46.5123" lon="6.67099"><ele>446.2</ele><time>2021-09-11T16:31:36Z</time></trkpt>
<trkpt lat="46.51217" lon="6.67087"><ele>445.8</ele><time>2021-09-11T16:31:39Z</time></trkpt>
<trkpt lat="46.512" lon="6.67063"><ele>445.6</ele><time>2021-09-11T16:31:43Z</time></trkpt>
<trkpt lat="46.5119" lon="6.6704"><ele>445.6</ele><time>2021-09-11T16:31:46Z</time></trkpt>
<trkpt lat="46.51184" lon="6.67015"><ele>445.6</ele><time>2021-09-11T16:31:49Z</time></trkpt>
<trkpt lat="46.51179" lon="6.66982"><ele>446.4</ele><time>2021-09-11T16:31:53Z</time></trkpt>
<trkpt lat="46.51177" lon="6.66951"><ele>447.4</ele><time>2021-09-11T16:31:57Z</time></trkpt>
<trkpt lat="46.51177" lon="6.66924"><ele>448.4</ele><time>2021-09-11T16:32:01Z</time></trkpt>
<trkpt lat="46.51178" lon="6.66898"><ele>449.2</ele><time>2021-09-11T16:32:05Z</time></trkpt>
<trkpt lat="46.5118" lon="6.66871"><ele>449.8</ele><time>2021-09-11T16:32:09Z</time></trkpt>
<trkpt lat="46.51181" lon="6.66843"><ele>450.4</ele><time>2021-09-11T16:32:13Z</time></trkpt>
<trkpt lat="46.51182" lon="6.66815"><ele>451.2</ele><time>2021-09-11T16:32:17Z</time></trkpt>
<trkpt lat="46.51183" lon="6.66785"><ele>452.8</ele><time>2021-09-11T16:32:21Z</time></trkpt>
<trkpt lat="46.51184" lon="6.66752"><ele>453.2</ele><time>2021-09-11T16:32:25Z</time></trkpt>
<trkpt lat="46.51185" lon="6.66725"><ele>452</ele><time>2021-09-11T16:32:28Z</time></trkpt>
<trkpt lat="46.51188" lon="6.66696"><ele>451.2</ele><time>2021-09-11T16:32:31Z</time></trkpt>
<trkpt lat="46.51194" lon="6.66665"><ele>450.6</ele><time>2021-09-11T16:32:34Z</time></trkpt>
<trkpt lat="46.51201" lon="6.66633"><ele>450.2</ele><time>2021-09-11T16:32:37Z</time></trkpt>
<trkpt lat="46.51212" lon="6.66603"><ele>450</ele><time>2021-09-11T16:32:40Z</time></trkpt>
<trkpt lat="46.51225" lon="6.66576"><ele>450.4</ele><time>2021-09-11T16:32:43Z</time></trkpt>
<trkpt lat="46.51239" lon="6.6655"><ele>450.2</ele><time>2021-09-11T16:32:46Z</time></trkpt>
<trkpt lat="46.51252" lon="6.66525"><ele>450.8</ele><time>2021-09-11T16:32:49Z</time></trkpt>
<trkpt lat="46.51256" lon="6.66516"><ele>451.2</ele><time>2021-09-11T16:32:50Z</time></trkpt>
<trkpt lat="46.51269" lon="6.66493"><ele>452.2</ele><time>2021-09-11T16:32:53Z</time></trkpt>
<trkpt lat="46.51282" lon="6.66466"><ele>453.6</ele><time>2021-09-11T16:32:57Z</time></trkpt>
<trkpt lat="46.51291" lon="6.6644"><ele>455.2</ele><time>2021-09-11T16:33:02Z</time></trkpt>
<trkpt lat="46.51294" lon="6.66427"><ele>455.8</ele><time>2021-09-11T16:33:05Z</time></trkpt>
<trkpt lat="46.51298" lon="6.66415"><ele>457.8</ele><time>2021-09-11T16:33:12Z</time></trkpt>
<trkpt lat="46.51298" lon="6.66415"><ele>458.4</ele><time>2021-09-11T16:33:18Z</time></trkpt>
<trkpt lat="46.51302" lon="6.66403"><ele>458.6</ele><time>2021-09-11T16:33:25Z</time></trkpt>
<trkpt lat="46.5131" lon="6.66378"><ele>458.8</ele><time>2021-09-11T16:33:33Z</time></trkpt>
<trkpt lat="46.51315" lon="6.6635"><ele>459.2</ele><time>2021-09-11T16:33:38Z</time></trkpt>
<trkpt lat="46.51317" lon="6.66324"><ele>457.8</ele><time>2021-09-11T16:33:43Z</time></trkpt>
<trkpt lat="46.51317" lon="6.66292"><ele>456.6</ele><time>2021-09-11T16:33:48Z</time></trkpt>
<trkpt lat="46.51318" lon="6.66278"><ele>455.6</ele><time>2021-09-11T16:33:50Z</time></trkpt>
<trkpt lat="46.51318" lon="6.66246"><ele>454.6</ele><time>2021-09-11T16:33:55Z</time></trkpt>
<trkpt lat="46.51317" lon="6.66217"><ele>453.4</ele><time>2021-09-11T16:33:59Z</time></trkpt>
<trkpt lat="46.51317" lon="6.66188"><ele>453</ele><time>2021-09-11T16:34:03Z</time></trkpt>
<trkpt lat="46.51316" lon="6.66158"><ele>453</ele><time>2021-09-11T16:34:07Z</time></trkpt>
<trkpt lat="46.51315" lon="6.66126"><ele>451.2</ele><time>2021-09-11T16:34:11Z</time></trkpt>
<trkpt lat="46.51314" lon="6.66119"><ele>450.6</ele><time>2021-09-11T16:34:12Z</time></trkpt>
<trkpt lat="46.51296" lon="6.66106"><ele>446</ele><time>2021-09-11T16:34:17Z</time></trkpt>
<trkpt lat="46.51289" lon="6.66116"><ele>446.4</ele><time>2021-09-11T16:34:22Z</time></trkpt>
<trkpt lat="46.51289" lon="6.66116"><ele>446.8</ele><time>2021-09-11T16:34:24Z</time></trkpt>
</trkseg></trk></gpx>